Darstellungsparameter: Aktuell verwendete Einstellungen:
Skalierung der Graphiken ... ?
xyx+y,   Skalierungsfaktor:      Skalierung: Modus: x, Faktor: 1
Darstellungszeitraum ... ?
Vom - - bis: - -   Zeitraum: 30.07.2006 - 29.08.2006
Min/Max/Avg-Anzeige ... ?
Zeige MMA aktuell
Zeige MMA Monat
Zeige MMA alles
Zeige --A aktuell
Zeige --A Monat
Zeige --A alles
Keine MMA-Anzeige
MMA:
Average (ber die Originaldaten)
MMA-Basis: 30.07.2006 - 29.08.2006
Quicknavigation für Darstellung... ?
Tage:      1T, 2T, 3T, 5T -1T -2T -3T -5T +1T +2T +3T +5T
Wochen: 1W, 2W, 3W -1W -2W -3W +1W +2W +3W
Monate: 1M, 3M, 6M -1M -3M -6M +1M +3M +6M
Jahre:    1J, 3J, 5J, 10J -1J -3J -5J -10J +1J +3J +5J +10J
Nutze für die Darstellung ... ?
Originaldaten oder Mittelwerte auf ...
Stundenbasis Tagesbasis Wochenbasis
Monatsbasis Jahresbasis      Datenbasis: Original-Daten
Darstellen als:
Statistik (Auto) Statistik J:M      Darstellung:
Zur Graphik,    zurück zur Übersicht aller Sensoren.
 
Tabellarische Datenbersicht: ?
 
Sensor: Nr:Datum:Temp:Abs-Feuchte:Windchill:Wind:
Aussen-T/F 1 30-07-2006 00:09:02 21.8 C 11.7 g/m*3 21.8 C 0 km/h
2 30-07-2006 00:19:03 21.7 C 12.21 g/m*3 21.7 C 0 km/h
3 30-07-2006 00:29:03 21.6 C 11.76 g/m*3 21.6 C 0 km/h
4 30-07-2006 00:39:02 21.5 C 12.26 g/m*3 21.5 C 0 km/h
5 30-07-2006 00:49:03 21.3 C 12.68 g/m*3 21.3 C 0 km/h
6 30-07-2006 00:59:03 21.2 C 12.79 g/m*3 21.2 C 0 km/h
7 30-07-2006 01:09:03 21 C 12.82 g/m*3 21 C 0 km/h
8 30-07-2006 01:19:02 20.8 C 12.49 g/m*3 20.8 C 0 km/h
9 30-07-2006 01:29:02 20.7 C 12.42 g/m*3 20.7 C 0 km/h
10 30-07-2006 01:39:03 20.6 C 12.35 g/m*3 20.6 C 0 km/h
11 30-07-2006 01:49:02 20.5 C 12.1 g/m*3 20.5 C 0 km/h
12 30-07-2006 01:59:02 20.4 C 12.21 g/m*3 20.4 C 0 km/h
13 30-07-2006 02:09:02 20.3 C 12.66 g/m*3 20.3 C 0 km/h
14 30-07-2006 02:19:02 20.2 C 12.59 g/m*3 20.2 C 0 km/h
15 30-07-2006 02:29:02 20 C 12.62 g/m*3 20 C 0 km/h
16 30-07-2006 02:39:02 20 C 12.96 g/m*3 20 C 0 km/h
17 30-07-2006 02:50:04 19.9 C 13.23 g/m*3 19.9 C 0 km/h
18 30-07-2006 03:00:04 19.9 C 13.06 g/m*3 19.9 C 0 km/h
19 30-07-2006 03:10:04 19.7 C 12.91 g/m*3 19.7 C 0 km/h
20 30-07-2006 03:20:04 19.5 C 12.92 g/m*3 19.5 C 0 km/h
21 30-07-2006 03:30:04 19.5 C 12.92 g/m*3 19.5 C 0 km/h
22 30-07-2006 03:40:02 19.3 C 12.94 g/m*3 19.3 C 0 km/h
23 30-07-2006 03:50:02 19.3 C 12.94 g/m*3 19.3 C 0 km/h
24 30-07-2006 04:00:02 19.3 C 13.1 g/m*3 19.3 C 0 km/h
25 30-07-2006 04:10:01 19.1 C 13.28 g/m*3 19.1 C 0 km/h
Sensor: Nr:Datum:Temp:Abs-Feuchte:Windchill:Wind:
Aussen-T/F 26 30-07-2006 04:20:02 19 C 13.36 g/m*3 19 C 0 km/h
27 30-07-2006 04:30:02 18.9 C 13.28 g/m*3 18.9 C 0 km/h
28 30-07-2006 04:40:02 18.8 C 13.05 g/m*3 18.8 C 0 km/h
29 30-07-2006 04:50:02 18.7 C 13.29 g/m*3 18.7 C 0 km/h
30 30-07-2006 05:00:02 18.7 C 13.61 g/m*3 18.7 C 0 km/h
31 30-07-2006 05:10:03 18.5 C 13.45 g/m*3 18.5 C 0 km/h
32 30-07-2006 05:20:02 18.5 C 13.29 g/m*3 18.5 C 0 km/h
33 30-07-2006 05:30:02 18.3 C 13.13 g/m*3 18.3 C 0 km/h
34 30-07-2006 05:40:02 18.3 C 13.13 g/m*3 18.3 C 0 km/h
35 30-07-2006 05:50:02 18.2 C 13.06 g/m*3 18.2 C 0 km/h
36 30-07-2006 06:00:02 18.1 C 12.98 g/m*3 18.1 C 0 km/h
37 30-07-2006 06:10:03 18.2 C 13.21 g/m*3 18.2 C 0 km/h
38 30-07-2006 06:20:02 18.2 C 13.37 g/m*3 18.2 C 0 km/h
39 30-07-2006 06:30:02 18.4 C 13.68 g/m*3 18.4 C 0 km/h
40 30-07-2006 06:40:02 18.4 C 13.53 g/m*3 18.4 C 0 km/h
41 30-07-2006 06:50:02 18.4 C 13.53 g/m*3 18.4 C 0 km/h
42 30-07-2006 07:00:03 18.5 C 13.61 g/m*3 18.5 C 0 km/h
43 30-07-2006 07:10:02 18.5 C 13.61 g/m*3 18.5 C 0 km/h
44 30-07-2006 07:20:01 18.5 C 13.61 g/m*3 18.5 C 0 km/h
45 30-07-2006 07:30:01 18.6 C 13.53 g/m*3 18.6 C 0 km/h
46 30-07-2006 07:40:01 18.8 C 13.53 g/m*3 18.8 C 0 km/h
47 30-07-2006 07:50:02 19 C 13.53 g/m*3 19 C 0 km/h
48 30-07-2006 08:00:03 19.1 C 13.44 g/m*3 19.1 C 0 km/h
49 30-07-2006 08:10:02 19.1 C 13.44 g/m*3 19.1 C 0 km/h
50 30-07-2006 08:20:02 19.2 C 13.52 g/m*3 19.2 C 0 km/h
Sensor: Nr:Datum:Temp:Abs-Feuchte:Windchill:Wind:
Aussen-T/F 51 30-07-2006 08:30:02 19.4 C 13.51 g/m*3 19.4 C 0 km/h
52 30-07-2006 08:40:01 19.6 C 13.67 g/m*3 19.6 C 0 km/h
53 30-07-2006 08:50:02 19.8 C 13.66 g/m*3 19.8 C 0 km/h
54 30-07-2006 09:00:02 20 C 13.48 g/m*3 20 C 0 km/h
55 30-07-2006 09:10:02 20.5 C 13.52 g/m*3 20.5 C 0 km/h
56 30-07-2006 09:20:02 21.2 C 13.53 g/m*3 21.2 C 0 km/h
57 30-07-2006 09:30:02 22 C 13.2 g/m*3 22 C 0 km/h
58 30-07-2006 09:40:02 22.5 C 13.18 g/m*3 22.5 C 0 km/h
59 30-07-2006 09:50:02 22.8 C 13.41 g/m*3 22.8 C 0 km/h
60 30-07-2006 10:00:02 22.6 C 13.46 g/m*3 22.6 C 0 km/h
61 30-07-2006 10:10:02 23.6 C 13.4 g/m*3 23.6 C 0 km/h
62 30-07-2006 10:20:02 24.3 C 13.28 g/m*3 24.3 C 0 km/h
63 30-07-2006 10:30:02 25 C 13.12 g/m*3 25 C 0 km/h
64 30-07-2006 10:40:02 25.1 C 12.73 g/m*3 25.1 C 0 km/h
65 30-07-2006 10:50:02 25.2 C 12.8 g/m*3 25.2 C 0 km/h
66 30-07-2006 11:00:02 25.2 C 12.57 g/m*3 25.2 C 0 km/h
67 30-07-2006 11:10:02 25.5 C 12.55 g/m*3 25.5 C 0 km/h
68 30-07-2006 11:20:02 26.2 C 11.57 g/m*3 26.2 C 0 km/h
69 30-07-2006 11:30:02 26.7 C 11.14 g/m*3 26.7 C 0 km/h
70 30-07-2006 11:40:02 27.3 C 9.42 g/m*3 27.3 C 0 km/h
71 30-07-2006 11:50:01 27.8 C 9.15 g/m*3 27.8 C 0 km/h
72 30-07-2006 12:00:01 28 C 8.97 g/m*3 28 C 0 km/h
73 30-07-2006 12:10:01 28.1 C 9.57 g/m*3 28.1 C 0 km/h
74 30-07-2006 12:20:02 28.6 C 9.55 g/m*3 28.6 C 0 km/h
75 30-07-2006 12:30:03 29.2 C 9 g/m*3 29.2 C 0 km/h
Sensor: Nr:Datum:Temp:Abs-Feuchte:Windchill:Wind:
Aussen-T/F 76 30-07-2006 12:40:02 29.2 C 8.71 g/m*3 29.2 C 0 km/h
77 30-07-2006 12:50:03 29.7 C 8.65 g/m*3 29.7 C 0 km/h
78 30-07-2006 13:00:03 30.1 C 8.23 g/m*3 30.1 C 0 km/h
79 30-07-2006 13:10:02 30.4 C 8.68 g/m*3 30.4 C 0 km/h
80 30-07-2006 13:20:02 30.6 C 8.14 g/m*3 30.6 C 0 km/h
81 30-07-2006 13:30:03 30.8 C 8.23 g/m*3 30.8 C 0 km/h
82 30-07-2006 13:40:02 30.7 C 8.5 g/m*3 30.7 C 0 km/h
83 30-07-2006 13:50:02 31 C 8.32 g/m*3 31 C 0 km/h
84 30-07-2006 14:00:02 30.5 C 8.41 g/m*3 30.5 C 0 km/h
85 30-07-2006 14:10:03 30.9 C 8.28 g/m*3 30.9 C 0 km/h
86 30-07-2006 14:20:03 31.2 C 8.09 g/m*3 31.2 C 0 km/h
87 30-07-2006 14:30:03 30.8 C 7.92 g/m*3 30.8 C 0 km/h
88 30-07-2006 14:40:03 31.1 C 8.04 g/m*3 31.1 C 0 km/h
89 30-07-2006 14:50:03 31.1 C 8.04 g/m*3 31.1 C 0 km/h
90 30-07-2006 15:00:03 31.4 C 7.52 g/m*3 31.4 C 0 km/h
91 30-07-2006 15:10:03 31.3 C 7.15 g/m*3 31.3 C 0 km/h
92 30-07-2006 15:20:03 31.5 C 7.56 g/m*3 31.5 C 0 km/h
93 30-07-2006 15:30:03 31.4 C 7.52 g/m*3 31.4 C 0 km/h
94 30-07-2006 15:40:03 31.5 C 7.56 g/m*3 31.5 C 0 km/h
95 30-07-2006 15:50:03 31.9 C 7.39 g/m*3 31.9 C 0 km/h
96 30-07-2006 16:00:03 31.8 C 7.35 g/m*3 31.8 C 0 km/h
97 30-07-2006 16:10:03 31.7 C 7.64 g/m*3 31.7 C 0 km/h
98 30-07-2006 16:20:04 31.6 C 7.93 g/m*3 31.6 C 0 km/h
99 30-07-2006 16:30:04 31.3 C 8.13 g/m*3 31.3 C 0 km/h
100 30-07-2006 16:40:04 31 C 8.96 g/m*3 31 C 0 km/h
Sensor: Nr:Datum:Temp:Abs-Feuchte:Windchill:Wind:
Aussen-T/F 101 30-07-2006 16:50:04 30.9 C 8.28 g/m*3 30.9 C 0 km/h
102 30-07-2006 17:00:04 30.8 C 8.55 g/m*3 30.8 C 0 km/h
103 30-07-2006 17:10:04 30.6 C 8.77 g/m*3 30.6 C 0 km/h
104 30-07-2006 17:20:04 29.9 C 9.65 g/m*3 29.9 C 0 km/h
105 30-07-2006 17:30:04 29.4 C 9.39 g/m*3 29.4 C 0 km/h
106 30-07-2006 17:40:04 29.5 C 9.74 g/m*3 29.5 C 0 km/h
107 30-07-2006 17:50:04 29.6 C 9.5 g/m*3 29.6 C 0 km/h
108 30-07-2006 18:00:04 29.5 C 9.74 g/m*3 29.5 C 0 km/h
109 30-07-2006 18:10:02 29.4 C 9.39 g/m*3 29.4 C 0 km/h
110 30-07-2006 18:20:02 29.5 C 9.44 g/m*3 29.5 C 0 km/h
111 30-07-2006 18:30:02 29.5 C 9.44 g/m*3 29.5 C 0 km/h
112 30-07-2006 18:40:03 29.7 C 10.44 g/m*3 29.7 C 0 km/h
113 30-07-2006 18:50:02 29.8 C 9.6 g/m*3 29.8 C 0 km/h
114 30-07-2006 19:00:02 29.7 C 9.85 g/m*3 29.7 C 0 km/h
115 30-07-2006 19:10:02 28.9 C 10.57 g/m*3 28.9 C 0 km/h
116 30-07-2006 19:20:01 28.9 C 10.86 g/m*3 28.9 C 0 km/h
117 30-07-2006 19:30:01 28.6 C 10.12 g/m*3 28.6 C 0 km/h
118 30-07-2006 19:40:02 28.4 C 9.73 g/m*3 28.4 C 0 km/h
119 30-07-2006 19:50:02 28.1 C 9.57 g/m*3 28.1 C 0 km/h
120 30-07-2006 20:00:02 27.8 C 9.41 g/m*3 27.8 C 0 km/h
121 30-07-2006 20:10:02 27.7 C 9.36 g/m*3 27.7 C 0 km/h
122 30-07-2006 20:20:01 26.9 C 9.47 g/m*3 26.9 C 0 km/h
123 30-07-2006 20:30:01 26.6 C 9.31 g/m*3 26.6 C 0 km/h
124 30-07-2006 20:40:02 26.5 C 9.26 g/m*3 26.5 C 0 km/h
125 30-07-2006 20:50:03 26.1 C 9.3 g/m*3 26.1 C 0 km/h
Sensor: Nr:Datum:Temp:Abs-Feuchte:Windchill:Wind:
Aussen-T/F 126 30-07-2006 21:00:03 25.8 C 9.87 g/m*3 25.8 C 0 km/h
127 30-07-2006 21:10:02 25.5 C 10.18 g/m*3 25.5 C 0 km/h
128 30-07-2006 21:20:02 25.4 C 10.36 g/m*3 25.4 C 0 km/h
129 30-07-2006 21:30:02 25.2 C 10.71 g/m*3 25.2 C 0 km/h
130 30-07-2006 21:40:02 24.1 C 11.38 g/m*3 24.1 C 0 km/h
131 30-07-2006 21:50:02 24 C 11.53 g/m*3 24 C 0 km/h
132 30-07-2006 22:00:02 23.6 C 11.7 g/m*3 23.6 C 0 km/h
133 30-07-2006 22:10:02 23.6 C 11.7 g/m*3 23.6 C 0 km/h
134 30-07-2006 22:20:02 23.7 C 11.98 g/m*3 23.7 C 0 km/h
135 30-07-2006 22:30:02 23.5 C 11.63 g/m*3 23.5 C 0 km/h
136 30-07-2006 22:40:02 23.2 C 11.64 g/m*3 23.2 C 0 km/h
137 30-07-2006 22:50:02 23 C 11.51 g/m*3 23 C 0 km/h
138 30-07-2006 23:00:03 22.8 C 11.79 g/m*3 22.8 C 0 km/h
139 30-07-2006 23:10:02 22.9 C 11.85 g/m*3 22.9 C 0 km/h
140 30-07-2006 23:20:02 22.6 C 11.85 g/m*3 22.6 C 0 km/h
141 30-07-2006 23:30:02 22 C 11.45 g/m*3 22 C 0 km/h
142 30-07-2006 23:40:03 21.8 C 11.7 g/m*3 21.8 C 0 km/h
143 30-07-2006 23:50:02 21.5 C 11.69 g/m*3 21.5 C 0 km/h
144 31-07-2006 00:00:02 21.3 C 11.56 g/m*3 21.3 C 0 km/h
145 31-07-2006 00:10:02 21.2 C 11.49 g/m*3 21.2 C 0 km/h
146 31-07-2006 00:20:03 21 C 11.36 g/m*3 21 C 0 km/h
147 31-07-2006 00:30:03 20.8 C 11.59 g/m*3 20.8 C 0 km/h
148 31-07-2006 00:40:02 20.5 C 11.57 g/m*3 20.5 C 0 km/h
149 31-07-2006 00:50:03 20.5 C 11.57 g/m*3 20.5 C 0 km/h
150 31-07-2006 01:00:03 20.6 C 11.63 g/m*3 20.6 C 0 km/h
Sensor: Nr:Datum:Temp:Abs-Feuchte:Windchill:Wind:
Aussen-T/F 151 31-07-2006 01:10:03 20.6 C 11.81 g/m*3 20.6 C 0 km/h
152 31-07-2006 01:20:02 20.6 C 11.45 g/m*3 20.6 C 0 km/h
153 31-07-2006 01:30:02 20.4 C 11.68 g/m*3 20.4 C 0 km/h
154 31-07-2006 01:40:03 20.5 C 11.74 g/m*3 20.5 C 0 km/h
155 31-07-2006 01:50:02 20.4 C 11.68 g/m*3 20.4 C 0 km/h
156 31-07-2006 02:00:02 20.7 C 11.7 g/m*3 20.7 C 0 km/h
157 31-07-2006 02:10:01 20.4 C 11.68 g/m*3 20.4 C 0 km/h
158 31-07-2006 02:20:02 20.1 C 11.65 g/m*3 20.1 C 0 km/h
159 31-07-2006 02:30:02 20 C 11.41 g/m*3 20 C 0 km/h
160 31-07-2006 02:40:02 19.8 C 11.44 g/m*3 19.8 C 0 km/h
161 31-07-2006 02:51:04 19.6 C 11.31 g/m*3 19.6 C 0 km/h
162 31-07-2006 03:01:04 19.6 C 11.31 g/m*3 19.6 C 0 km/h
163 31-07-2006 03:11:04 19.8 C 11.27 g/m*3 19.8 C 0 km/h
164 31-07-2006 03:21:04 19.8 C 11.27 g/m*3 19.8 C 0 km/h
165 31-07-2006 03:31:02 19.9 C 11.34 g/m*3 19.9 C 0 km/h
166 31-07-2006 03:41:02 20 C 11.23 g/m*3 20 C 0 km/h
167 31-07-2006 03:51:02 19.4 C 11.85 g/m*3 19.4 C 0 km/h
168 31-07-2006 04:01:02 19.4 C 11.85 g/m*3 19.4 C 0 km/h
169 31-07-2006 04:11:02 19.5 C 11.75 g/m*3 19.5 C 0 km/h
170 31-07-2006 04:21:02 19.2 C 11.87 g/m*3 19.2 C 0 km/h
171 31-07-2006 04:31:01 18.9 C 12.47 g/m*3 18.9 C 0 km/h
172 31-07-2006 04:41:01 18.7 C 12.33 g/m*3 18.7 C 0 km/h
173 31-07-2006 04:51:02 18.7 C 12.49 g/m*3 18.7 C 0 km/h
174 31-07-2006 05:01:02 18.3 C 12.2 g/m*3 18.3 C 0 km/h
175 31-07-2006 05:11:02 18.3 C 12.66 g/m*3 18.3 C 0 km/h
Sensor: Nr:Datum:Temp:Abs-Feuchte:Windchill:Wind:
Aussen-T/F 176 31-07-2006 05:21:02 18.3 C 12.51 g/m*3 18.3 C 0 km/h
177 31-07-2006 05:31:03 18.4 C 12.74 g/m*3 18.4 C 0 km/h
178 31-07-2006 05:41:03 18.6 C 12.73 g/m*3 18.6 C 0 km/h
179 31-07-2006 05:51:02 18.5 C 12.66 g/m*3 18.5 C 0 km/h
180 31-07-2006 06:01:02 18.3 C 12.35 g/m*3 18.3 C 0 km/h
181 31-07-2006 06:11:02 18 C 12.13 g/m*3 18 C 0 km/h
182 31-07-2006 06:21:02 17.9 C 12.21 g/m*3 17.9 C 0 km/h
183 31-07-2006 06:31:02 18 C 12.13 g/m*3 18 C 0 km/h
184 31-07-2006 06:41:02 18.3 C 12.2 g/m*3 18.3 C 0 km/h
185 31-07-2006 06:51:02 18.6 C 12.1 g/m*3 18.6 C 0 km/h
186 31-07-2006 07:01:03 18.8 C 12.24 g/m*3 18.8 C 0 km/h
187 31-07-2006 07:11:03 19 C 12.06 g/m*3 19 C 0 km/h
188 31-07-2006 07:21:02 19 C 11.9 g/m*3 19 C 0 km/h
189 31-07-2006 07:31:02 19.1 C 12.13 g/m*3 19.1 C 0 km/h
190 31-07-2006 07:41:02 19.1 C 11.97 g/m*3 19.1 C 0 km/h
191 31-07-2006 07:51:02 19.2 C 12.04 g/m*3 19.2 C 0 km/h
192 31-07-2006 08:01:03 19.3 C 12.11 g/m*3 19.3 C 0 km/h
193 31-07-2006 08:11:03 19.9 C 12.2 g/m*3 19.9 C 0 km/h
194 31-07-2006 08:21:03 20.3 C 12.14 g/m*3 20.3 C 0 km/h
195 31-07-2006 08:31:03 20.1 C 11.82 g/m*3 20.1 C 0 km/h
196 31-07-2006 08:41:03 20.3 C 11.61 g/m*3 20.3 C 0 km/h
197 31-07-2006 08:51:02 20.6 C 11.63 g/m*3 20.6 C 0 km/h
198 31-07-2006 09:01:03 21.3 C 11.56 g/m*3 21.3 C 0 km/h
199 31-07-2006 09:11:03 21.8 C 10.74 g/m*3 21.8 C 0 km/h
200 31-07-2006 09:21:01 22.2 C 9.42 g/m*3 22.2 C 0 km/h
Sensor: Nr:Datum:Temp:Abs-Feuchte:Windchill:Wind:
Aussen-T/F 201 31-07-2006 09:31:02 22.9 C 9.4 g/m*3 22.9 C 0 km/h
202 31-07-2006 09:41:02 22.5 C 8.79 g/m*3 22.5 C 0 km/h
203 31-07-2006 09:51:03 22.3 C 9.28 g/m*3 22.3 C 0 km/h
204 31-07-2006 10:01:03 22.6 C 9.64 g/m*3 22.6 C 0 km/h
205 31-07-2006 10:11:03 22.7 C 9.9 g/m*3 22.7 C 0 km/h
206 31-07-2006 10:21:03 22.6 C 10.04 g/m*3 22.6 C 0 km/h
207 31-07-2006 10:31:02 22.9 C 10.22 g/m*3 22.9 C 0 km/h
208 31-07-2006 10:41:02 23 C 10.28 g/m*3 23 C 0 km/h
209 31-07-2006 10:51:02 24.3 C 10.18 g/m*3 24.3 C 0 km/h
210 31-07-2006 11:01:02 24 C 10.44 g/m*3 24 C 0 km/h
211 31-07-2006 11:11:02 24.5 C 10.52 g/m*3 24.5 C 0 km/h
212 31-07-2006 11:21:02 24.3 C 10.62 g/m*3 24.3 C 0 km/h
213 31-07-2006 11:31:02 24 C 10.44 g/m*3 24 C 0 km/h
214 31-07-2006 11:41:02 24 C 10.01 g/m*3 24 C 0 km/h
215 31-07-2006 11:51:02 23.7 C 10.05 g/m*3 23.7 C 0 km/h
216 31-07-2006 12:01:02 24.1 C 9.63 g/m*3 24.1 C 0 km/h
217 31-07-2006 12:11:02 25.1 C 9.49 g/m*3 25.1 C 0 km/h
218 31-07-2006 12:21:02 25.6 C 9.52 g/m*3 25.6 C 0 km/h
219 31-07-2006 12:31:02 26.5 C 9.26 g/m*3 26.5 C 0 km/h
220 31-07-2006 12:41:02 27.2 C 9.37 g/m*3 27.2 C 0 km/h
221 31-07-2006 12:51:02 26.4 C 9.21 g/m*3 26.4 C 0 km/h
222 31-07-2006 13:01:02 26.6 C 9.06 g/m*3 26.6 C 0 km/h
223 31-07-2006 13:11:02 27.4 C 8.95 g/m*3 27.4 C 0 km/h
224 31-07-2006 13:21:02 27.7 C 8.83 g/m*3 27.7 C 0 km/h
225 31-07-2006 13:31:02 27.2 C 8.33 g/m*3 27.2 C 0 km/h
Sensor: Nr:Datum:Temp:Abs-Feuchte:Windchill:Wind:
Aussen-T/F 226 31-07-2006 13:41:02 26.7 C 8.1 g/m*3 26.7 C 0 km/h
227 31-07-2006 13:51:02 26.8 C 7.64 g/m*3 26.8 C 0 km/h
228 31-07-2006 14:01:02 26.7 C 7.59 g/m*3 26.7 C 0 km/h
229 31-07-2006 14:11:02 26 C 7.55 g/m*3 26 C 0 km/h
230 31-07-2006 14:21:02 26.5 C 7.51 g/m*3 26.5 C 0 km/h
231 31-07-2006 14:31:01 26.5 C 7.51 g/m*3 26.5 C 0 km/h
232 31-07-2006 14:41:01 26.1 C 7.34 g/m*3 26.1 C 0 km/h
233 31-07-2006 14:51:02 25.8 C 7.46 g/m*3 25.8 C 0 km/h
234 31-07-2006 15:01:02 26.8 C 7.89 g/m*3 26.8 C 0 km/h
235 31-07-2006 15:11:02 27.4 C 7.89 g/m*3 27.4 C 0 km/h
236 31-07-2006 15:21:02 27.4 C 7.63 g/m*3 27.4 C 0 km/h
237 31-07-2006 15:31:02 26.6 C 7.55 g/m*3 26.6 C 0 km/h
238 31-07-2006 15:41:02 26 C 7.55 g/m*3 26 C 0 km/h
239 31-07-2006 15:51:03 25.7 C 7.66 g/m*3 25.7 C 0 km/h
240 31-07-2006 16:01:03 25.7 C 7.66 g/m*3 25.7 C 0 km/h
241 31-07-2006 16:11:03 26.1 C 7.34 g/m*3 26.1 C 0 km/h
242 31-07-2006 16:21:02 27 C 7.21 g/m*3 27 C 0 km/h
243 31-07-2006 16:31:02 27.3 C 7.06 g/m*3 27.3 C 0 km/h
244 31-07-2006 16:41:02 28.7 C 7.63 g/m*3 28.7 C 0 km/h
245 31-07-2006 16:51:02 28.6 C 7.03 g/m*3 28.6 C 0 km/h
246 31-07-2006 17:01:02 29.1 C 7.22 g/m*3 29.1 C 0 km/h
247 31-07-2006 17:11:02 29.2 C 7.26 g/m*3 29.2 C 0 km/h
248 31-07-2006 17:21:02 28.4 C 6.95 g/m*3 28.4 C 0 km/h
249 31-07-2006 17:31:02 27.3 C 7.06 g/m*3 27.3 C 0 km/h
250 31-07-2006 17:41:02 29.3 C 7.01 g/m*3 29.3 C 0 km/h
Sensor: Nr:Datum:Temp:Abs-Feuchte:Windchill:Wind:
Aussen-T/F 251 31-07-2006 17:51:01 30.2 C 6.74 g/m*3 30.2 C 0 km/h
252 31-07-2006 18:01:02 30 C 6.67 g/m*3 30 C 0 km/h
253 31-07-2006 18:11:02 30.4 C 6.82 g/m*3 30.4 C 0 km/h
254 31-07-2006 18:21:02 30.7 C 6.3 g/m*3 30.7 C 0 km/h
255 31-07-2006 18:31:02 30.4 C 6.82 g/m*3 30.4 C 0 km/h
256 31-07-2006 18:41:02 30.4 C 6.51 g/m*3 30.4 C 0 km/h
257 31-07-2006 18:51:03 30.9 C 6.37 g/m*3 30.9 C 0 km/h
258 31-07-2006 19:01:03 30 C 6.37 g/m*3 30 C 0 km/h
259 31-07-2006 19:11:03 28.6 C 7.03 g/m*3 28.6 C 0 km/h
260 31-07-2006 19:21:01 27.7 C 7.22 g/m*3 27.7 C 0 km/h
261 31-07-2006 19:31:01 27.1 C 7.76 g/m*3 27.1 C 0 km/h
262 31-07-2006 19:41:01 26.5 C 7.76 g/m*3 26.5 C 0 km/h
263 31-07-2006 19:51:01 26.4 C 7.72 g/m*3 26.4 C 0 km/h
264 31-07-2006 20:01:02 25.8 C 7.7 g/m*3 25.8 C 0 km/h
265 31-07-2006 20:11:02 25.7 C 7.9 g/m*3 25.7 C 0 km/h
266 31-07-2006 20:21:02 25.7 C 7.9 g/m*3 25.7 C 0 km/h
267 31-07-2006 20:31:02 26 C 7.79 g/m*3 26 C 0 km/h
268 31-07-2006 20:41:02 25.4 C 8 g/m*3 25.4 C 0 km/h
269 31-07-2006 20:51:02 24.7 C 8.15 g/m*3 24.7 C 0 km/h
270 31-07-2006 21:01:01 24.1 C 7.88 g/m*3 24.1 C 0 km/h
271 31-07-2006 21:11:01 23.5 C 7.82 g/m*3 23.5 C 0 km/h
272 31-07-2006 21:21:01 23.3 C 7.95 g/m*3 23.3 C 0 km/h
273 31-07-2006 21:31:02 23.5 C 8.04 g/m*3 23.5 C 0 km/h
274 31-07-2006 21:41:02 23.4 C 7.99 g/m*3 23.4 C 0 km/h
275 31-07-2006 21:51:02 23.3 C 8.15 g/m*3 23.3 C 0 km/h
Sensor: Nr:Datum:Temp:Abs-Feuchte:Windchill:Wind:
Aussen-T/F 276 31-07-2006 22:01:01 22.9 C 8.38 g/m*3 22.9 C 0 km/h
277 31-07-2006 22:11:01 22.8 C 8.33 g/m*3 22.8 C 0 km/h
278 31-07-2006 22:21:01 22.8 C 8.33 g/m*3 22.8 C 0 km/h
279 31-07-2006 22:31:02 22.5 C 8.19 g/m*3 22.5 C 0 km/h
280 31-07-2006 22:41:02 22 C 8.15 g/m*3 22 C 0 km/h
281 31-07-2006 22:51:02 21.6 C 8.35 g/m*3 21.6 C 0 km/h
282 31-07-2006 23:01:02 21.4 C 8.62 g/m*3 21.4 C 0 km/h
283 31-07-2006 23:11:02 21.1 C 8.66 g/m*3 21.1 C 0 km/h
284 31-07-2006 23:21:02 20.9 C 8.56 g/m*3 20.9 C 0 km/h
285 31-07-2006 23:31:01 20.6 C 8.77 g/m*3 20.6 C 0 km/h
286 31-07-2006 23:41:01 20.4 C 8.85 g/m*3 20.4 C 0 km/h
287 31-07-2006 23:51:02 20.3 C 8.79 g/m*3 20.3 C 0 km/h
288 01-08-2006 00:01:02 19.9 C 9.11 g/m*3 19.9 C 0 km/h
289 01-08-2006 00:11:02 19.7 C 9.34 g/m*3 19.7 C 0 km/h
290 01-08-2006 00:21:02 19.5 C 9.4 g/m*3 19.5 C 0 km/h
291 01-08-2006 00:31:02 19.4 C 9.34 g/m*3 19.4 C 0 km/h
292 01-08-2006 00:41:02 19.3 C 9.29 g/m*3 19.3 C 0 km/h
293 01-08-2006 00:51:02 19.2 C 9.4 g/m*3 19.2 C 0 km/h
294 01-08-2006 01:01:02 19.1 C 9.34 g/m*3 19.1 C 0 km/h
295 01-08-2006 01:11:02 19 C 9.61 g/m*3 19 C 0 km/h
296 01-08-2006 01:21:02 18.7 C 9.77 g/m*3 18.7 C 0 km/h
297 01-08-2006 01:31:02 18.6 C 9.71 g/m*3 18.6 C 0 km/h
298 01-08-2006 01:41:02 18.6 C 9.71 g/m*3 18.6 C 0 km/h
299 01-08-2006 01:51:03 18.5 C 9.65 g/m*3 18.5 C 0 km/h
300 01-08-2006 02:01:03 18.3 C 9.85 g/m*3 18.3 C 0 km/h
Sensor: Nr:Datum:Temp:Abs-Feuchte:Windchill:Wind:
Aussen-T/F 301 01-08-2006 02:11:03 18.3 C 10.01 g/m*3 18.3 C 0 km/h
302 01-08-2006 02:21:02 18.3 C 9.85 g/m*3 18.3 C 0 km/h
303 01-08-2006 02:31:02 18.1 C 9.73 g/m*3 18.1 C 0 km/h
304 01-08-2006 02:41:02 18 C 9.83 g/m*3 18 C 0 km/h
305 01-08-2006 02:52:03 18.1 C 10.04 g/m*3 18.1 C 0 km/h
306 01-08-2006 03:02:03 18.1 C 10.04 g/m*3 18.1 C 0 km/h
307 01-08-2006 03:12:03 18 C 9.98 g/m*3 18 C 0 km/h
308 01-08-2006 03:22:03 18 C 9.98 g/m*3 18 C 0 km/h
309 01-08-2006 03:32:02 18 C 9.98 g/m*3 18 C 0 km/h
310 01-08-2006 03:42:02 18 C 9.98 g/m*3 18 C 0 km/h
311 01-08-2006 03:52:02 18 C 9.98 g/m*3 18 C 0 km/h
312 01-08-2006 04:02:02 18 C 9.98 g/m*3 18 C 0 km/h
313 01-08-2006 04:12:02 18 C 10.29 g/m*3 18 C 0 km/h
314 01-08-2006 04:22:02 18.1 C 10.35 g/m*3 18.1 C 0 km/h
315 01-08-2006 04:32:02 17.7 C 10.26 g/m*3 17.7 C 0 km/h
316 01-08-2006 04:42:02 17.7 C 10.41 g/m*3 17.7 C 0 km/h
317 01-08-2006 04:52:02 17.7 C 10.41 g/m*3 17.7 C 0 km/h
318 01-08-2006 05:02:01 17.8 C 10.32 g/m*3 17.8 C 0 km/h
319 01-08-2006 05:12:01 17.8 C 10.32 g/m*3 17.8 C 0 km/h
320 01-08-2006 05:22:02 17.5 C 11.18 g/m*3 17.5 C 0 km/h
321 01-08-2006 05:32:02 17 C 11.14 g/m*3 17 C 0 km/h
322 01-08-2006 05:42:02 16.9 C 11.51 g/m*3 16.9 C 0 km/h
323 01-08-2006 05:52:03 16.8 C 11.44 g/m*3 16.8 C 0 km/h
324 01-08-2006 06:02:02 16.9 C 11.36 g/m*3 16.9 C 0 km/h
325 01-08-2006 06:12:02 17.1 C 11.35 g/m*3 17.1 C 0 km/h
Sensor: Nr:Datum:Temp:Abs-Feuchte:Windchill:Wind:
Aussen-T/F 326 01-08-2006 06:22:02 17.1 C 11.21 g/m*3 17.1 C 0 km/h
327 01-08-2006 06:32:02 17.1 C 11.21 g/m*3 17.1 C 0 km/h
328 01-08-2006 06:42:02 17.2 C 10.98 g/m*3 17.2 C 0 km/h
329 01-08-2006 06:52:03 17.3 C 10.9 g/m*3 17.3 C 0 km/h
330 01-08-2006 07:02:03 17.4 C 10.82 g/m*3 17.4 C 0 km/h
331 01-08-2006 07:12:03 17.5 C 10.88 g/m*3 17.5 C 0 km/h
332 01-08-2006 07:22:03 17.6 C 10.95 g/m*3 17.6 C 0 km/h
333 01-08-2006 07:32:02 17.7 C 10.86 g/m*3 17.7 C 0 km/h
334 01-08-2006 07:42:02 18.1 C 10.97 g/m*3 18.1 C 0 km/h
335 01-08-2006 07:52:03 18.3 C 11.1 g/m*3 18.3 C 0 km/h
336 01-08-2006 08:02:02 18.4 C 11.01 g/m*3 18.4 C 0 km/h
337 01-08-2006 08:12:02 18.9 C 11.18 g/m*3 18.9 C 0 km/h
338 01-08-2006 08:22:02 19.2 C 10.72 g/m*3 19.2 C 0 km/h
339 01-08-2006 08:32:02 19.4 C 10.68 g/m*3 19.4 C 0 km/h
340 01-08-2006 08:42:02 19.7 C 10.87 g/m*3 19.7 C 0 km/h
341 01-08-2006 08:52:02 20.3 C 10.73 g/m*3 20.3 C 0 km/h
342 01-08-2006 09:02:02 20.4 C 10.26 g/m*3 20.4 C 0 km/h
343 01-08-2006 09:12:02 21 C 10.44 g/m*3 21 C 0 km/h
344 01-08-2006 09:22:02 21.2 C 9.82 g/m*3 21.2 C 0 km/h
345 01-08-2006 09:32:02 21.4 C 9.94 g/m*3 21.4 C 0 km/h
346 01-08-2006 09:42:02 21.9 C 9.26 g/m*3 21.9 C 0 km/h
347 01-08-2006 09:52:02 21.8 C 9.02 g/m*3 21.8 C 0 km/h
348 01-08-2006 10:02:02 21.9 C 9.26 g/m*3 21.9 C 0 km/h
349 01-08-2006 10:12:02 21.9 C 9.26 g/m*3 21.9 C 0 km/h
350 01-08-2006 10:22:02 21.9 C 9.26 g/m*3 21.9 C 0 km/h
Sensor: Nr:Datum:Temp:Abs-Feuchte:Windchill:Wind:
Aussen-T/F 351 01-08-2006 10:32:02 22.3 C 9.08 g/m*3 22.3 C 0 km/h
352 01-08-2006 10:42:02 22.4 C 8.74 g/m*3 22.4 C 0 km/h
353 01-08-2006 10:52:02 22.4 C 8.94 g/m*3 22.4 C 0 km/h
354 01-08-2006 11:02:02 22.1 C 8.59 g/m*3 22.1 C 0 km/h
355 01-08-2006 11:12:03 22.4 C 8.94 g/m*3 22.4 C 0 km/h
356 01-08-2006 11:22:02 22.9 C 8.99 g/m*3 22.9 C 0 km/h
357 01-08-2006 11:32:02 23 C 9.04 g/m*3 23 C 0 km/h
358 01-08-2006 11:42:02 22.7 C 8.89 g/m*3 22.7 C 0 km/h
359 01-08-2006 11:52:03 22.8 C 9.14 g/m*3 22.8 C 0 km/h
360 01-08-2006 12:02:03 22.2 C 8.83 g/m*3 22.2 C 0 km/h
361 01-08-2006 12:12:03 22.6 C 9.24 g/m*3 22.6 C 0 km/h
362 01-08-2006 12:22:02 22.4 C 9.33 g/m*3 22.4 C 0 km/h
363 01-08-2006 12:32:02 22.4 C 9.33 g/m*3 22.4 C 0 km/h
364 01-08-2006 12:42:02 21.6 C 9.67 g/m*3 21.6 C 0 km/h
365 01-08-2006 12:52:02 21.9 C 9.65 g/m*3 21.9 C 0 km/h
366 01-08-2006 13:02:02 22 C 9.9 g/m*3 22 C 0 km/h
367 01-08-2006 13:12:02 22.3 C 10.07 g/m*3 22.3 C 0 km/h
368 01-08-2006 13:22:02 22 C 9.9 g/m*3 22 C 0 km/h
369 01-08-2006 13:32:02 21.6 C 10.24 g/m*3 21.6 C 0 km/h
370 01-08-2006 13:42:02 22.2 C 10.21 g/m*3 22.2 C 0 km/h
371 01-08-2006 13:52:02 22 C 10.09 g/m*3 22 C 0 km/h
372 01-08-2006 14:02:02 22.1 C 10.15 g/m*3 22.1 C 0 km/h
373 01-08-2006 14:12:02 22 C 10.29 g/m*3 22 C 0 km/h
374 01-08-2006 14:22:02 22.8 C 10.36 g/m*3 22.8 C 0 km/h
375 01-08-2006 14:32:02 21.9 C 10.42 g/m*3 21.9 C 0 km/h
Sensor: Nr:Datum:Temp:Abs-Feuchte:Windchill:Wind:
Aussen-T/F 376 01-08-2006 14:42:02 22 C 10.48 g/m*3 22 C 0 km/h
377 01-08-2006 14:52:04 22.1 C 10.54 g/m*3 22.1 C 0 km/h
378 01-08-2006 15:02:03 21.5 C 10.94 g/m*3 21.5 C 0 km/h
379 01-08-2006 15:12:03 22 C 10.87 g/m*3 22 C 0 km/h
380 01-08-2006 15:22:02 22.9 C 10.63 g/m*3 22.9 C 0 km/h
381 01-08-2006 15:32:02 21.5 C 11.69 g/m*3 21.5 C 0 km/h
382 01-08-2006 15:42:03 20.3 C 12.66 g/m*3 20.3 C 0 km/h
383 01-08-2006 15:52:02 21 C 13.74 g/m*3 21 C 0 km/h
384 01-08-2006 16:02:02 21.5 C 12.82 g/m*3 21.5 C 0 km/h
385 01-08-2006 16:12:02 21.7 C 12.21 g/m*3 21.7 C 0 km/h
386 01-08-2006 16:22:02 23 C 11.72 g/m*3 23 C 0 km/h
387 01-08-2006 16:32:02 23.4 C 11.14 g/m*3 23.4 C 0 km/h
388 01-08-2006 16:42:02 23.1 C 10.96 g/m*3 23.1 C 0 km/h
389 01-08-2006 16:52:01 22.8 C 10.57 g/m*3 22.8 C 0 km/h
390 01-08-2006 17:02:02 23.3 C 10.45 g/m*3 23.3 C 0 km/h
391 01-08-2006 17:12:02 24.7 C 9.96 g/m*3 24.7 C 0 km/h
392 01-08-2006 17:22:02 24.6 C 9.68 g/m*3 24.6 C 0 km/h
393 01-08-2006 17:32:02 24.9 C 8.47 g/m*3 24.9 C 0 km/h
394 01-08-2006 17:42:02 25.1 C 8.1 g/m*3 25.1 C 0 km/h
395 01-08-2006 17:52:02 25 C 7.37 g/m*3 25 C 0 km/h
396 01-08-2006 18:02:02 24.5 C 6.94 g/m*3 24.5 C 0 km/h
397 01-08-2006 18:12:02 24.7 C 7.24 g/m*3 24.7 C 0 km/h
398 01-08-2006 18:22:02 24.3 C 7.08 g/m*3 24.3 C 0 km/h
399 01-08-2006 18:32:02 24 C 7.18 g/m*3 24 C 0 km/h
400 01-08-2006 18:42:02 23.6 C 7.44 g/m*3 23.6 C 0 km/h
Sensor: Nr:Datum:Temp:Abs-Feuchte:Windchill:Wind:
Aussen-T/F 401 01-08-2006 18:52:03 22.1 C 8.2 g/m*3 22.1 C 0 km/h
402 01-08-2006 19:02:02 21.6 C 8.72 g/m*3 21.6 C 0 km/h
403 01-08-2006 19:12:02 21.4 C 8.62 g/m*3 21.4 C 0 km/h
404 01-08-2006 19:22:02 21 C 9.16 g/m*3 21 C 0 km/h
405 01-08-2006 19:32:03 18.2 C 10.57 g/m*3 18.2 C 0 km/h
406 01-08-2006 19:42:03 17.5 C 11.18 g/m*3 17.5 C 0 km/h
407 01-08-2006 19:52:02 17.6 C 11.85 g/m*3 17.6 C 0 km/h
408 01-08-2006 20:02:03 18 C 11.83 g/m*3 18 C 0 km/h
409 01-08-2006 20:12:03 18.5 C 12.02 g/m*3 18.5 C 0 km/h
410 01-08-2006 20:22:03 18.9 C 11.99 g/m*3 18.9 C 0 km/h
411 01-08-2006 20:32:03 19.6 C 12.15 g/m*3 19.6 C 0 km/h
412 01-08-2006 20:42:03 19.7 C 11.89 g/m*3 19.7 C 0 km/h
413 01-08-2006 20:52:02 19.2 C 10.39 g/m*3 19.2 C 0 km/h
414 01-08-2006 21:02:02 19.1 C 10.33 g/m*3 19.1 C 0 km/h
415 01-08-2006 21:12:02 19 C 9.61 g/m*3 19 C 0 km/h
416 01-08-2006 21:22:02 19.1 C 9.84 g/m*3 19.1 C 0 km/h
417 01-08-2006 21:32:02 18.9 C 10.04 g/m*3 18.9 C 0 km/h
418 01-08-2006 21:42:02 18.7 C 9.61 g/m*3 18.7 C 0 km/h
419 01-08-2006 21:52:01 18.5 C 9.81 g/m*3 18.5 C 0 km/h
420 01-08-2006 22:02:02 18.2 C 10.1 g/m*3 18.2 C 0 km/h
421 01-08-2006 22:12:02 18 C 10.29 g/m*3 18 C 0 km/h
422 01-08-2006 22:22:02 17.9 C 10.38 g/m*3 17.9 C 0 km/h
423 01-08-2006 22:32:02 17.7 C 10.41 g/m*3 17.7 C 0 km/h
424 01-08-2006 22:42:02 17.6 C 10.35 g/m*3 17.6 C 0 km/h
425 01-08-2006 22:52:03 17.5 C 10.44 g/m*3 17.5 C 0 km/h
Sensor: Nr:Datum:Temp:Abs-Feuchte:Windchill:Wind:
Aussen-T/F 426 01-08-2006 23:02:02 17.4 C 10.37 g/m*3 17.4 C 0 km/h
427 01-08-2006 23:12:02 17.3 C 10.31 g/m*3 17.3 C 0 km/h
428 01-08-2006 23:22:02 17.3 C 10.16 g/m*3 17.3 C 0 km/h
429 01-08-2006 23:32:02 17.3 C 9.87 g/m*3 17.3 C 0 km/h
430 01-08-2006 23:42:02 17.3 C 9.87 g/m*3 17.3 C 0 km/h
431 01-08-2006 23:52:02 17.2 C 9.81 g/m*3 17.2 C 0 km/h
432 02-08-2006 00:02:02 17.3 C 9.72 g/m*3 17.3 C 0 km/h
433 02-08-2006 00:12:02 17.1 C 9.9 g/m*3 17.1 C 0 km/h
434 02-08-2006 00:22:02 16.9 C 10.07 g/m*3 16.9 C 0 km/h
435 02-08-2006 00:32:02 16.9 C 10.07 g/m*3 16.9 C 0 km/h
436 02-08-2006 00:42:02 16.7 C 10.23 g/m*3 16.7 C 0 km/h
437 02-08-2006 00:52:02 16.8 C 10.15 g/m*3 16.8 C 0 km/h
438 02-08-2006 01:02:02 16.8 C 10.01 g/m*3 16.8 C 0 km/h
439 02-08-2006 01:12:02 16.9 C 10.07 g/m*3 16.9 C 0 km/h
440 02-08-2006 01:22:02 17 C 9.69 g/m*3 17 C 0 km/h
441 02-08-2006 01:32:03 16.8 C 10.01 g/m*3 16.8 C 0 km/h
442 02-08-2006 01:42:03 16.8 C 10.01 g/m*3 16.8 C 0 km/h
443 02-08-2006 01:52:03 16.8 C 10.01 g/m*3 16.8 C 0 km/h
444 02-08-2006 02:02:03 16.9 C 9.92 g/m*3 16.9 C 0 km/h
445 02-08-2006 02:12:03 16.7 C 9.81 g/m*3 16.7 C 0 km/h
446 02-08-2006 02:22:03 16.6 C 9.75 g/m*3 16.6 C 0 km/h
447 02-08-2006 02:32:03 16.5 C 9.69 g/m*3 16.5 C 0 km/h
448 02-08-2006 02:42:03 16.5 C 9.69 g/m*3 16.5 C 0 km/h
449 02-08-2006 02:53:04 16.5 C 9.55 g/m*3 16.5 C 0 km/h
450 02-08-2006 03:03:04 16.5 C 9.69 g/m*3 16.5 C 0 km/h
Sensor: Nr:Datum:Temp:Abs-Feuchte:Windchill:Wind:
Aussen-T/F 451 02-08-2006 03:13:04 16.3 C 9.99 g/m*3 16.3 C 0 km/h
452 02-08-2006 03:23:04 16.1 C 9.87 g/m*3 16.1 C 0 km/h
453 02-08-2006 03:33:01 16.1 C 9.46 g/m*3 16.1 C 0 km/h
454 02-08-2006 03:43:01 15.9 C 9.34 g/m*3 15.9 C 0 km/h
455 02-08-2006 03:53:01 15.7 C 9.23 g/m*3 15.7 C 0 km/h
456 02-08-2006 04:03:02 15.5 C 8.99 g/m*3 15.5 C 0 km/h
457 02-08-2006 04:13:02 15.7 C 9.1 g/m*3 15.7 C 0 km/h
458 02-08-2006 04:23:02 15.8 C 9.02 g/m*3 15.8 C 0 km/h
459 02-08-2006 04:33:02 15.7 C 8.96 g/m*3 15.7 C 0 km/h
460 02-08-2006 04:43:02 15.7 C 8.83 g/m*3 15.7 C 0 km/h
461 02-08-2006 04:53:02 15.5 C 8.99 g/m*3 15.5 C 0 km/h
462 02-08-2006 05:03:02 15.5 C 8.99 g/m*3 15.5 C 0 km/h
463 02-08-2006 05:13:02 15.6 C 9.04 g/m*3 15.6 C 0 km/h
464 02-08-2006 05:23:02 15.3 C 9.01 g/m*3 15.3 C 0 km/h
465 02-08-2006 05:33:02 15.2 C 9.09 g/m*3 15.2 C 0 km/h
466 02-08-2006 05:43:02 15.2 C 9.22 g/m*3 15.2 C 0 km/h
467 02-08-2006 05:53:03 15.2 C 9.22 g/m*3 15.2 C 0 km/h
468 02-08-2006 06:03:02 15.4 C 9.2 g/m*3 15.4 C 0 km/h
469 02-08-2006 06:13:03 15.4 C 9.2 g/m*3 15.4 C 0 km/h
470 02-08-2006 06:23:02 15.4 C 9.2 g/m*3 15.4 C 0 km/h
471 02-08-2006 06:33:02 15.7 C 9.23 g/m*3 15.7 C 0 km/h
472 02-08-2006 06:43:02 15.7 C 9.23 g/m*3 15.7 C 0 km/h
473 02-08-2006 06:53:02 15.8 C 9.15 g/m*3 15.8 C 0 km/h
474 02-08-2006 07:03:01 16 C 9.13 g/m*3 16 C 0 km/h
475 02-08-2006 07:13:01 16.1 C 9.05 g/m*3 16.1 C 0 km/h
Sensor: Nr:Datum:Temp:Abs-Feuchte:Windchill:Wind:
Aussen-T/F 476 02-08-2006 07:23:01 15.9 C 9.21 g/m*3 15.9 C 0 km/h
477 02-08-2006 07:33:02 16.2 C 9.1 g/m*3 16.2 C 0 km/h
478 02-08-2006 07:43:02 16.3 C 9.16 g/m*3 16.3 C 0 km/h
479 02-08-2006 07:53:02 16.4 C 9.21 g/m*3 16.4 C 0 km/h
480 02-08-2006 08:03:02 16.5 C 9.27 g/m*3 16.5 C 0 km/h
481 02-08-2006 08:13:02 16.6 C 9.18 g/m*3 16.6 C 0 km/h
482 02-08-2006 08:23:02 16.7 C 9.24 g/m*3 16.7 C 0 km/h
483 02-08-2006 08:33:02 16.8 C 9.15 g/m*3 16.8 C 0 km/h
484 02-08-2006 08:43:03 16.9 C 9.21 g/m*3 16.9 C 0 km/h
485 02-08-2006 08:53:02 16.9 C 9.21 g/m*3 16.9 C 0 km/h
486 02-08-2006 09:03:01 16.9 C 9.21 g/m*3 16.9 C 0 km/h
487 02-08-2006 09:13:01 17.1 C 9.17 g/m*3 17.1 C 0 km/h
488 02-08-2006 09:23:01 17.1 C 9.17 g/m*3 17.1 C 0 km/h
489 02-08-2006 09:33:01 17.4 C 9.04 g/m*3 17.4 C 0 km/h
490 02-08-2006 09:43:01 17.4 C 9.04 g/m*3 17.4 C 0 km/h
491 02-08-2006 09:53:02 17.4 C 9.04 g/m*3 17.4 C 0 km/h
492 02-08-2006 10:03:02 17.8 C 9.11 g/m*3 17.8 C 0 km/h
493 02-08-2006 10:13:02 18.5 C 9.02 g/m*3 18.5 C 0 km/h
494 02-08-2006 10:23:02 18.7 C 8.81 g/m*3 18.7 C 0 km/h
495 02-08-2006 10:33:02 19.5 C 8.89 g/m*3 19.5 C 0 km/h
496 02-08-2006 10:43:02 19.3 C 8.63 g/m*3 19.3 C 0 km/h
497 02-08-2006 10:53:02 19 C 8.64 g/m*3 19 C 0 km/h
498 02-08-2006 11:03:02 19.6 C 8.78 g/m*3 19.6 C 0 km/h
499 02-08-2006 11:13:02 19.6 C 8.61 g/m*3 19.6 C 0 km/h
500 02-08-2006 11:23:03 20 C 8.47 g/m*3 20 C 0 km/h
Sensor: Nr:Datum:Temp:Abs-Feuchte:Windchill:Wind:
Aussen-T/F 501 02-08-2006 11:33:02 20.1 C 8.34 g/m*3 20.1 C 0 km/h
502 02-08-2006 11:43:02 20.4 C 8.49 g/m*3 20.4 C 0 km/h
503 02-08-2006 11:53:02 19.8 C 8.54 g/m*3 19.8 C 0 km/h
504 02-08-2006 12:03:02 18.9 C 9.07 g/m*3 18.9 C 0 km/h
505 02-08-2006 12:13:02 18.9 C 8.91 g/m*3 18.9 C 0 km/h
506 02-08-2006 12:23:03 19.1 C 8.85 g/m*3 19.1 C 0 km/h
507 02-08-2006 12:33:03 19.6 C 8.78 g/m*3 19.6 C 0 km/h
508 02-08-2006 12:43:04 20.2 C 8.57 g/m*3 20.2 C 0 km/h
509 02-08-2006 12:53:02 22 C 8.35 g/m*3 22 C 0 km/h
510 02-08-2006 13:03:01 22 C 7.76 g/m*3 22 C 0 km/h
511 02-08-2006 13:13:01 21.3 C 7.64 g/m*3 21.3 C 0 km/h
512 02-08-2006 13:23:02 20.8 C 7.79 g/m*3 20.8 C 0 km/h
513 02-08-2006 13:33:02 19.9 C 7.9 g/m*3 19.9 C 0 km/h
514 02-08-2006 13:43:02 20.4 C 7.96 g/m*3 20.4 C 0 km/h
515 02-08-2006 13:53:02 20.5 C 8.19 g/m*3 20.5 C 0 km/h
516 02-08-2006 14:03:02 19 C 8.8 g/m*3 19 C 0 km/h
517 02-08-2006 14:13:02 16.9 C 10.36 g/m*3 16.9 C 0 km/h
518 02-08-2006 14:23:02 16.7 C 10.94 g/m*3 16.7 C 0 km/h
519 02-08-2006 14:33:02 17.2 C 11.28 g/m*3 17.2 C 0 km/h
520 02-08-2006 14:43:02 18.9 C 10.69 g/m*3 18.9 C 0 km/h
521 02-08-2006 14:53:03 19.7 C 10.53 g/m*3 19.7 C 0 km/h
522 02-08-2006 15:03:03 20.4 C 9.73 g/m*3 20.4 C 0 km/h
523 02-08-2006 15:13:03 21.4 C 9.56 g/m*3 21.4 C 0 km/h
524 02-08-2006 15:23:02 21.5 C 9.05 g/m*3 21.5 C 0 km/h
525 02-08-2006 15:33:02 21.6 C 8.91 g/m*3 21.6 C 0 km/h
Sensor: Nr:Datum:Temp:Abs-Feuchte:Windchill:Wind:
Aussen-T/F 526 02-08-2006 15:43:02 20.9 C 8.74 g/m*3 20.9 C 0 km/h
527 02-08-2006 15:53:02 17.4 C 11.26 g/m*3 17.4 C 0 km/h
528 02-08-2006 16:03:02 17.4 C 12.15 g/m*3 17.4 C 0 km/h
529 02-08-2006 16:13:02 17.9 C 12.83 g/m*3 17.9 C 0 km/h
530 02-08-2006 16:23:02 18.7 C 12.81 g/m*3 18.7 C 0 km/h
531 02-08-2006 16:33:02 18.8 C 13.21 g/m*3 18.8 C 0 km/h
532 02-08-2006 16:43:02 18.2 C 12.9 g/m*3 18.2 C 0 km/h
533 02-08-2006 16:53:02 15.4 C 10.77 g/m*3 15.4 C 0 km/h
534 02-08-2006 17:03:01 16.2 C 11.86 g/m*3 16.2 C 0 km/h
535 02-08-2006 17:13:01 17 C 12.44 g/m*3 17 C 0 km/h
536 02-08-2006 17:23:02 17.2 C 12.59 g/m*3 17.2 C 0 km/h
537 02-08-2006 17:33:02 16.2 C 11.72 g/m*3 16.2 C 0 km/h
538 02-08-2006 17:43:02 15.3 C 11.1 g/m*3 15.3 C 0 km/h
539 02-08-2006 17:53:02 14.5 C 10.57 g/m*3 14.5 C 0 km/h
540 02-08-2006 18:03:02 14.7 C 10.83 g/m*3 14.7 C 0 km/h
541 02-08-2006 18:13:02 15.2 C 11.03 g/m*3 15.2 C 0 km/h
542 02-08-2006 18:23:02 15.5 C 11.1 g/m*3 15.5 C 0 km/h
543 02-08-2006 18:33:02 15.6 C 11.17 g/m*3 15.6 C 0 km/h
544 02-08-2006 18:43:02 15.6 C 11.04 g/m*3 15.6 C 0 km/h
545 02-08-2006 18:53:02 15.6 C 11.04 g/m*3 15.6 C 0 km/h
546 02-08-2006 19:03:02 15.5 C 10.97 g/m*3 15.5 C 0 km/h
547 02-08-2006 19:13:02 15.5 C 10.97 g/m*3 15.5 C 0 km/h
548 02-08-2006 19:23:02 14.4 C 10.51 g/m*3 14.4 C 0 km/h
549 02-08-2006 19:33:02 13.8 C 10.25 g/m*3 13.8 C 0 km/h
550 02-08-2006 19:43:02 13.1 C 9.81 g/m*3 13.1 C 0 km/h
Sensor: Nr:Datum:Temp:Abs-Feuchte:Windchill:Wind:
Aussen-T/F 551 02-08-2006 19:53:01 13 C 9.98 g/m*3 13 C 0 km/h
552 02-08-2006 20:03:02 12.9 C 10.03 g/m*3 12.9 C 0 km/h
553 02-08-2006 20:13:02 12.8 C 9.97 g/m*3 12.8 C 0 km/h
554 02-08-2006 20:23:02 13 C 10.09 g/m*3 13 C 0 km/h
555 02-08-2006 20:33:02 13.1 C 10.16 g/m*3 13.1 C 0 km/h
556 02-08-2006 20:43:02 13.3 C 10.28 g/m*3 13.3 C 0 km/h
557 02-08-2006 20:53:02 13.3 C 10.17 g/m*3 13.3 C 0 km/h
558 02-08-2006 21:03:02 13.3 C 10.28 g/m*3 13.3 C 0 km/h
559 02-08-2006 21:13:02 13.3 C 10.4 g/m*3 13.3 C 0 km/h
560 02-08-2006 21:23:02 13.4 C 10.46 g/m*3 13.4 C 0 km/h
561 02-08-2006 21:33:03 13.4 C 10.35 g/m*3 13.4 C 0 km/h
562 02-08-2006 21:43:03 13.3 C 10.28 g/m*3 13.3 C 0 km/h
563 02-08-2006 21:53:02 13.3 C 10.28 g/m*3 13.3 C 0 km/h
564 02-08-2006 22:03:02 13.2 C 10.22 g/m*3 13.2 C 0 km/h
565 02-08-2006 22:13:02 13.2 C 10.22 g/m*3 13.2 C 0 km/h
566 02-08-2006 22:23:02 13.3 C 10.28 g/m*3 13.3 C 0 km/h
567 02-08-2006 22:33:03 13 C 10.09 g/m*3 13 C 0 km/h
568 02-08-2006 22:43:03 12.9 C 10.14 g/m*3 12.9 C 0 km/h
569 02-08-2006 22:53:02 12.8 C 10.19 g/m*3 12.8 C 0 km/h
570 02-08-2006 23:03:02 12.6 C 10.07 g/m*3 12.6 C 0 km/h
571 02-08-2006 23:13:02 12.5 C 10 g/m*3 12.5 C 0 km/h
572 02-08-2006 23:23:02 12.5 C 10 g/m*3 12.5 C 0 km/h
573 02-08-2006 23:33:03 12.5 C 10 g/m*3 12.5 C 0 km/h
574 02-08-2006 23:43:03 12.4 C 9.94 g/m*3 12.4 C 0 km/h
575 02-08-2006 23:53:02 12.3 C 9.88 g/m*3 12.3 C 0 km/h
Sensor: Nr:Datum:Temp:Abs-Feuchte:Windchill:Wind:
Aussen-T/F 576 03-08-2006 00:03:03 12.2 C 9.82 g/m*3 12.2 C 0 km/h
577 03-08-2006 00:13:03 12.2 C 9.93 g/m*3 12.2 C 0 km/h
578 03-08-2006 00:23:03 12 C 9.8 g/m*3 12 C 0 km/h
579 03-08-2006 00:33:03 11.8 C 9.79 g/m*3 11.8 C 0 km/h
580 03-08-2006 00:43:03 11.7 C 9.73 g/m*3 11.7 C 0 km/h
581 03-08-2006 00:53:02 11.6 C 9.67 g/m*3 11.6 C 0 km/h
582 03-08-2006 01:03:02 11.5 C 9.61 g/m*3 11.5 C 0 km/h
583 03-08-2006 01:13:02 11.4 C 9.55 g/m*3 11.4 C 0 km/h
584 03-08-2006 01:23:02 11.4 C 9.65 g/m*3 11.4 C 0 km/h
585 03-08-2006 01:33:02 11.3 C 9.59 g/m*3 11.3 C 0 km/h
586 03-08-2006 01:43:02 11.2 C 9.53 g/m*3 11.2 C 0 km/h
587 03-08-2006 01:53:03 11 C 9.41 g/m*3 11 C 0 km/h
588 03-08-2006 02:03:03 10.9 C 9.35 g/m*3 10.9 C 0 km/h
589 03-08-2006 02:13:03 10.8 C 9.29 g/m*3 10.8 C 0 km/h
590 03-08-2006 02:23:03 10.8 C 9.29 g/m*3 10.8 C 0 km/h
591 03-08-2006 02:33:03 10.7 C 9.23 g/m*3 10.7 C 0 km/h
592 03-08-2006 02:43:03 10.6 C 9.17 g/m*3 10.6 C 0 km/h
593 03-08-2006 02:54:03 10.7 C 9.23 g/m*3 10.7 C 0 km/h
594 03-08-2006 03:04:03 10.5 C 9.12 g/m*3 10.5 C 0 km/h
595 03-08-2006 03:14:04 10.5 C 9.12 g/m*3 10.5 C 0 km/h
596 03-08-2006 03:24:04 10.4 C 9.06 g/m*3 10.4 C 0 km/h
597 03-08-2006 03:34:02 10.4 C 9.06 g/m*3 10.4 C 0 km/h
598 03-08-2006 03:44:02 10.4 C 9.06 g/m*3 10.4 C 0 km/h
599 03-08-2006 03:54:02 10.4 C 9.06 g/m*3 10.4 C 0 km/h
600 03-08-2006 04:04:03 10.5 C 9.12 g/m*3 10.5 C 0 km/h
Sensor: Nr:Datum:Temp:Abs-Feuchte:Windchill:Wind:
Aussen-T/F 601 03-08-2006 04:14:03 10.6 C 9.17 g/m*3 10.6 C 0 km/h
602 03-08-2006 04:24:02 10.6 C 9.27 g/m*3 10.6 C 0 km/h
603 03-08-2006 04:34:03 10.5 C 9.21 g/m*3 10.5 C 0 km/h
604 03-08-2006 04:44:03 10.5 C 9.21 g/m*3 10.5 C 0 km/h
605 03-08-2006 04:54:02 10.6 C 9.27 g/m*3 10.6 C 0 km/h
606 03-08-2006 05:04:02 10.6 C 9.27 g/m*3 10.6 C 0 km/h
607 03-08-2006 05:14:02 10.6 C 9.27 g/m*3 10.6 C 0 km/h
608 03-08-2006 05:24:02 10.6 C 9.27 g/m*3 10.6 C 0 km/h
609 03-08-2006 05:34:02 10.6 C 9.27 g/m*3 10.6 C 0 km/h
610 03-08-2006 05:44:02 10.8 C 9.39 g/m*3 10.8 C 0 km/h
611 03-08-2006 05:54:01 11.1 C 9.57 g/m*3 11.1 C 0 km/h
612 03-08-2006 06:04:02 11.3 C 9.69 g/m*3 11.3 C 0 km/h
613 03-08-2006 06:14:02 11.3 C 9.69 g/m*3 11.3 C 0 km/h
614 03-08-2006 06:24:02 11.3 C 9.69 g/m*3 11.3 C 0 km/h
615 03-08-2006 06:34:01 11.1 C 9.57 g/m*3 11.1 C 0 km/h
616 03-08-2006 06:44:01 11 C 9.51 g/m*3 11 C 0 km/h
617 03-08-2006 06:54:02 11.4 C 9.75 g/m*3 11.4 C 0 km/h
618 03-08-2006 07:04:02 11.8 C 10 g/m*3 11.8 C 0 km/h
619 03-08-2006 07:14:02 12 C 10.12 g/m*3 12 C 0 km/h
620 03-08-2006 07:24:02 12.2 C 10.25 g/m*3 12.2 C 0 km/h
621 03-08-2006 07:34:02 12.2 C 10.25 g/m*3 12.2 C 0 km/h
622 03-08-2006 07:44:02 12.2 C 10.14 g/m*3 12.2 C 0 km/h
623 03-08-2006 07:54:03 12.4 C 10.27 g/m*3 12.4 C 0 km/h
624 03-08-2006 08:04:03 13 C 10.55 g/m*3 13 C 0 km/h
625 03-08-2006 08:14:03 13.1 C 10.61 g/m*3 13.1 C 0 km/h
Sensor: Nr:Datum:Temp:Abs-Feuchte:Windchill:Wind:
Aussen-T/F 626 03-08-2006 08:24:03 13.2 C 10.45 g/m*3 13.2 C 0 km/h
627 03-08-2006 08:34:02 13.4 C 10.35 g/m*3 13.4 C 0 km/h
628 03-08-2006 08:44:02 13.7 C 10.42 g/m*3 13.7 C 0 km/h
629 03-08-2006 08:54:02 13.5 C 10.06 g/m*3 13.5 C 0 km/h
630 03-08-2006 09:04:02 13.9 C 10.43 g/m*3 13.9 C 0 km/h
631 03-08-2006 09:14:02 14.2 C 10.26 g/m*3 14.2 C 0 km/h
632 03-08-2006 09:24:02 14.2 C 10.26 g/m*3 14.2 C 0 km/h
633 03-08-2006 09:34:02 14.9 C 10.58 g/m*3 14.9 C 0 km/h
634 03-08-2006 09:44:02 15.3 C 10.06 g/m*3 15.3 C 0 km/h
635 03-08-2006 09:54:02 15.6 C 9.71 g/m*3 15.6 C 0 km/h
636 03-08-2006 10:04:02 15.8 C 9.96 g/m*3 15.8 C 0 km/h
637 03-08-2006 10:14:02 16.3 C 10.13 g/m*3 16.3 C 0 km/h
638 03-08-2006 10:24:01 16.7 C 9.81 g/m*3 16.7 C 0 km/h
639 03-08-2006 10:34:02 16.9 C 9.64 g/m*3 16.9 C 0 km/h
640 03-08-2006 10:44:02 16.7 C 9.38 g/m*3 16.7 C 0 km/h
641 03-08-2006 10:54:02 16.8 C 9.58 g/m*3 16.8 C 0 km/h
642 03-08-2006 11:04:02 17 C 9.41 g/m*3 17 C 0 km/h
643 03-08-2006 11:14:02 16.9 C 9.35 g/m*3 16.9 C 0 km/h
644 03-08-2006 11:24:02 17.4 C 9.19 g/m*3 17.4 C 0 km/h
645 03-08-2006 11:34:02 17.9 C 8.7 g/m*3 17.9 C 0 km/h
646 03-08-2006 11:44:02 18.4 C 8.81 g/m*3 18.4 C 0 km/h
647 03-08-2006 11:54:03 19.5 C 8.56 g/m*3 19.5 C 0 km/h
648 03-08-2006 12:04:03 19.6 C 8.61 g/m*3 19.6 C 0 km/h
649 03-08-2006 12:14:03 19.4 C 8.51 g/m*3 19.4 C 0 km/h
650 03-08-2006 12:24:02 18 C 9.83 g/m*3 18 C 0 km/h
Sensor: Nr:Datum:Temp:Abs-Feuchte:Windchill:Wind:
Aussen-T/F 651 03-08-2006 12:34:02 17.7 C 9.51 g/m*3 17.7 C 0 km/h
652 03-08-2006 12:44:02 18.1 C 8.65 g/m*3 18.1 C 0 km/h
653 03-08-2006 12:54:02 17.5 C 9.24 g/m*3 17.5 C 0 km/h
654 03-08-2006 13:04:02 18.9 C 8.75 g/m*3 18.9 C 0 km/h
655 03-08-2006 13:14:02 21.3 C 8.02 g/m*3 21.3 C 0 km/h
656 03-08-2006 13:24:01 20.6 C 7.87 g/m*3 20.6 C 0 km/h
657 03-08-2006 13:34:02 20.9 C 7.65 g/m*3 20.9 C 0 km/h
658 03-08-2006 13:44:02 20.4 C 7.96 g/m*3 20.4 C 0 km/h
659 03-08-2006 13:54:02 19.8 C 7.86 g/m*3 19.8 C 0 km/h
660 03-08-2006 14:04:02 17.6 C 9.9 g/m*3 17.6 C 0 km/h
661 03-08-2006 14:14:02 17.1 C 11.21 g/m*3 17.1 C 0 km/h
662 03-08-2006 14:24:01 17.2 C 11.86 g/m*3 17.2 C 0 km/h
663 03-08-2006 14:34:02 18.2 C 12.75 g/m*3 18.2 C 0 km/h
664 03-08-2006 14:44:02 19.5 C 12.25 g/m*3 19.5 C 0 km/h
665 03-08-2006 14:54:02 19.6 C 10.47 g/m*3 19.6 C 0 km/h
666 03-08-2006 15:04:02 16.8 C 9.72 g/m*3 16.8 C 0 km/h
667 03-08-2006 15:14:02 16.2 C 10.2 g/m*3 16.2 C 0 km/h
668 03-08-2006 15:24:01 16 C 10.35 g/m*3 16 C 0 km/h
669 03-08-2006 15:34:02 16.5 C 11.37 g/m*3 16.5 C 0 km/h
670 03-08-2006 15:44:02 18.1 C 10.82 g/m*3 18.1 C 0 km/h
671 03-08-2006 15:54:02 19 C 10.27 g/m*3 19 C 0 km/h
672 03-08-2006 16:04:01 19.7 C 10.02 g/m*3 19.7 C 0 km/h
673 03-08-2006 16:14:01 20.2 C 9.79 g/m*3 20.2 C 0 km/h
674 03-08-2006 16:24:02 20.1 C 9.91 g/m*3 20.1 C 0 km/h
675 03-08-2006 16:34:02 20.8 C 9.6 g/m*3 20.8 C 0 km/h
Sensor: Nr:Datum:Temp:Abs-Feuchte:Windchill:Wind:
Aussen-T/F 676 03-08-2006 16:44:02 21.8 C 9.21 g/m*3 21.8 C 0 km/h
677 03-08-2006 16:54:02 21.1 C 9.21 g/m*3 21.1 C 0 km/h
678 03-08-2006 17:04:01 20.5 C 9.43 g/m*3 20.5 C 0 km/h
679 03-08-2006 17:14:01 20.5 C 9.61 g/m*3 20.5 C 0 km/h
680 03-08-2006 17:24:01 20.2 C 9.27 g/m*3 20.2 C 0 km/h
681 03-08-2006 17:34:01 20.1 C 9.39 g/m*3 20.1 C 0 km/h
682 03-08-2006 17:44:01 21.4 C 9 g/m*3 21.4 C 0 km/h
683 03-08-2006 17:54:02 22 C 8.73 g/m*3 22 C 0 km/h
684 03-08-2006 18:04:03 21.1 C 8.48 g/m*3 21.1 C 0 km/h
685 03-08-2006 18:14:03 20.5 C 8.72 g/m*3 20.5 C 0 km/h
686 03-08-2006 18:24:02 20.2 C 8.57 g/m*3 20.2 C 0 km/h
687 03-08-2006 18:34:02 20.1 C 8.52 g/m*3 20.1 C 0 km/h
688 03-08-2006 18:44:02 20 C 8.64 g/m*3 20 C 0 km/h
689 03-08-2006 18:54:03 20.3 C 8.62 g/m*3 20.3 C 0 km/h
690 03-08-2006 19:04:03 20.4 C 8.85 g/m*3 20.4 C 0 km/h
691 03-08-2006 19:14:03 21.2 C 8.9 g/m*3 21.2 C 0 km/h
692 03-08-2006 19:24:02 21.5 C 8.49 g/m*3 21.5 C 0 km/h
693 03-08-2006 19:34:02 21.1 C 8.29 g/m*3 21.1 C 0 km/h
694 03-08-2006 19:44:02 20.3 C 8.09 g/m*3 20.3 C 0 km/h
695 03-08-2006 19:54:02 19.7 C 8.15 g/m*3 19.7 C 0 km/h
696 03-08-2006 20:04:02 19.4 C 9.18 g/m*3 19.4 C 0 km/h
697 03-08-2006 20:14:02 19.3 C 8.96 g/m*3 19.3 C 0 km/h
698 03-08-2006 20:24:01 18.9 C 9.23 g/m*3 18.9 C 0 km/h
699 03-08-2006 20:34:02 18.2 C 9.17 g/m*3 18.2 C 0 km/h
700 03-08-2006 20:44:02 17.8 C 9.11 g/m*3 17.8 C 0 km/h
Sensor: Nr:Datum:Temp:Abs-Feuchte:Windchill:Wind:
Aussen-T/F 701 03-08-2006 20:54:02 17.4 C 9.04 g/m*3 17.4 C 0 km/h
702 03-08-2006 21:04:01 16.9 C 9.21 g/m*3 16.9 C 0 km/h
703 03-08-2006 21:14:01 16.6 C 9.18 g/m*3 16.6 C 0 km/h
704 03-08-2006 21:24:01 16.4 C 9.35 g/m*3 16.4 C 0 km/h
705 03-08-2006 21:34:02 16.3 C 9.3 g/m*3 16.3 C 0 km/h
706 03-08-2006 21:44:02 16 C 8.99 g/m*3 16 C 0 km/h
707 03-08-2006 21:54:02 15.7 C 9.23 g/m*3 15.7 C 0 km/h
708 03-08-2006 22:04:02 15.5 C 9.12 g/m*3 15.5 C 0 km/h
709 03-08-2006 22:14:02 15.3 C 9.4 g/m*3 15.3 C 0 km/h
710 03-08-2006 22:24:02 15.4 C 9.46 g/m*3 15.4 C 0 km/h
711 03-08-2006 22:34:03 15.3 C 9.53 g/m*3 15.3 C 0 km/h
712 03-08-2006 22:44:03 15.5 C 9.91 g/m*3 15.5 C 0 km/h
713 03-08-2006 22:54:02 15.5 C 10.05 g/m*3 15.5 C 0 km/h
714 03-08-2006 23:04:02 15.5 C 10.05 g/m*3 15.5 C 0 km/h
715 03-08-2006 23:14:02 15.4 C 10.12 g/m*3 15.4 C 0 km/h
716 03-08-2006 23:24:02 15.4 C 10.12 g/m*3 15.4 C 0 km/h
717 03-08-2006 23:34:03 15.5 C 10.31 g/m*3 15.5 C 0 km/h
718 03-08-2006 23:44:03 15.2 C 10.12 g/m*3 15.2 C 0 km/h
719 03-08-2006 23:54:02 15.1 C 10.19 g/m*3 15.1 C 0 km/h
720 04-08-2006 00:04:02 15 C 10.26 g/m*3 15 C 0 km/h
721 04-08-2006 00:14:02 14.9 C 10.32 g/m*3 14.9 C 0 km/h
722 04-08-2006 00:24:02 14.8 C 10.39 g/m*3 14.8 C 0 km/h
723 04-08-2006 00:34:03 14.9 C 10.45 g/m*3 14.9 C 0 km/h
724 04-08-2006 00:44:03 14.7 C 10.32 g/m*3 14.7 C 0 km/h
725 04-08-2006 00:54:02 14.5 C 10.32 g/m*3 14.5 C 0 km/h
Sensor: Nr:Datum:Temp:Abs-Feuchte:Windchill:Wind:
Aussen-T/F 726 04-08-2006 01:04:02 14.4 C 10.38 g/m*3 14.4 C 0 km/h
727 04-08-2006 01:14:02 14.3 C 10.32 g/m*3 14.3 C 0 km/h
728 04-08-2006 01:24:02 14.1 C 10.32 g/m*3 14.1 C 0 km/h
729 04-08-2006 01:34:02 14.1 C 10.44 g/m*3 14.1 C 0 km/h
730 04-08-2006 01:44:02 14 C 10.49 g/m*3 14 C 0 km/h
731 04-08-2006 01:54:02 14 C 10.49 g/m*3 14 C 0 km/h
732 04-08-2006 02:04:02 13.9 C 10.55 g/m*3 13.9 C 0 km/h
733 04-08-2006 02:14:02 13.9 C 10.55 g/m*3 13.9 C 0 km/h
734 04-08-2006 02:24:01 13.7 C 10.54 g/m*3 13.7 C 0 km/h
735 04-08-2006 02:34:01 13.7 C 10.54 g/m*3 13.7 C 0 km/h
736 04-08-2006 02:44:01 13.5 C 10.41 g/m*3 13.5 C 0 km/h
737 04-08-2006 02:55:04 13.6 C 10.47 g/m*3 13.6 C 0 km/h
738 04-08-2006 03:05:04 13.6 C 10.59 g/m*3 13.6 C 0 km/h
739 04-08-2006 03:15:03 13.8 C 10.84 g/m*3 13.8 C 0 km/h
740 04-08-2006 03:25:03 13.8 C 10.84 g/m*3 13.8 C 0 km/h
741 04-08-2006 03:35:02 14 C 10.86 g/m*3 14 C 0 km/h
742 04-08-2006 03:45:03 14 C 10.74 g/m*3 14 C 0 km/h
743 04-08-2006 03:55:03 14 C 10.74 g/m*3 14 C 0 km/h
744 04-08-2006 04:05:02 14.1 C 10.68 g/m*3 14.1 C 0 km/h
745 04-08-2006 04:15:02 14.1 C 10.68 g/m*3 14.1 C 0 km/h
746 04-08-2006 04:25:02 14.2 C 10.62 g/m*3 14.2 C 0 km/h
747 04-08-2006 04:35:02 14.1 C 10.56 g/m*3 14.1 C 0 km/h
748 04-08-2006 04:45:02 14.1 C 10.44 g/m*3 14.1 C 0 km/h
749 04-08-2006 04:55:02 14.1 C 10.56 g/m*3 14.1 C 0 km/h
750 04-08-2006 05:05:01 14 C 10.49 g/m*3 14 C 0 km/h
Sensor: Nr:Datum:Temp:Abs-Feuchte:Windchill:Wind:
Aussen-T/F 751 04-08-2006 05:15:02 14 C 10.49 g/m*3 14 C 0 km/h
752 04-08-2006 05:25:02 13.9 C 10.43 g/m*3 13.9 C 0 km/h
753 04-08-2006 05:35:02 13.8 C 10.48 g/m*3 13.8 C 0 km/h
754 04-08-2006 05:45:03 13.7 C 10.42 g/m*3 13.7 C 0 km/h
755 04-08-2006 05:55:03 13.7 C 10.54 g/m*3 13.7 C 0 km/h
756 04-08-2006 06:05:02 13.7 C 10.54 g/m*3 13.7 C 0 km/h
757 04-08-2006 06:15:02 13.6 C 10.47 g/m*3 13.6 C 0 km/h
758 04-08-2006 06:25:02 13.6 C 10.47 g/m*3 13.6 C 0 km/h
759 04-08-2006 06:35:02 13.7 C 10.54 g/m*3 13.7 C 0 km/h
760 04-08-2006 06:45:02 13.9 C 10.67 g/m*3 13.9 C 0 km/h
761 04-08-2006 06:55:02 14 C 10.61 g/m*3 14 C 0 km/h
762 04-08-2006 07:05:01 14 C 10.49 g/m*3 14 C 0 km/h
763 04-08-2006 07:15:02 14.1 C 10.56 g/m*3 14.1 C 0 km/h
764 04-08-2006 07:25:02 14.1 C 10.44 g/m*3 14.1 C 0 km/h
765 04-08-2006 07:35:01 14.2 C 10.5 g/m*3 14.2 C 0 km/h
766 04-08-2006 07:45:01 14.2 C 10.5 g/m*3 14.2 C 0 km/h
767 04-08-2006 07:55:01 14.3 C 10.57 g/m*3 14.3 C 0 km/h
768 04-08-2006 08:05:02 14.5 C 10.57 g/m*3 14.5 C 0 km/h
769 04-08-2006 08:15:02 14.7 C 10.58 g/m*3 14.7 C 0 km/h
770 04-08-2006 08:25:02 15 C 10.64 g/m*3 15 C 0 km/h
771 04-08-2006 08:35:02 15 C 10.51 g/m*3 15 C 0 km/h
772 04-08-2006 08:45:03 15 C 10.39 g/m*3 15 C 0 km/h
773 04-08-2006 08:55:03 15.2 C 10.51 g/m*3 15.2 C 0 km/h
774 04-08-2006 09:05:02 15.4 C 10.51 g/m*3 15.4 C 0 km/h
775 04-08-2006 09:15:02 15.8 C 10.5 g/m*3 15.8 C 0 km/h
Sensor: Nr:Datum:Temp:Abs-Feuchte:Windchill:Wind:
Aussen-T/F 776 04-08-2006 09:25:02 16 C 10.22 g/m*3 16 C 0 km/h
777 04-08-2006 09:35:02 16.4 C 10.05 g/m*3 16.4 C 0 km/h
778 04-08-2006 09:45:01 17 C 9.98 g/m*3 17 C 0 km/h
779 04-08-2006 09:55:02 17.3 C 9.87 g/m*3 17.3 C 0 km/h
780 04-08-2006 10:05:01 17.8 C 9.87 g/m*3 17.8 C 0 km/h
781 04-08-2006 10:15:01 17.9 C 9.92 g/m*3 17.9 C 0 km/h
782 04-08-2006 10:25:01 17.9 C 9.77 g/m*3 17.9 C 0 km/h
783 04-08-2006 10:35:02 17.9 C 9.77 g/m*3 17.9 C 0 km/h
784 04-08-2006 10:45:03 18.1 C 9.73 g/m*3 18.1 C 0 km/h
785 04-08-2006 10:55:03 18.4 C 9.75 g/m*3 18.4 C 0 km/h
786 04-08-2006 11:05:03 18.1 C 9.73 g/m*3 18.1 C 0 km/h
787 04-08-2006 11:15:02 19 C 9.94 g/m*3 19 C 0 km/h
788 04-08-2006 11:25:02 19.9 C 9.97 g/m*3 19.9 C 0 km/h
789 04-08-2006 11:35:02 20.6 C 10.2 g/m*3 20.6 C 0 km/h
790 04-08-2006 11:45:02 21.2 C 9.82 g/m*3 21.2 C 0 km/h
791 04-08-2006 11:55:02 21 C 9.53 g/m*3 21 C 0 km/h
792 04-08-2006 12:05:02 20.8 C 9.78 g/m*3 20.8 C 0 km/h
793 04-08-2006 12:15:01 20.5 C 9.79 g/m*3 20.5 C 0 km/h
794 04-08-2006 12:25:01 21.1 C 9.4 g/m*3 21.1 C 0 km/h
795 04-08-2006 12:35:01 22.4 C 9.33 g/m*3 22.4 C 0 km/h
796 04-08-2006 12:45:02 22.7 C 9.29 g/m*3 22.7 C 0 km/h
797 04-08-2006 12:55:02 23 C 8.84 g/m*3 23 C 0 km/h
798 04-08-2006 13:05:02 22.2 C 9.23 g/m*3 22.2 C 0 km/h
799 04-08-2006 13:15:01 23.3 C 9.62 g/m*3 23.3 C 0 km/h
800 04-08-2006 13:25:01 23.8 C 9.25 g/m*3 23.8 C 0 km/h
Sensor: Nr:Datum:Temp:Abs-Feuchte:Windchill:Wind:
Aussen-T/F 801 04-08-2006 13:35:01 23.9 C 9.09 g/m*3 23.9 C 0 km/h
802 04-08-2006 13:45:02 25.3 C 8.19 g/m*3 25.3 C 0 km/h
803 04-08-2006 13:55:02 26.6 C 8.05 g/m*3 26.6 C 0 km/h
804 04-08-2006 14:05:01 26.9 C 7.68 g/m*3 26.9 C 0 km/h
805 04-08-2006 14:15:01 26.6 C 7.8 g/m*3 26.6 C 0 km/h
806 04-08-2006 14:25:01 26.1 C 7.34 g/m*3 26.1 C 0 km/h
807 04-08-2006 14:35:02 26.9 C 7.68 g/m*3 26.9 C 0 km/h
808 04-08-2006 14:45:02 27.8 C 6.99 g/m*3 27.8 C 0 km/h
809 04-08-2006 14:55:02 27.2 C 6.77 g/m*3 27.2 C 0 km/h
810 04-08-2006 15:05:02 27.6 C 6.92 g/m*3 27.6 C 0 km/h
811 04-08-2006 15:15:02 27.6 C 6.92 g/m*3 27.6 C 0 km/h
812 04-08-2006 15:25:02 27.7 C 7.49 g/m*3 27.7 C 0 km/h
813 04-08-2006 15:35:02 27.5 C 7.41 g/m*3 27.5 C 0 km/h
814 04-08-2006 15:45:02 27.5 C 7.14 g/m*3 27.5 C 0 km/h
815 04-08-2006 15:55:02 28.2 C 6.87 g/m*3 28.2 C 0 km/h
816 04-08-2006 16:05:03 29 C 7.18 g/m*3 29 C 0 km/h
817 04-08-2006 16:15:02 29 C 6.61 g/m*3 29 C 0 km/h
818 04-08-2006 16:25:02 28.9 C 6 g/m*3 28.9 C 0 km/h
819 04-08-2006 16:35:02 27.4 C 6.84 g/m*3 27.4 C 0 km/h
820 04-08-2006 16:45:01 27.5 C 7.14 g/m*3 27.5 C 0 km/h
821 04-08-2006 16:55:01 26.1 C 7.34 g/m*3 26.1 C 0 km/h
822 04-08-2006 17:05:02 25.4 C 7.77 g/m*3 25.4 C 0 km/h
823 04-08-2006 17:15:02 25.3 C 7.73 g/m*3 25.3 C 0 km/h
824 04-08-2006 17:25:02 25.3 C 7.49 g/m*3 25.3 C 0 km/h
825 04-08-2006 17:35:02 25.3 C 7.26 g/m*3 25.3 C 0 km/h
Sensor: Nr:Datum:Temp:Abs-Feuchte:Windchill:Wind:
Aussen-T/F 826 04-08-2006 17:45:02 25.5 C 7.1 g/m*3 25.5 C 0 km/h
827 04-08-2006 17:55:03 24.8 C 6.83 g/m*3 24.8 C 0 km/h
828 04-08-2006 18:05:02 24.6 C 7.2 g/m*3 24.6 C 0 km/h
829 04-08-2006 18:15:02 24.5 C 7.39 g/m*3 24.5 C 0 km/h
830 04-08-2006 18:25:02 24.5 C 7.39 g/m*3 24.5 C 0 km/h
831 04-08-2006 18:35:02 24.2 C 7.48 g/m*3 24.2 C 0 km/h
832 04-08-2006 18:45:02 24 C 7.83 g/m*3 24 C 0 km/h
833 04-08-2006 18:55:02 23.5 C 8.25 g/m*3 23.5 C 0 km/h
834 04-08-2006 19:05:02 22.6 C 8.24 g/m*3 22.6 C 0 km/h
835 04-08-2006 19:15:04 22.7 C 8.69 g/m*3 22.7 C 0 km/h
836 04-08-2006 19:25:04 22.4 C 8.94 g/m*3 22.4 C 0 km/h
837 04-08-2006 19:35:04 22 C 8.93 g/m*3 22 C 0 km/h
838 04-08-2006 19:45:02 22 C 9.32 g/m*3 22 C 0 km/h
839 04-08-2006 19:55:02 21.8 C 9.59 g/m*3 21.8 C 0 km/h
840 04-08-2006 20:05:02 21.3 C 9.51 g/m*3 21.3 C 0 km/h
841 04-08-2006 20:15:02 21.2 C 9.64 g/m*3 21.2 C 0 km/h
842 04-08-2006 20:25:02 21.1 C 9.58 g/m*3 21.1 C 0 km/h
843 04-08-2006 20:35:02 20.9 C 9.83 g/m*3 20.9 C 0 km/h
844 04-08-2006 20:45:02 20.6 C 9.84 g/m*3 20.6 C 0 km/h
845 04-08-2006 20:55:02 20.6 C 9.84 g/m*3 20.6 C 0 km/h
846 04-08-2006 21:05:03 20.3 C 10.55 g/m*3 20.3 C 0 km/h
847 04-08-2006 21:15:02 19.9 C 10.82 g/m*3 19.9 C 0 km/h
848 04-08-2006 21:25:02 19.8 C 10.76 g/m*3 19.8 C 0 km/h
849 04-08-2006 21:35:02 19.7 C 10.53 g/m*3 19.7 C 0 km/h
850 04-08-2006 21:45:03 19.3 C 10.95 g/m*3 19.3 C 0 km/h
Sensor: Nr:Datum:Temp:Abs-Feuchte:Windchill:Wind:
Aussen-T/F 851 04-08-2006 21:55:03 19.2 C 10.88 g/m*3 19.2 C 0 km/h
852 04-08-2006 22:05:03 18.9 C 10.85 g/m*3 18.9 C 0 km/h
853 04-08-2006 22:15:02 18.3 C 11.73 g/m*3 18.3 C 0 km/h
854 04-08-2006 22:25:02 17.5 C 12.37 g/m*3 17.5 C 0 km/h
855 04-08-2006 22:35:02 17.1 C 12.37 g/m*3 17.1 C 0 km/h
856 04-08-2006 22:45:02 17.1 C 12.37 g/m*3 17.1 C 0 km/h
857 04-08-2006 22:55:02 17.3 C 12.37 g/m*3 17.3 C 0 km/h
858 04-08-2006 23:05:02 17.2 C 12.3 g/m*3 17.2 C 0 km/h
859 04-08-2006 23:15:02 16.8 C 11.87 g/m*3 16.8 C 0 km/h
860 04-08-2006 23:25:02 16.4 C 11.58 g/m*3 16.4 C 0 km/h
861 04-08-2006 23:35:01 16.2 C 11.31 g/m*3 16.2 C 0 km/h
862 04-08-2006 23:45:02 16.4 C 11.72 g/m*3 16.4 C 0 km/h
863 04-08-2006 23:55:02 16.3 C 11.79 g/m*3 16.3 C 0 km/h
864 05-08-2006 00:05:02 16.2 C 11.58 g/m*3 16.2 C 0 km/h
865 05-08-2006 00:15:03 16.1 C 11.65 g/m*3 16.1 C 0 km/h
866 05-08-2006 00:25:03 16 C 11.58 g/m*3 16 C 0 km/h
867 05-08-2006 00:35:03 16 C 11.72 g/m*3 16 C 0 km/h
868 05-08-2006 00:45:03 16.1 C 11.79 g/m*3 16.1 C 0 km/h
869 05-08-2006 00:55:03 16.1 C 11.79 g/m*3 16.1 C 0 km/h
870 05-08-2006 01:05:03 16 C 11.72 g/m*3 16 C 0 km/h
871 05-08-2006 01:15:03 16 C 11.72 g/m*3 16 C 0 km/h
872 05-08-2006 01:25:04 16 C 11.58 g/m*3 16 C 0 km/h
873 05-08-2006 01:35:03 16 C 11.44 g/m*3 16 C 0 km/h
874 05-08-2006 01:45:03 16 C 11.44 g/m*3 16 C 0 km/h
875 05-08-2006 01:55:03 16 C 11.44 g/m*3 16 C 0 km/h
Sensor: Nr:Datum:Temp:Abs-Feuchte:Windchill:Wind:
Aussen-T/F 876 05-08-2006 02:05:02 16.1 C 11.51 g/m*3 16.1 C 0 km/h
877 05-08-2006 02:15:03 16.2 C 11.58 g/m*3 16.2 C 0 km/h
878 05-08-2006 02:25:03 16.2 C 11.58 g/m*3 16.2 C 0 km/h
879 05-08-2006 02:35:03 16 C 11.44 g/m*3 16 C 0 km/h
880 05-08-2006 02:46:03 16 C 11.44 g/m*3 16 C 0 km/h
881 05-08-2006 02:56:04 16 C 11.44 g/m*3 16 C 0 km/h
882 05-08-2006 03:06:04 15.9 C 11.38 g/m*3 15.9 C 0 km/h
883 05-08-2006 03:16:03 15.8 C 11.31 g/m*3 15.8 C 0 km/h
884 05-08-2006 03:26:03 15.6 C 11.17 g/m*3 15.6 C 0 km/h
885 05-08-2006 03:36:02 15.4 C 11.04 g/m*3 15.4 C 0 km/h
886 05-08-2006 03:46:02 15.4 C 11.04 g/m*3 15.4 C 0 km/h
887 05-08-2006 03:56:02 15.5 C 11.1 g/m*3 15.5 C 0 km/h
888 05-08-2006 04:06:03 15.2 C 10.9 g/m*3 15.2 C 0 km/h
889 05-08-2006 04:16:02 15 C 10.77 g/m*3 15 C 0 km/h
890 05-08-2006 04:26:02 14.9 C 10.83 g/m*3 14.9 C 0 km/h
891 05-08-2006 04:36:02 14.9 C 10.96 g/m*3 14.9 C 0 km/h
892 05-08-2006 04:46:01 15 C 10.9 g/m*3 15 C 0 km/h
893 05-08-2006 04:56:01 15.1 C 10.97 g/m*3 15.1 C 0 km/h
894 05-08-2006 05:06:02 15.2 C 11.03 g/m*3 15.2 C 0 km/h
895 05-08-2006 05:16:02 15.2 C 11.03 g/m*3 15.2 C 0 km/h
896 05-08-2006 05:26:02 15.2 C 11.03 g/m*3 15.2 C 0 km/h
897 05-08-2006 05:36:02 15.1 C 10.97 g/m*3 15.1 C 0 km/h
898 05-08-2006 05:46:02 15.2 C 11.03 g/m*3 15.2 C 0 km/h
899 05-08-2006 05:56:02 15.2 C 11.03 g/m*3 15.2 C 0 km/h
900 05-08-2006 06:06:02 15.4 C 11.17 g/m*3 15.4 C 0 km/h
Sensor: Nr:Datum:Temp:Abs-Feuchte:Windchill:Wind:
Aussen-T/F 901 05-08-2006 06:16:02 15.4 C 11.17 g/m*3 15.4 C 0 km/h
902 05-08-2006 06:26:02 15.5 C 11.24 g/m*3 15.5 C 0 km/h
903 05-08-2006 06:36:02 15.6 C 11.3 g/m*3 15.6 C 0 km/h
904 05-08-2006 06:46:02 15.6 C 11.3 g/m*3 15.6 C 0 km/h
905 05-08-2006 06:56:02 15.7 C 11.24 g/m*3 15.7 C 0 km/h
906 05-08-2006 07:06:02 15.8 C 11.31 g/m*3 15.8 C 0 km/h
907 05-08-2006 07:16:01 15.8 C 11.31 g/m*3 15.8 C 0 km/h
908 05-08-2006 07:26:02 15.8 C 11.44 g/m*3 15.8 C 0 km/h
909 05-08-2006 07:36:01 15.6 C 11.3 g/m*3 15.6 C 0 km/h
910 05-08-2006 07:46:02 15.7 C 11.37 g/m*3 15.7 C 0 km/h
911 05-08-2006 07:56:02 15.7 C 11.51 g/m*3 15.7 C 0 km/h
912 05-08-2006 08:06:02 16.2 C 11.72 g/m*3 16.2 C 0 km/h
913 05-08-2006 08:16:02 16.6 C 12.01 g/m*3 16.6 C 0 km/h
914 05-08-2006 08:26:02 16.9 C 12.08 g/m*3 16.9 C 0 km/h
915 05-08-2006 08:36:01 17.3 C 11.93 g/m*3 17.3 C 0 km/h
916 05-08-2006 08:46:02 17.6 C 12 g/m*3 17.6 C 0 km/h
917 05-08-2006 08:56:02 17.9 C 11.76 g/m*3 17.9 C 0 km/h
918 05-08-2006 09:06:02 17.8 C 11.54 g/m*3 17.8 C 0 km/h
919 05-08-2006 09:16:02 17.7 C 11.47 g/m*3 17.7 C 0 km/h
920 05-08-2006 09:26:02 18.1 C 11.74 g/m*3 18.1 C 0 km/h
921 05-08-2006 09:36:02 18.7 C 11.53 g/m*3 18.7 C 0 km/h
922 05-08-2006 09:46:02 18.7 C 11.37 g/m*3 18.7 C 0 km/h
923 05-08-2006 09:56:02 18.8 C 11.11 g/m*3 18.8 C 0 km/h
924 05-08-2006 10:06:02 19.6 C 11.48 g/m*3 19.6 C 0 km/h
925 05-08-2006 10:16:02 20 C 10.71 g/m*3 20 C 0 km/h
Sensor: Nr:Datum:Temp:Abs-Feuchte:Windchill:Wind:
Aussen-T/F 926 05-08-2006 10:26:02 19.4 C 10.84 g/m*3 19.4 C 0 km/h
927 05-08-2006 10:36:02 19.9 C 11.17 g/m*3 19.9 C 0 km/h
928 05-08-2006 10:46:02 19.8 C 11.1 g/m*3 19.8 C 0 km/h
929 05-08-2006 10:56:02 19.7 C 10.87 g/m*3 19.7 C 0 km/h
930 05-08-2006 11:06:02 19.9 C 10.65 g/m*3 19.9 C 0 km/h
931 05-08-2006 11:16:02 20.2 C 10.67 g/m*3 20.2 C 0 km/h
932 05-08-2006 11:26:02 21.1 C 10.5 g/m*3 21.1 C 0 km/h
933 05-08-2006 11:36:02 20.9 C 10.75 g/m*3 20.9 C 0 km/h
934 05-08-2006 11:46:02 21 C 10.62 g/m*3 21 C 0 km/h
935 05-08-2006 11:56:02 20.6 C 10.56 g/m*3 20.6 C 0 km/h
936 05-08-2006 12:06:03 20.8 C 11.05 g/m*3 20.8 C 0 km/h
937 05-08-2006 12:16:02 21.2 C 10.93 g/m*3 21.2 C 0 km/h
938 05-08-2006 12:26:02 21.3 C 10.81 g/m*3 21.3 C 0 km/h
939 05-08-2006 12:36:02 22 C 10.48 g/m*3 22 C 0 km/h
940 05-08-2006 12:46:02 22.6 C 10.45 g/m*3 22.6 C 0 km/h
941 05-08-2006 12:56:02 23.2 C 10.19 g/m*3 23.2 C 0 km/h
942 05-08-2006 13:06:03 22.9 C 9.81 g/m*3 22.9 C 0 km/h
943 05-08-2006 13:16:02 22.6 C 10.04 g/m*3 22.6 C 0 km/h
944 05-08-2006 13:26:02 23.8 C 9.9 g/m*3 23.8 C 0 km/h
945 05-08-2006 13:36:02 23.5 C 9.52 g/m*3 23.5 C 0 km/h
946 05-08-2006 13:46:03 23.9 C 9.3 g/m*3 23.9 C 0 km/h
947 05-08-2006 13:56:03 24.2 C 9.46 g/m*3 24.2 C 0 km/h
948 05-08-2006 14:06:03 24.1 C 9.19 g/m*3 24.1 C 0 km/h
949 05-08-2006 14:16:03 24.8 C 9.33 g/m*3 24.8 C 0 km/h
950 05-08-2006 14:26:04 24.3 C 8.85 g/m*3 24.3 C 0 km/h
Sensor: Nr:Datum:Temp:Abs-Feuchte:Windchill:Wind:
Aussen-T/F 951 05-08-2006 14:36:02 25.1 C 8.57 g/m*3 25.1 C 0 km/h
952 05-08-2006 14:46:01 24.8 C 8.88 g/m*3 24.8 C 0 km/h
953 05-08-2006 14:56:01 25.9 C 8.47 g/m*3 25.9 C 0 km/h
954 05-08-2006 15:06:02 26.2 C 8.62 g/m*3 26.2 C 0 km/h
955 05-08-2006 15:16:02 25.3 C 7.96 g/m*3 25.3 C 0 km/h
956 05-08-2006 15:26:02 25.4 C 8.24 g/m*3 25.4 C 0 km/h
957 05-08-2006 15:36:02 26 C 8.28 g/m*3 26 C 0 km/h
958 05-08-2006 15:46:02 26.2 C 7.88 g/m*3 26.2 C 0 km/h
959 05-08-2006 15:56:02 27.5 C 7.94 g/m*3 27.5 C 0 km/h
960 05-08-2006 16:06:02 27.9 C 7.84 g/m*3 27.9 C 0 km/h
961 05-08-2006 16:16:02 27.6 C 7.45 g/m*3 27.6 C 0 km/h
962 05-08-2006 16:26:02 27.2 C 7.55 g/m*3 27.2 C 0 km/h
963 05-08-2006 16:36:03 26.7 C 6.83 g/m*3 26.7 C 0 km/h
964 05-08-2006 16:46:02 27.4 C 6.84 g/m*3 27.4 C 0 km/h
965 05-08-2006 16:56:02 27.3 C 6.54 g/m*3 27.3 C 0 km/h
966 05-08-2006 17:06:02 27.8 C 6.72 g/m*3 27.8 C 0 km/h
967 05-08-2006 17:16:02 27.9 C 7.03 g/m*3 27.9 C 0 km/h
968 05-08-2006 17:26:02 28.5 C 6.71 g/m*3 28.5 C 0 km/h
969 05-08-2006 17:36:04 28.2 C 6.6 g/m*3 28.2 C 0 km/h
970 05-08-2006 17:46:02 28.5 C 6.99 g/m*3 28.5 C 0 km/h
971 05-08-2006 17:56:02 27.9 C 6.49 g/m*3 27.9 C 0 km/h
972 05-08-2006 18:06:02 27.2 C 6.51 g/m*3 27.2 C 0 km/h
973 05-08-2006 18:16:03 27.1 C 6.47 g/m*3 27.1 C 0 km/h
974 05-08-2006 18:26:03 26.9 C 6.4 g/m*3 26.9 C 0 km/h
975 05-08-2006 18:36:03 25.9 C 6.29 g/m*3 25.9 C 0 km/h
Sensor: Nr:Datum:Temp:Abs-Feuchte:Windchill:Wind:
Aussen-T/F 976 05-08-2006 18:46:03 26 C 6.57 g/m*3 26 C 0 km/h
977 05-08-2006 18:56:03 25.9 C 7.51 g/m*3 25.9 C 0 km/h
978 05-08-2006 19:06:02 25.9 C 7.99 g/m*3 25.9 C 0 km/h
979 05-08-2006 19:16:02 25.6 C 7.86 g/m*3 25.6 C 0 km/h
980 05-08-2006 19:26:02 25.7 C 7.66 g/m*3 25.7 C 0 km/h
981 05-08-2006 19:36:02 25.8 C 7.22 g/m*3 25.8 C 0 km/h
982 05-08-2006 19:46:02 26.4 C 7.22 g/m*3 26.4 C 0 km/h
983 05-08-2006 19:56:02 26.1 C 7.34 g/m*3 26.1 C 0 km/h
984 05-08-2006 20:06:01 25.4 C 7.77 g/m*3 25.4 C 0 km/h
985 05-08-2006 20:16:01 25 C 7.83 g/m*3 25 C 0 km/h
986 05-08-2006 20:26:01 24.8 C 7.97 g/m*3 24.8 C 0 km/h
987 05-08-2006 20:36:02 24.5 C 8.06 g/m*3 24.5 C 0 km/h
988 05-08-2006 20:46:03 24.3 C 8.19 g/m*3 24.3 C 0 km/h
989 05-08-2006 20:56:03 23.6 C 8.72 g/m*3 23.6 C 0 km/h
990 05-08-2006 21:06:02 23.3 C 9.2 g/m*3 23.3 C 0 km/h
991 05-08-2006 21:16:02 23.2 C 9.15 g/m*3 23.2 C 0 km/h
992 05-08-2006 21:26:03 22.9 C 9.81 g/m*3 22.9 C 0 km/h
993 05-08-2006 21:36:01 22.9 C 10.01 g/m*3 22.9 C 0 km/h
994 05-08-2006 21:46:02 21.7 C 9.73 g/m*3 21.7 C 0 km/h
995 05-08-2006 21:56:02 21.6 C 9.86 g/m*3 21.6 C 0 km/h
996 05-08-2006 22:06:02 21.3 C 9.69 g/m*3 21.3 C 0 km/h
997 05-08-2006 22:16:02 21.2 C 9.82 g/m*3 21.2 C 0 km/h
998 05-08-2006 22:26:03 21.2 C 9.64 g/m*3 21.2 C 0 km/h
999 05-08-2006 22:36:02 21.2 C 9.64 g/m*3 21.2 C 0 km/h
1000 05-08-2006 22:46:02 21 C 9.89 g/m*3 21 C 0 km/h
Sensor: Nr:Datum:Temp:Abs-Feuchte:Windchill:Wind:
Aussen-T/F 1001 05-08-2006 22:56:03 20.9 C 10.2 g/m*3 20.9 C 0 km/h
1002 05-08-2006 23:06:02 21 C 10.44 g/m*3 21 C 0 km/h
1003 05-08-2006 23:16:02 20.9 C 10.56 g/m*3 20.9 C 0 km/h
1004 05-08-2006 23:26:02 20.8 C 10.68 g/m*3 20.8 C 0 km/h
1005 05-08-2006 23:36:03 20.7 C 10.8 g/m*3 20.7 C 0 km/h
1006 05-08-2006 23:46:02 20.7 C 10.98 g/m*3 20.7 C 0 km/h
1007 05-08-2006 23:56:02 20.8 C 11.05 g/m*3 20.8 C 0 km/h
1008 06-08-2006 00:06:02 20.6 C 11.45 g/m*3 20.6 C 0 km/h
1009 06-08-2006 00:16:03 19.8 C 12.3 g/m*3 19.8 C 0 km/h
1010 06-08-2006 00:26:03 19.5 C 12.25 g/m*3 19.5 C 0 km/h
1011 06-08-2006 00:36:02 19.3 C 12.11 g/m*3 19.3 C 0 km/h
1012 06-08-2006 00:46:02 19.5 C 12.08 g/m*3 19.5 C 0 km/h
1013 06-08-2006 00:56:02 19.6 C 12.15 g/m*3 19.6 C 0 km/h
1014 06-08-2006 01:06:02 19.6 C 11.99 g/m*3 19.6 C 0 km/h
1015 06-08-2006 01:16:02 19.6 C 11.99 g/m*3 19.6 C 0 km/h
1016 06-08-2006 01:26:02 19.7 C 12.06 g/m*3 19.7 C 0 km/h
1017 06-08-2006 01:36:02 19.7 C 12.06 g/m*3 19.7 C 0 km/h
1018 06-08-2006 01:46:02 19.7 C 12.06 g/m*3 19.7 C 0 km/h
1019 06-08-2006 01:56:02 19.7 C 12.23 g/m*3 19.7 C 0 km/h
1020 06-08-2006 02:06:02 19.8 C 12.13 g/m*3 19.8 C 0 km/h
1021 06-08-2006 02:16:02 19.7 C 12.23 g/m*3 19.7 C 0 km/h
1022 06-08-2006 02:26:02 19.7 C 12.06 g/m*3 19.7 C 0 km/h
1023 06-08-2006 02:36:02 19.8 C 12.13 g/m*3 19.8 C 0 km/h
1024 06-08-2006 02:47:04 19.8 C 12.13 g/m*3 19.8 C 0 km/h
1025 06-08-2006 02:57:04 19.7 C 12.23 g/m*3 19.7 C 0 km/h
Sensor: Nr:Datum:Temp:Abs-Feuchte:Windchill:Wind:
Aussen-T/F 1026 06-08-2006 03:07:04 19.6 C 12.15 g/m*3 19.6 C 0 km/h
1027 06-08-2006 03:17:04 19.6 C 12.32 g/m*3 19.6 C 0 km/h
1028 06-08-2006 03:27:04 19.4 C 12.18 g/m*3 19.4 C 0 km/h
1029 06-08-2006 03:37:03 19.3 C 12.27 g/m*3 19.3 C 0 km/h
1030 06-08-2006 03:47:03 19 C 12.06 g/m*3 19 C 0 km/h
1031 06-08-2006 03:57:03 18.8 C 12.4 g/m*3 18.8 C 0 km/h
1032 06-08-2006 04:07:02 18.7 C 12.33 g/m*3 18.7 C 0 km/h
1033 06-08-2006 04:17:02 18.7 C 12.33 g/m*3 18.7 C 0 km/h
1034 06-08-2006 04:27:02 18.8 C 12.4 g/m*3 18.8 C 0 km/h
1035 06-08-2006 04:37:02 19 C 12.39 g/m*3 19 C 0 km/h
1036 06-08-2006 04:47:02 19.1 C 12.29 g/m*3 19.1 C 0 km/h
1037 06-08-2006 04:57:02 18.9 C 12.47 g/m*3 18.9 C 0 km/h
1038 06-08-2006 05:07:02 18.9 C 12.47 g/m*3 18.9 C 0 km/h
1039 06-08-2006 05:17:02 18.8 C 12.56 g/m*3 18.8 C 0 km/h
1040 06-08-2006 05:27:02 18.8 C 12.56 g/m*3 18.8 C 0 km/h
1041 06-08-2006 05:37:02 18.9 C 12.64 g/m*3 18.9 C 0 km/h
1042 06-08-2006 05:47:02 18.8 C 12.56 g/m*3 18.8 C 0 km/h
1043 06-08-2006 05:57:02 18.9 C 12.64 g/m*3 18.9 C 0 km/h
1044 06-08-2006 06:07:01 18.8 C 12.56 g/m*3 18.8 C 0 km/h
1045 06-08-2006 06:17:01 18.7 C 12.49 g/m*3 18.7 C 0 km/h
1046 06-08-2006 06:27:01 18.6 C 12.57 g/m*3 18.6 C 0 km/h
1047 06-08-2006 06:37:01 18.5 C 12.5 g/m*3 18.5 C 0 km/h
1048 06-08-2006 06:47:02 18.6 C 12.57 g/m*3 18.6 C 0 km/h
1049 06-08-2006 06:57:02 18.7 C 12.49 g/m*3 18.7 C 0 km/h
1050 06-08-2006 07:07:01 18.8 C 12.56 g/m*3 18.8 C 0 km/h
Sensor: Nr:Datum:Temp:Abs-Feuchte:Windchill:Wind:
Aussen-T/F 1051 06-08-2006 07:17:01 18.7 C 12.49 g/m*3 18.7 C 0 km/h
1052 06-08-2006 07:27:01 18.7 C 12.33 g/m*3 18.7 C 0 km/h
1053 06-08-2006 07:37:01 19 C 12.39 g/m*3 19 C 0 km/h
1054 06-08-2006 07:47:02 19.3 C 12.27 g/m*3 19.3 C 0 km/h
1055 06-08-2006 07:57:02 19.5 C 12.25 g/m*3 19.5 C 0 km/h
1056 06-08-2006 08:07:01 19.5 C 12.25 g/m*3 19.5 C 0 km/h
1057 06-08-2006 08:17:01 19.7 C 12.23 g/m*3 19.7 C 0 km/h
1058 06-08-2006 08:27:01 19.5 C 12.08 g/m*3 19.5 C 0 km/h
1059 06-08-2006 08:37:01 19.4 C 12.01 g/m*3 19.4 C 0 km/h
1060 06-08-2006 08:47:02 19.2 C 12.04 g/m*3 19.2 C 0 km/h
1061 06-08-2006 08:57:02 19.2 C 12.04 g/m*3 19.2 C 0 km/h
1062 06-08-2006 09:07:02 19.3 C 11.94 g/m*3 19.3 C 0 km/h
1063 06-08-2006 09:17:02 19.5 C 11.92 g/m*3 19.5 C 0 km/h
1064 06-08-2006 09:27:02 19.5 C 11.92 g/m*3 19.5 C 0 km/h
1065 06-08-2006 09:37:02 19.4 C 11.85 g/m*3 19.4 C 0 km/h
1066 06-08-2006 09:47:02 19.5 C 11.92 g/m*3 19.5 C 0 km/h
1067 06-08-2006 09:57:02 19.6 C 11.82 g/m*3 19.6 C 0 km/h
1068 06-08-2006 10:07:02 19.9 C 11.85 g/m*3 19.9 C 0 km/h
1069 06-08-2006 10:17:02 20.4 C 11.68 g/m*3 20.4 C 0 km/h
1070 06-08-2006 10:27:02 20.5 C 11.39 g/m*3 20.5 C 0 km/h
1071 06-08-2006 10:37:01 20.7 C 11.34 g/m*3 20.7 C 0 km/h
1072 06-08-2006 10:47:02 20.7 C 11.16 g/m*3 20.7 C 0 km/h
1073 06-08-2006 10:57:02 21.3 C 10.81 g/m*3 21.3 C 0 km/h
1074 06-08-2006 11:07:02 21.5 C 10.75 g/m*3 21.5 C 0 km/h
1075 06-08-2006 11:17:02 21.2 C 10.01 g/m*3 21.2 C 0 km/h
Sensor: Nr:Datum:Temp:Abs-Feuchte:Windchill:Wind:
Aussen-T/F 1076 06-08-2006 11:27:02 21.6 C 10.05 g/m*3 21.6 C 0 km/h
1077 06-08-2006 11:37:03 21.2 C 10.01 g/m*3 21.2 C 0 km/h
1078 06-08-2006 11:47:02 21.7 C 10.3 g/m*3 21.7 C 0 km/h
1079 06-08-2006 11:57:02 22.2 C 10.01 g/m*3 22.2 C 0 km/h
1080 06-08-2006 12:07:02 22.5 C 10.19 g/m*3 22.5 C 0 km/h
1081 06-08-2006 12:17:02 22.7 C 10.3 g/m*3 22.7 C 0 km/h
1082 06-08-2006 12:27:02 22.8 C 9.96 g/m*3 22.8 C 0 km/h
1083 06-08-2006 12:37:02 23.9 C 9.74 g/m*3 23.9 C 0 km/h
1084 06-08-2006 12:47:02 23.6 C 9.78 g/m*3 23.6 C 0 km/h
1085 06-08-2006 12:57:02 23.5 C 9.52 g/m*3 23.5 C 0 km/h
1086 06-08-2006 13:07:02 23.5 C 9.52 g/m*3 23.5 C 0 km/h
1087 06-08-2006 13:17:02 23.7 C 9.63 g/m*3 23.7 C 0 km/h
1088 06-08-2006 13:27:02 24.2 C 9.46 g/m*3 24.2 C 0 km/h
1089 06-08-2006 13:37:02 23.6 C 9.57 g/m*3 23.6 C 0 km/h
1090 06-08-2006 13:47:02 23.7 C 9.84 g/m*3 23.7 C 0 km/h
1091 06-08-2006 13:57:02 23.5 C 9.31 g/m*3 23.5 C 0 km/h
1092 06-08-2006 14:07:02 23.1 C 9.1 g/m*3 23.1 C 0 km/h
1093 06-08-2006 14:17:02 22.8 C 9.14 g/m*3 22.8 C 0 km/h
1094 06-08-2006 14:27:02 23.1 C 9.3 g/m*3 23.1 C 0 km/h
1095 06-08-2006 14:37:02 23.1 C 9.3 g/m*3 23.1 C 0 km/h
1096 06-08-2006 14:47:02 23.1 C 9.51 g/m*3 23.1 C 0 km/h
1097 06-08-2006 14:57:02 23.3 C 9.41 g/m*3 23.3 C 0 km/h
1098 06-08-2006 15:07:02 23.4 C 9.46 g/m*3 23.4 C 0 km/h
1099 06-08-2006 15:17:02 24 C 9.36 g/m*3 24 C 0 km/h
1100 06-08-2006 15:27:02 24.7 C 9.51 g/m*3 24.7 C 0 km/h
Sensor: Nr:Datum:Temp:Abs-Feuchte:Windchill:Wind:
Aussen-T/F 1101 06-08-2006 15:37:03 25.4 C 9.18 g/m*3 25.4 C 0 km/h
1102 06-08-2006 15:47:02 24.8 C 9.1 g/m*3 24.8 C 0 km/h
1103 06-08-2006 15:57:02 25.2 C 9.31 g/m*3 25.2 C 0 km/h
1104 06-08-2006 16:07:02 25.7 C 8.38 g/m*3 25.7 C 0 km/h
1105 06-08-2006 16:17:03 24.9 C 8.93 g/m*3 24.9 C 0 km/h
1106 06-08-2006 16:27:03 24.3 C 8.41 g/m*3 24.3 C 0 km/h
1107 06-08-2006 16:37:03 24.2 C 8.8 g/m*3 24.2 C 0 km/h
1108 06-08-2006 16:47:03 24.5 C 8.73 g/m*3 24.5 C 0 km/h
1109 06-08-2006 16:57:03 24.6 C 8.55 g/m*3 24.6 C 0 km/h
1110 06-08-2006 17:07:02 23.9 C 8.65 g/m*3 23.9 C 0 km/h
1111 06-08-2006 17:17:02 24 C 8.49 g/m*3 24 C 0 km/h
1112 06-08-2006 17:27:03 24.1 C 8.75 g/m*3 24.1 C 0 km/h
1113 06-08-2006 17:37:02 23.6 C 8.51 g/m*3 23.6 C 0 km/h
1114 06-08-2006 17:47:02 23.8 C 8.82 g/m*3 23.8 C 0 km/h
1115 06-08-2006 17:57:02 23.8 C 8.6 g/m*3 23.8 C 0 km/h
1116 06-08-2006 18:07:01 23.7 C 8.56 g/m*3 23.7 C 0 km/h
1117 06-08-2006 18:17:02 23.8 C 8.82 g/m*3 23.8 C 0 km/h
1118 06-08-2006 18:27:02 23.7 C 8.56 g/m*3 23.7 C 0 km/h
1119 06-08-2006 18:37:02 24.6 C 8.78 g/m*3 24.6 C 0 km/h
1120 06-08-2006 18:47:02 25.2 C 8.38 g/m*3 25.2 C 0 km/h
1121 06-08-2006 18:57:02 25.9 C 8.47 g/m*3 25.9 C 0 km/h
1122 06-08-2006 19:07:02 25.3 C 8.19 g/m*3 25.3 C 0 km/h
1123 06-08-2006 19:17:02 25.4 C 8.24 g/m*3 25.4 C 0 km/h
1124 06-08-2006 19:27:02 25.9 C 8.23 g/m*3 25.9 C 0 km/h
1125 06-08-2006 19:37:02 24.8 C 8.19 g/m*3 24.8 C 0 km/h
Sensor: Nr:Datum:Temp:Abs-Feuchte:Windchill:Wind:
Aussen-T/F 1126 06-08-2006 19:47:02 24.5 C 8.28 g/m*3 24.5 C 0 km/h
1127 06-08-2006 19:57:02 24.1 C 8.1 g/m*3 24.1 C 0 km/h
1128 06-08-2006 20:07:02 23.7 C 8.13 g/m*3 23.7 C 0 km/h
1129 06-08-2006 20:17:01 23.9 C 8.22 g/m*3 23.9 C 0 km/h
1130 06-08-2006 20:27:01 23.9 C 8.22 g/m*3 23.9 C 0 km/h
1131 06-08-2006 20:37:01 23.6 C 8.29 g/m*3 23.6 C 0 km/h
1132 06-08-2006 20:47:02 23.2 C 8.32 g/m*3 23.2 C 0 km/h
1133 06-08-2006 20:57:02 22.9 C 8.58 g/m*3 22.9 C 0 km/h
1134 06-08-2006 21:07:02 22.7 C 8.69 g/m*3 22.7 C 0 km/h
1135 06-08-2006 21:17:02 22.2 C 8.83 g/m*3 22.2 C 0 km/h
1136 06-08-2006 21:27:03 22 C 8.73 g/m*3 22 C 0 km/h
1137 06-08-2006 21:37:02 21.7 C 9.16 g/m*3 21.7 C 0 km/h
1138 06-08-2006 21:47:02 21.6 C 9.48 g/m*3 21.6 C 0 km/h
1139 06-08-2006 21:57:02 21.5 C 9.62 g/m*3 21.5 C 0 km/h
1140 06-08-2006 22:07:02 21.2 C 9.82 g/m*3 21.2 C 0 km/h
1141 06-08-2006 22:17:03 21.2 C 9.82 g/m*3 21.2 C 0 km/h
1142 06-08-2006 22:27:03 20.9 C 10.02 g/m*3 20.9 C 0 km/h
1143 06-08-2006 22:37:03 20.7 C 10.08 g/m*3 20.7 C 0 km/h
1144 06-08-2006 22:47:02 20.6 C 10.2 g/m*3 20.6 C 0 km/h
1145 06-08-2006 22:57:02 20.4 C 10.26 g/m*3 20.4 C 0 km/h
1146 06-08-2006 23:07:02 20.3 C 10.2 g/m*3 20.3 C 0 km/h
1147 06-08-2006 23:17:03 20.2 C 10.32 g/m*3 20.2 C 0 km/h
1148 06-08-2006 23:27:03 20 C 10.37 g/m*3 20 C 0 km/h
1149 06-08-2006 23:37:02 20 C 10.37 g/m*3 20 C 0 km/h
1150 06-08-2006 23:47:02 19.9 C 10.48 g/m*3 19.9 C 0 km/h
Sensor: Nr:Datum:Temp:Abs-Feuchte:Windchill:Wind:
Aussen-T/F 1151 06-08-2006 23:57:02 19.9 C 10.48 g/m*3 19.9 C 0 km/h
1152 07-08-2006 00:07:02 19.9 C 10.65 g/m*3 19.9 C 0 km/h
1153 07-08-2006 00:17:03 19.9 C 10.48 g/m*3 19.9 C 0 km/h
1154 07-08-2006 00:27:03 19.8 C 10.42 g/m*3 19.8 C 0 km/h
1155 07-08-2006 00:37:02 19.7 C 10.19 g/m*3 19.7 C 0 km/h
1156 07-08-2006 00:47:02 19.6 C 10.3 g/m*3 19.6 C 0 km/h
1157 07-08-2006 00:57:03 19.5 C 10.24 g/m*3 19.5 C 0 km/h
1158 07-08-2006 01:07:02 19.3 C 10.28 g/m*3 19.3 C 0 km/h
1159 07-08-2006 01:17:02 19.1 C 10.16 g/m*3 19.1 C 0 km/h
1160 07-08-2006 01:27:02 18.8 C 10.31 g/m*3 18.8 C 0 km/h
1161 07-08-2006 01:37:02 18.7 C 10.25 g/m*3 18.7 C 0 km/h
1162 07-08-2006 01:47:02 18.6 C 10.35 g/m*3 18.6 C 0 km/h
1163 07-08-2006 01:57:02 18.4 C 10.22 g/m*3 18.4 C 0 km/h
1164 07-08-2006 02:07:02 18.3 C 10.32 g/m*3 18.3 C 0 km/h
1165 07-08-2006 02:17:02 18.3 C 10.32 g/m*3 18.3 C 0 km/h
1166 07-08-2006 02:27:02 18.2 C 10.26 g/m*3 18.2 C 0 km/h
1167 07-08-2006 02:37:02 18.1 C 10.35 g/m*3 18.1 C 0 km/h
1168 07-08-2006 02:48:03 17.8 C 10.47 g/m*3 17.8 C 0 km/h
1169 07-08-2006 02:58:03 17.8 C 10.47 g/m*3 17.8 C 0 km/h
1170 07-08-2006 03:08:03 17.6 C 10.35 g/m*3 17.6 C 0 km/h
1171 07-08-2006 03:18:03 17.5 C 10.44 g/m*3 17.5 C 0 km/h
1172 07-08-2006 03:28:03 17.5 C 10.44 g/m*3 17.5 C 0 km/h
1173 07-08-2006 03:38:02 17.3 C 10.46 g/m*3 17.3 C 0 km/h
1174 07-08-2006 03:48:02 17.2 C 10.54 g/m*3 17.2 C 0 km/h
1175 07-08-2006 03:58:02 17 C 10.42 g/m*3 17 C 0 km/h
Sensor: Nr:Datum:Temp:Abs-Feuchte:Windchill:Wind:
Aussen-T/F 1176 07-08-2006 04:08:02 17 C 10.56 g/m*3 17 C 0 km/h
1177 07-08-2006 04:18:02 16.8 C 10.72 g/m*3 16.8 C 0 km/h
1178 07-08-2006 04:28:02 16.8 C 10.72 g/m*3 16.8 C 0 km/h
1179 07-08-2006 04:38:02 16.7 C 10.66 g/m*3 16.7 C 0 km/h
1180 07-08-2006 04:48:02 16.6 C 10.74 g/m*3 16.6 C 0 km/h
1181 07-08-2006 04:58:02 16.5 C 10.67 g/m*3 16.5 C 0 km/h
1182 07-08-2006 05:08:01 16.4 C 10.75 g/m*3 16.4 C 0 km/h
1183 07-08-2006 05:18:02 16.2 C 10.62 g/m*3 16.2 C 0 km/h
1184 07-08-2006 05:28:02 16.1 C 10.69 g/m*3 16.1 C 0 km/h
1185 07-08-2006 05:38:02 15.9 C 10.7 g/m*3 15.9 C 0 km/h
1186 07-08-2006 05:48:02 15.8 C 10.63 g/m*3 15.8 C 0 km/h
1187 07-08-2006 05:58:02 15.8 C 10.77 g/m*3 15.8 C 0 km/h
1188 07-08-2006 06:08:02 15.6 C 10.64 g/m*3 15.6 C 0 km/h
1189 07-08-2006 06:18:02 15.7 C 10.84 g/m*3 15.7 C 0 km/h
1190 07-08-2006 06:28:02 15.5 C 10.71 g/m*3 15.5 C 0 km/h
1191 07-08-2006 06:38:02 15.4 C 10.64 g/m*3 15.4 C 0 km/h
1192 07-08-2006 06:48:03 15.3 C 10.71 g/m*3 15.3 C 0 km/h
1193 07-08-2006 06:58:03 15.4 C 10.77 g/m*3 15.4 C 0 km/h
1194 07-08-2006 07:08:03 15.5 C 10.84 g/m*3 15.5 C 0 km/h
1195 07-08-2006 07:18:02 15.6 C 11.04 g/m*3 15.6 C 0 km/h
1196 07-08-2006 07:28:02 15.6 C 11.04 g/m*3 15.6 C 0 km/h
1197 07-08-2006 07:38:02 15.7 C 11.11 g/m*3 15.7 C 0 km/h
1198 07-08-2006 07:48:01 16.3 C 11.38 g/m*3 16.3 C 0 km/h
1199 07-08-2006 07:58:01 16.6 C 11.44 g/m*3 16.6 C 0 km/h
1200 07-08-2006 08:08:02 16.9 C 11.51 g/m*3 16.9 C 0 km/h
Sensor: Nr:Datum:Temp:Abs-Feuchte:Windchill:Wind:
Aussen-T/F 1201 07-08-2006 08:18:02 17.2 C 11.28 g/m*3 17.2 C 0 km/h
1202 07-08-2006 08:28:02 17.7 C 11.32 g/m*3 17.7 C 0 km/h
1203 07-08-2006 08:38:01 18.1 C 10.82 g/m*3 18.1 C 0 km/h
1204 07-08-2006 08:48:02 17.9 C 10.84 g/m*3 17.9 C 0 km/h
1205 07-08-2006 08:58:02 18.2 C 10.72 g/m*3 18.2 C 0 km/h
1206 07-08-2006 09:08:02 18.2 C 10.57 g/m*3 18.2 C 0 km/h
1207 07-08-2006 09:18:02 18.7 C 10.41 g/m*3 18.7 C 0 km/h
1208 07-08-2006 09:28:02 19.4 C 10.34 g/m*3 19.4 C 0 km/h
1209 07-08-2006 09:38:01 19.7 C 10.19 g/m*3 19.7 C 0 km/h
1210 07-08-2006 09:48:02 19.4 C 10.01 g/m*3 19.4 C 0 km/h
1211 07-08-2006 09:58:02 19.9 C 10.14 g/m*3 19.9 C 0 km/h
1212 07-08-2006 10:08:02 20.3 C 10.02 g/m*3 20.3 C 0 km/h
1213 07-08-2006 10:18:03 19.8 C 9.91 g/m*3 19.8 C 0 km/h
1214 07-08-2006 10:28:03 20.5 C 9.79 g/m*3 20.5 C 0 km/h
1215 07-08-2006 10:38:03 20.1 C 9.56 g/m*3 20.1 C 0 km/h
1216 07-08-2006 10:48:02 20.1 C 9.21 g/m*3 20.1 C 0 km/h
1217 07-08-2006 10:58:02 20 C 9.51 g/m*3 20 C 0 km/h
1218 07-08-2006 11:08:02 20.7 C 9.72 g/m*3 20.7 C 0 km/h
1219 07-08-2006 11:18:03 20.7 C 9.72 g/m*3 20.7 C 0 km/h
1220 07-08-2006 11:28:03 20.9 C 9.47 g/m*3 20.9 C 0 km/h
1221 07-08-2006 11:38:02 21.6 C 9.29 g/m*3 21.6 C 0 km/h
1222 07-08-2006 11:48:02 22.2 C 9.03 g/m*3 22.2 C 0 km/h
1223 07-08-2006 11:58:02 22.1 C 8.98 g/m*3 22.1 C 0 km/h
1224 07-08-2006 12:08:03 22.4 C 8.74 g/m*3 22.4 C 0 km/h
1225 07-08-2006 12:18:02 22.8 C 8.94 g/m*3 22.8 C 0 km/h
Sensor: Nr:Datum:Temp:Abs-Feuchte:Windchill:Wind:
Aussen-T/F 1226 07-08-2006 12:28:02 22.7 C 8.49 g/m*3 22.7 C 0 km/h
1227 07-08-2006 12:38:02 23.5 C 8.46 g/m*3 23.5 C 0 km/h
1228 07-08-2006 12:48:01 23.8 C 8.17 g/m*3 23.8 C 0 km/h
1229 07-08-2006 12:58:01 24.3 C 7.75 g/m*3 24.3 C 0 km/h
1230 07-08-2006 13:08:03 24.1 C 7.66 g/m*3 24.1 C 0 km/h
1231 07-08-2006 13:18:02 24.1 C 7.22 g/m*3 24.1 C 0 km/h
1232 07-08-2006 13:28:02 25.2 C 6.98 g/m*3 25.2 C 0 km/h
1233 07-08-2006 13:38:02 25.8 C 6.74 g/m*3 25.8 C 0 km/h
1234 07-08-2006 13:48:02 25.6 C 6.43 g/m*3 25.6 C 0 km/h
1235 07-08-2006 13:58:03 25.6 C 6.19 g/m*3 25.6 C 0 km/h
1236 07-08-2006 14:08:02 25.8 C 6.5 g/m*3 25.8 C 0 km/h
1237 07-08-2006 14:18:02 25.3 C 6.09 g/m*3 25.3 C 0 km/h
1238 07-08-2006 14:28:02 26 C 6.57 g/m*3 26 C 0 km/h
1239 07-08-2006 14:38:02 26.4 C 6.22 g/m*3 26.4 C 0 km/h
1240 07-08-2006 14:48:02 27.1 C 5.43 g/m*3 27.1 C 0 km/h
1241 07-08-2006 14:58:02 26.7 C 5.57 g/m*3 26.7 C 0 km/h
1242 07-08-2006 15:08:02 27.7 C 5.88 g/m*3 27.7 C 0 km/h
1243 07-08-2006 15:18:02 27.8 C 5.92 g/m*3 27.8 C 0 km/h
1244 07-08-2006 15:28:02 28.8 C 5.68 g/m*3 28.8 C 0 km/h
1245 07-08-2006 15:38:02 29.2 C 6.1 g/m*3 29.2 C 0 km/h
1246 07-08-2006 15:48:02 29.3 C 6.42 g/m*3 29.3 C 0 km/h
1247 07-08-2006 15:58:02 29.9 C 6.03 g/m*3 29.9 C 0 km/h
1248 07-08-2006 16:08:01 28.1 C 6.29 g/m*3 28.1 C 0 km/h
1249 07-08-2006 16:18:02 28.9 C 6.86 g/m*3 28.9 C 0 km/h
1250 07-08-2006 16:28:02 30 C 6.37 g/m*3 30 C 0 km/h
Sensor: Nr:Datum:Temp:Abs-Feuchte:Windchill:Wind:
Aussen-T/F 1251 07-08-2006 16:38:02 30.1 C 6.71 g/m*3 30.1 C 0 km/h
1252 07-08-2006 16:48:03 29.9 C 6.64 g/m*3 29.9 C 0 km/h
1253 07-08-2006 16:58:03 30.3 C 6.47 g/m*3 30.3 C 0 km/h
1254 07-08-2006 17:08:03 29.2 C 6.39 g/m*3 29.2 C 0 km/h
1255 07-08-2006 17:18:03 29.4 C 6.75 g/m*3 29.4 C 0 km/h
1256 07-08-2006 17:28:03 29.3 C 6.42 g/m*3 29.3 C 0 km/h
1257 07-08-2006 17:38:03 29.4 C 5.87 g/m*3 29.4 C 0 km/h
1258 07-08-2006 17:48:02 29 C 6.32 g/m*3 29 C 0 km/h
1259 07-08-2006 17:58:02 29.6 C 6.23 g/m*3 29.6 C 0 km/h
1260 07-08-2006 18:08:02 29.8 C 6.6 g/m*3 29.8 C 0 km/h
1261 07-08-2006 18:18:02 29.1 C 6.35 g/m*3 29.1 C 0 km/h
1262 07-08-2006 18:28:02 29.2 C 6.1 g/m*3 29.2 C 0 km/h
1263 07-08-2006 18:38:02 29.6 C 6.53 g/m*3 29.6 C 0 km/h
1264 07-08-2006 18:48:02 29.6 C 6.23 g/m*3 29.6 C 0 km/h
1265 07-08-2006 18:58:02 28.7 C 5.93 g/m*3 28.7 C 0 km/h
1266 07-08-2006 19:08:02 27.9 C 5.95 g/m*3 27.9 C 0 km/h
1267 07-08-2006 19:18:02 28 C 6.53 g/m*3 28 C 0 km/h
1268 07-08-2006 19:28:02 27.7 C 7.49 g/m*3 27.7 C 0 km/h
1269 07-08-2006 19:38:02 27 C 7.98 g/m*3 27 C 0 km/h
1270 07-08-2006 19:48:03 25.8 C 8.67 g/m*3 25.8 C 0 km/h
1271 07-08-2006 19:58:03 25.7 C 8.86 g/m*3 25.7 C 0 km/h
1272 07-08-2006 20:08:02 25.4 C 8.95 g/m*3 25.4 C 0 km/h
1273 07-08-2006 20:18:02 25.3 C 9.13 g/m*3 25.3 C 0 km/h
1274 07-08-2006 20:28:02 24.8 C 9.33 g/m*3 24.8 C 0 km/h
1275 07-08-2006 20:38:03 24.2 C 9.68 g/m*3 24.2 C 0 km/h
Sensor: Nr:Datum:Temp:Abs-Feuchte:Windchill:Wind:
Aussen-T/F 1276 07-08-2006 20:48:02 24.1 C 9.63 g/m*3 24.1 C 0 km/h
1277 07-08-2006 20:58:02 24.1 C 9.85 g/m*3 24.1 C 0 km/h
1278 07-08-2006 21:08:02 23.6 C 10.21 g/m*3 23.6 C 0 km/h
1279 07-08-2006 21:18:01 23.5 C 10.36 g/m*3 23.5 C 0 km/h
1280 07-08-2006 21:28:01 23 C 10.48 g/m*3 23 C 0 km/h
1281 07-08-2006 21:38:01 22.8 C 10.77 g/m*3 22.8 C 0 km/h
1282 07-08-2006 21:48:02 22.6 C 10.85 g/m*3 22.6 C 0 km/h
1283 07-08-2006 21:58:02 22.3 C 11.26 g/m*3 22.3 C 0 km/h
1284 07-08-2006 22:08:02 22 C 11.26 g/m*3 22 C 0 km/h
1285 07-08-2006 22:18:02 21.8 C 11.51 g/m*3 21.8 C 0 km/h
1286 07-08-2006 22:28:02 21.8 C 11.7 g/m*3 21.8 C 0 km/h
1287 07-08-2006 22:38:02 21.7 C 11.64 g/m*3 21.7 C 0 km/h
1288 07-08-2006 22:48:02 21.8 C 11.9 g/m*3 21.8 C 0 km/h
1289 07-08-2006 22:58:02 21.9 C 11.96 g/m*3 21.9 C 0 km/h
1290 07-08-2006 23:08:03 21.9 C 12.16 g/m*3 21.9 C 0 km/h
1291 07-08-2006 23:18:02 22 C 12.03 g/m*3 22 C 0 km/h
1292 07-08-2006 23:28:02 22 C 12.03 g/m*3 22 C 0 km/h
1293 07-08-2006 23:38:02 21.7 C 12.21 g/m*3 21.7 C 0 km/h
1294 07-08-2006 23:48:02 21.8 C 12.47 g/m*3 21.8 C 0 km/h
1295 07-08-2006 23:58:02 21.7 C 12.4 g/m*3 21.7 C 0 km/h
1296 08-08-2006 00:08:02 21.4 C 12.37 g/m*3 21.4 C 0 km/h
1297 08-08-2006 00:18:04 21.2 C 12.6 g/m*3 21.2 C 0 km/h
1298 08-08-2006 00:28:04 21.3 C 12.86 g/m*3 21.3 C 0 km/h
1299 08-08-2006 00:38:02 21.3 C 12.86 g/m*3 21.3 C 0 km/h
1300 08-08-2006 00:48:02 21.3 C 12.86 g/m*3 21.3 C 0 km/h
Sensor: Nr:Datum:Temp:Abs-Feuchte:Windchill:Wind:
Aussen-T/F 1301 08-08-2006 00:58:02 21.5 C 12.82 g/m*3 21.5 C 0 km/h
1302 08-08-2006 01:08:01 21.3 C 12.86 g/m*3 21.3 C 0 km/h
1303 08-08-2006 01:18:02 21.1 C 12.71 g/m*3 21.1 C 0 km/h
1304 08-08-2006 01:28:02 20.9 C 12.93 g/m*3 20.9 C 0 km/h
1305 08-08-2006 01:38:02 20.6 C 12.89 g/m*3 20.6 C 0 km/h
1306 08-08-2006 01:48:03 20.8 C 13.04 g/m*3 20.8 C 0 km/h
1307 08-08-2006 01:58:03 20.7 C 12.78 g/m*3 20.7 C 0 km/h
1308 08-08-2006 02:08:02 20.4 C 12.91 g/m*3 20.4 C 0 km/h
1309 08-08-2006 02:18:03 20.4 C 12.91 g/m*3 20.4 C 0 km/h
1310 08-08-2006 02:28:03 20.3 C 12.84 g/m*3 20.3 C 0 km/h
1311 08-08-2006 02:38:03 20.2 C 12.94 g/m*3 20.2 C 0 km/h
1312 08-08-2006 02:49:04 20.2 C 12.94 g/m*3 20.2 C 0 km/h
1313 08-08-2006 02:59:05 20.1 C 12.86 g/m*3 20.1 C 0 km/h
1314 08-08-2006 03:09:05 20.1 C 12.86 g/m*3 20.1 C 0 km/h
1315 08-08-2006 03:19:03 19.9 C 13.23 g/m*3 19.9 C 0 km/h
1316 08-08-2006 03:29:03 19.6 C 13.51 g/m*3 19.6 C 0 km/h
1317 08-08-2006 03:39:02 19.5 C 13.59 g/m*3 19.5 C 0 km/h
1318 08-08-2006 03:49:02 19.3 C 13.6 g/m*3 19.3 C 0 km/h
1319 08-08-2006 03:59:02 19.3 C 13.6 g/m*3 19.3 C 0 km/h
1320 08-08-2006 04:09:02 19.3 C 13.27 g/m*3 19.3 C 0 km/h
1321 08-08-2006 04:19:02 19.3 C 13.1 g/m*3 19.3 C 0 km/h
1322 08-08-2006 04:29:02 19.4 C 13.18 g/m*3 19.4 C 0 km/h
1323 08-08-2006 04:39:01 19.5 C 13.09 g/m*3 19.5 C 0 km/h
1324 08-08-2006 04:49:02 19.4 C 12.85 g/m*3 19.4 C 0 km/h
1325 08-08-2006 04:59:02 18.9 C 12.8 g/m*3 18.9 C 0 km/h
Sensor: Nr:Datum:Temp:Abs-Feuchte:Windchill:Wind:
Aussen-T/F 1326 08-08-2006 05:09:02 18.9 C 12.8 g/m*3 18.9 C 0 km/h
1327 08-08-2006 05:19:02 18.9 C 12.8 g/m*3 18.9 C 0 km/h
1328 08-08-2006 05:29:02 18.4 C 12.74 g/m*3 18.4 C 0 km/h
1329 08-08-2006 05:39:03 17.7 C 12.82 g/m*3 17.7 C 0 km/h
1330 08-08-2006 05:49:02 17.1 C 12.66 g/m*3 17.1 C 0 km/h
1331 08-08-2006 05:59:02 17 C 12.73 g/m*3 17 C 0 km/h
1332 08-08-2006 06:09:03 16.9 C 12.94 g/m*3 16.9 C 0 km/h
1333 08-08-2006 06:19:03 16.8 C 12.87 g/m*3 16.8 C 0 km/h
1334 08-08-2006 06:29:03 17 C 12.88 g/m*3 17 C 0 km/h
1335 08-08-2006 06:39:02 17.1 C 12.66 g/m*3 17.1 C 0 km/h
1336 08-08-2006 06:49:02 16.8 C 12.44 g/m*3 16.8 C 0 km/h
1337 08-08-2006 06:59:02 16.8 C 12.58 g/m*3 16.8 C 0 km/h
1338 08-08-2006 07:09:03 16.5 C 12.5 g/m*3 16.5 C 0 km/h
1339 08-08-2006 07:19:02 16.4 C 12.42 g/m*3 16.4 C 0 km/h
1340 08-08-2006 07:29:02 16.2 C 12.27 g/m*3 16.2 C 0 km/h
1341 08-08-2006 07:39:02 16.2 C 12.27 g/m*3 16.2 C 0 km/h
1342 08-08-2006 07:49:02 16.1 C 12.34 g/m*3 16.1 C 0 km/h
1343 08-08-2006 07:59:02 16.2 C 12.14 g/m*3 16.2 C 0 km/h
1344 08-08-2006 08:09:02 16.2 C 11.86 g/m*3 16.2 C 0 km/h
1345 08-08-2006 08:19:02 16.3 C 11.65 g/m*3 16.3 C 0 km/h
1346 08-08-2006 08:29:02 16.4 C 11.17 g/m*3 16.4 C 0 km/h
1347 08-08-2006 08:39:02 16.8 C 11.29 g/m*3 16.8 C 0 km/h
1348 08-08-2006 08:49:02 16.9 C 11.08 g/m*3 16.9 C 0 km/h
1349 08-08-2006 08:59:02 16.8 C 10.87 g/m*3 16.8 C 0 km/h
1350 08-08-2006 09:09:02 17 C 10.85 g/m*3 17 C 0 km/h
Sensor: Nr:Datum:Temp:Abs-Feuchte:Windchill:Wind:
Aussen-T/F 1351 08-08-2006 09:19:02 17.5 C 10.88 g/m*3 17.5 C 0 km/h
1352 08-08-2006 09:29:02 17.4 C 10.37 g/m*3 17.4 C 0 km/h
1353 08-08-2006 09:39:02 17.5 C 10.59 g/m*3 17.5 C 0 km/h
1354 08-08-2006 09:49:02 17.6 C 10.05 g/m*3 17.6 C 0 km/h
1355 08-08-2006 09:59:02 17.4 C 9.63 g/m*3 17.4 C 0 km/h
1356 08-08-2006 10:09:02 17.7 C 9.51 g/m*3 17.7 C 0 km/h
1357 08-08-2006 10:19:02 17.9 C 9.77 g/m*3 17.9 C 0 km/h
1358 08-08-2006 10:29:02 18.1 C 9.12 g/m*3 18.1 C 0 km/h
1359 08-08-2006 10:39:02 18.7 C 8.81 g/m*3 18.7 C 0 km/h
1360 08-08-2006 10:49:02 19.1 C 8.69 g/m*3 19.1 C 0 km/h
1361 08-08-2006 10:59:02 18.7 C 8.49 g/m*3 18.7 C 0 km/h
1362 08-08-2006 11:09:02 18.7 C 8.49 g/m*3 18.7 C 0 km/h
1363 08-08-2006 11:19:01 18.9 C 8.59 g/m*3 18.9 C 0 km/h
1364 08-08-2006 11:29:01 19.7 C 8.49 g/m*3 19.7 C 0 km/h
1365 08-08-2006 11:39:01 19.5 C 8.56 g/m*3 19.5 C 0 km/h
1366 08-08-2006 11:49:01 19.7 C 8.32 g/m*3 19.7 C 0 km/h
1367 08-08-2006 11:59:01 20.7 C 8.64 g/m*3 20.7 C 0 km/h
1368 08-08-2006 12:09:02 21.1 C 8.29 g/m*3 21.1 C 0 km/h
1369 08-08-2006 12:19:02 22.4 C 8.14 g/m*3 22.4 C 0 km/h
1370 08-08-2006 12:29:02 22.1 C 7.81 g/m*3 22.1 C 0 km/h
1371 08-08-2006 12:39:02 22.5 C 7.99 g/m*3 22.5 C 0 km/h
1372 08-08-2006 12:49:02 21.5 C 7.35 g/m*3 21.5 C 0 km/h
1373 08-08-2006 12:59:02 20.5 C 7.3 g/m*3 20.5 C 0 km/h
1374 08-08-2006 13:09:02 22 C 7.38 g/m*3 22 C 0 km/h
1375 08-08-2006 13:19:02 22.6 C 6.63 g/m*3 22.6 C 0 km/h
Sensor: Nr:Datum:Temp:Abs-Feuchte:Windchill:Wind:
Aussen-T/F 1376 08-08-2006 13:29:02 22 C 6.79 g/m*3 22 C 0 km/h
1377 08-08-2006 13:39:01 21.7 C 7.06 g/m*3 21.7 C 0 km/h
1378 08-08-2006 13:49:02 22.5 C 6.59 g/m*3 22.5 C 0 km/h
1379 08-08-2006 13:59:02 23.5 C 6.34 g/m*3 23.5 C 0 km/h
1380 08-08-2006 14:09:02 23.7 C 6.42 g/m*3 23.7 C 0 km/h
1381 08-08-2006 14:19:02 23.7 C 6.84 g/m*3 23.7 C 0 km/h
1382 08-08-2006 14:29:02 23.9 C 6.71 g/m*3 23.9 C 0 km/h
1383 08-08-2006 14:39:02 22.9 C 6.95 g/m*3 22.9 C 0 km/h
1384 08-08-2006 14:49:02 22.9 C 6.74 g/m*3 22.9 C 0 km/h
1385 08-08-2006 14:59:02 22.6 C 6.43 g/m*3 22.6 C 0 km/h
1386 08-08-2006 15:09:03 22.8 C 6.5 g/m*3 22.8 C 0 km/h
1387 08-08-2006 15:19:03 22.3 C 6.91 g/m*3 22.3 C 0 km/h
1388 08-08-2006 15:29:03 22.1 C 6.83 g/m*3 22.1 C 0 km/h
1389 08-08-2006 15:39:03 22.1 C 6.44 g/m*3 22.1 C 0 km/h
1390 08-08-2006 15:49:03 22.9 C 6.74 g/m*3 22.9 C 0 km/h
1391 08-08-2006 15:59:03 23.3 C 6.48 g/m*3 23.3 C 0 km/h
1392 08-08-2006 16:09:03 24.6 C 6.75 g/m*3 24.6 C 0 km/h
1393 08-08-2006 16:19:02 25.7 C 6.22 g/m*3 25.7 C 0 km/h
1394 08-08-2006 16:29:02 24.9 C 6.64 g/m*3 24.9 C 0 km/h
1395 08-08-2006 16:39:02 23 C 6.17 g/m*3 23 C 0 km/h
1396 08-08-2006 16:49:02 22.7 C 6.87 g/m*3 22.7 C 0 km/h
1397 08-08-2006 16:59:02 21.6 C 6.83 g/m*3 21.6 C 0 km/h
1398 08-08-2006 17:09:02 21.4 C 6.75 g/m*3 21.4 C 0 km/h
1399 08-08-2006 17:19:02 21.4 C 6.94 g/m*3 21.4 C 0 km/h
1400 08-08-2006 17:29:02 21.6 C 7.02 g/m*3 21.6 C 0 km/h
Sensor: Nr:Datum:Temp:Abs-Feuchte:Windchill:Wind:
Aussen-T/F 1401 08-08-2006 17:39:02 21.6 C 6.83 g/m*3 21.6 C 0 km/h
1402 08-08-2006 17:49:02 22.2 C 6.68 g/m*3 22.2 C 0 km/h
1403 08-08-2006 17:59:03 22.5 C 6.59 g/m*3 22.5 C 0 km/h
1404 08-08-2006 18:09:02 22.3 C 6.71 g/m*3 22.3 C 0 km/h
1405 08-08-2006 18:19:02 21.6 C 6.83 g/m*3 21.6 C 0 km/h
1406 08-08-2006 18:29:02 21.4 C 7.12 g/m*3 21.4 C 0 km/h
1407 08-08-2006 18:39:02 20.9 C 7.29 g/m*3 20.9 C 0 km/h
1408 08-08-2006 18:49:02 20.4 C 6.9 g/m*3 20.4 C 0 km/h
1409 08-08-2006 18:59:03 20.1 C 6.78 g/m*3 20.1 C 0 km/h
1410 08-08-2006 19:09:02 20 C 7.09 g/m*3 20 C 0 km/h
1411 08-08-2006 19:19:02 20 C 7.26 g/m*3 20 C 0 km/h
1412 08-08-2006 19:29:02 20.3 C 7.56 g/m*3 20.3 C 0 km/h
1413 08-08-2006 19:39:02 20.5 C 7.65 g/m*3 20.5 C 0 km/h
1414 08-08-2006 19:49:02 20.3 C 7.56 g/m*3 20.3 C 0 km/h
1415 08-08-2006 19:59:02 19.6 C 7.93 g/m*3 19.6 C 0 km/h
1416 08-08-2006 20:09:03 19.3 C 8.63 g/m*3 19.3 C 0 km/h
1417 08-08-2006 20:19:03 18.8 C 8.7 g/m*3 18.8 C 0 km/h
1418 08-08-2006 20:29:03 19.1 C 8.36 g/m*3 19.1 C 0 km/h
1419 08-08-2006 20:39:03 19.3 C 8.46 g/m*3 19.3 C 0 km/h
1420 08-08-2006 20:49:04 19.1 C 8.52 g/m*3 19.1 C 0 km/h
1421 08-08-2006 20:59:04 18.9 C 8.42 g/m*3 18.9 C 0 km/h
1422 08-08-2006 21:09:03 18.9 C 8.26 g/m*3 18.9 C 0 km/h
1423 08-08-2006 21:19:02 18.8 C 8.05 g/m*3 18.8 C 0 km/h
1424 08-08-2006 21:29:02 18.6 C 7.96 g/m*3 18.6 C 0 km/h
1425 08-08-2006 21:39:02 18.6 C 8.12 g/m*3 18.6 C 0 km/h
Sensor: Nr:Datum:Temp:Abs-Feuchte:Windchill:Wind:
Aussen-T/F 1426 08-08-2006 21:49:02 18.5 C 8.23 g/m*3 18.5 C 0 km/h
1427 08-08-2006 21:59:02 18.5 C 8.23 g/m*3 18.5 C 0 km/h
1428 08-08-2006 22:09:02 18.5 C 8.54 g/m*3 18.5 C 0 km/h
1429 08-08-2006 22:19:03 18.4 C 8.34 g/m*3 18.4 C 0 km/h
1430 08-08-2006 22:29:03 18.4 C 8.34 g/m*3 18.4 C 0 km/h
1431 08-08-2006 22:39:03 18.3 C 8.44 g/m*3 18.3 C 0 km/h
1432 08-08-2006 22:49:03 18.2 C 8.39 g/m*3 18.2 C 0 km/h
1433 08-08-2006 22:59:04 18.1 C 8.5 g/m*3 18.1 C 0 km/h
1434 08-08-2006 23:09:03 18.1 C 8.5 g/m*3 18.1 C 0 km/h
1435 08-08-2006 23:19:03 18 C 8.45 g/m*3 18 C 0 km/h
1436 08-08-2006 23:29:03 17.9 C 8.55 g/m*3 17.9 C 0 km/h
1437 08-08-2006 23:39:03 18 C 8.45 g/m*3 18 C 0 km/h
1438 08-08-2006 23:49:02 17.7 C 8.45 g/m*3 17.7 C 0 km/h
1439 08-08-2006 23:59:02 17.7 C 8.6 g/m*3 17.7 C 0 km/h
1440 09-08-2006 00:09:03 17.7 C 8.6 g/m*3 17.7 C 0 km/h
1441 09-08-2006 00:19:04 17.6 C 8.55 g/m*3 17.6 C 0 km/h
1442 09-08-2006 00:29:05 17.5 C 8.8 g/m*3 17.5 C 0 km/h
1443 09-08-2006 00:39:04 17.4 C 8.74 g/m*3 17.4 C 0 km/h
1444 09-08-2006 00:49:02 17.3 C 8.84 g/m*3 17.3 C 0 km/h
1445 09-08-2006 00:59:02 17.3 C 8.84 g/m*3 17.3 C 0 km/h
1446 09-08-2006 01:09:01 17.3 C 8.99 g/m*3 17.3 C 0 km/h
1447 09-08-2006 01:19:02 17.3 C 8.99 g/m*3 17.3 C 0 km/h
1448 09-08-2006 01:29:02 17.2 C 9.08 g/m*3 17.2 C 0 km/h
1449 09-08-2006 01:39:02 17.1 C 9.03 g/m*3 17.1 C 0 km/h
1450 09-08-2006 01:49:02 17 C 9.12 g/m*3 17 C 0 km/h
Sensor: Nr:Datum:Temp:Abs-Feuchte:Windchill:Wind:
Aussen-T/F 1451 09-08-2006 01:59:02 16.9 C 9.35 g/m*3 16.9 C 0 km/h
1452 09-08-2006 02:09:03 16.9 C 9.35 g/m*3 16.9 C 0 km/h
1453 09-08-2006 02:19:02 16.8 C 9.44 g/m*3 16.8 C 0 km/h
1454 09-08-2006 02:29:02 16.8 C 9.29 g/m*3 16.8 C 0 km/h
1455 09-08-2006 02:39:02 16.7 C 9.38 g/m*3 16.7 C 0 km/h
1456 09-08-2006 02:50:03 16.6 C 9.32 g/m*3 16.6 C 0 km/h
1457 09-08-2006 03:00:03 16.6 C 9.46 g/m*3 16.6 C 0 km/h
1458 09-08-2006 03:10:03 16.6 C 9.32 g/m*3 16.6 C 0 km/h
1459 09-08-2006 03:20:03 16.5 C 9.41 g/m*3 16.5 C 0 km/h
1460 09-08-2006 03:30:03 16.4 C 9.35 g/m*3 16.4 C 0 km/h
1461 09-08-2006 03:40:03 16.2 C 9.38 g/m*3 16.2 C 0 km/h
1462 09-08-2006 03:50:03 16.1 C 9.32 g/m*3 16.1 C 0 km/h
1463 09-08-2006 04:00:03 16 C 9.4 g/m*3 16 C 0 km/h
1464 09-08-2006 04:10:03 15.9 C 9.62 g/m*3 15.9 C 0 km/h
1465 09-08-2006 04:20:03 15.9 C 9.62 g/m*3 15.9 C 0 km/h
1466 09-08-2006 04:30:03 15.7 C 9.63 g/m*3 15.7 C 0 km/h
1467 09-08-2006 04:40:03 15.3 C 9.53 g/m*3 15.3 C 0 km/h
1468 09-08-2006 04:50:02 15 C 9.49 g/m*3 15 C 0 km/h
1469 09-08-2006 05:00:02 14.9 C 9.56 g/m*3 14.9 C 0 km/h
1470 09-08-2006 05:10:02 14.8 C 9.75 g/m*3 14.8 C 0 km/h
1471 09-08-2006 05:20:02 14.5 C 9.7 g/m*3 14.5 C 0 km/h
1472 09-08-2006 05:30:02 14.3 C 9.58 g/m*3 14.3 C 0 km/h
1473 09-08-2006 05:40:03 14.7 C 9.95 g/m*3 14.7 C 0 km/h
1474 09-08-2006 05:50:03 14.7 C 9.95 g/m*3 14.7 C 0 km/h
1475 09-08-2006 06:00:03 14.7 C 9.95 g/m*3 14.7 C 0 km/h
Sensor: Nr:Datum:Temp:Abs-Feuchte:Windchill:Wind:
Aussen-T/F 1476 09-08-2006 06:10:03 14.4 C 9.64 g/m*3 14.4 C 0 km/h
1477 09-08-2006 06:20:02 14.3 C 9.58 g/m*3 14.3 C 0 km/h
1478 09-08-2006 06:30:02 14 C 9.53 g/m*3 14 C 0 km/h
1479 09-08-2006 06:40:02 14 C 9.65 g/m*3 14 C 0 km/h
1480 09-08-2006 06:50:02 14 C 9.77 g/m*3 14 C 0 km/h
1481 09-08-2006 07:00:02 14.4 C 10.01 g/m*3 14.4 C 0 km/h
1482 09-08-2006 07:10:04 14.7 C 10.07 g/m*3 14.7 C 0 km/h
1483 09-08-2006 07:20:02 15 C 10.13 g/m*3 15 C 0 km/h
1484 09-08-2006 07:30:02 15.1 C 10.06 g/m*3 15.1 C 0 km/h
1485 09-08-2006 07:40:02 15.3 C 10.06 g/m*3 15.3 C 0 km/h
1486 09-08-2006 07:50:02 15.6 C 10.24 g/m*3 15.6 C 0 km/h
1487 09-08-2006 08:00:02 15.9 C 10.29 g/m*3 15.9 C 0 km/h
1488 09-08-2006 08:10:02 16.4 C 10.19 g/m*3 16.4 C 0 km/h
1489 09-08-2006 08:20:02 16.8 C 10.01 g/m*3 16.8 C 0 km/h
1490 09-08-2006 08:30:02 17 C 9.84 g/m*3 17 C 0 km/h
1491 09-08-2006 08:40:02 17.1 C 9.9 g/m*3 17.1 C 0 km/h
1492 09-08-2006 08:50:02 17.4 C 9.93 g/m*3 17.4 C 0 km/h
1493 09-08-2006 09:00:02 17.7 C 9.96 g/m*3 17.7 C 0 km/h
1494 09-08-2006 09:10:02 17.6 C 9.45 g/m*3 17.6 C 0 km/h
1495 09-08-2006 09:20:02 17.2 C 9.37 g/m*3 17.2 C 0 km/h
1496 09-08-2006 09:30:02 17.5 C 9.69 g/m*3 17.5 C 0 km/h
1497 09-08-2006 09:40:02 17.6 C 9.45 g/m*3 17.6 C 0 km/h
1498 09-08-2006 09:50:02 17.7 C 9.51 g/m*3 17.7 C 0 km/h
1499 09-08-2006 10:00:02 18.3 C 9.38 g/m*3 18.3 C 0 km/h
1500 09-08-2006 10:10:02 19.1 C 9.18 g/m*3 19.1 C 0 km/h
Sensor: Nr:Datum:Temp:Abs-Feuchte:Windchill:Wind:
Aussen-T/F 1501 09-08-2006 10:20:02 19.7 C 9.34 g/m*3 19.7 C 0 km/h
1502 09-08-2006 10:30:02 18.7 C 8.49 g/m*3 18.7 C 0 km/h
1503 09-08-2006 10:40:01 19.5 C 8.56 g/m*3 19.5 C 0 km/h
1504 09-08-2006 10:50:02 19.8 C 8.54 g/m*3 19.8 C 0 km/h
1505 09-08-2006 11:00:02 20.4 C 8.49 g/m*3 20.4 C 0 km/h
1506 09-08-2006 11:10:02 20.5 C 8.54 g/m*3 20.5 C 0 km/h
1507 09-08-2006 11:20:02 21.3 C 8.39 g/m*3 21.3 C 0 km/h
1508 09-08-2006 11:30:02 21 C 7.51 g/m*3 21 C 0 km/h
1509 09-08-2006 11:40:01 21.8 C 7.87 g/m*3 21.8 C 0 km/h
1510 09-08-2006 11:50:02 21.4 C 7.5 g/m*3 21.4 C 0 km/h
1511 09-08-2006 12:00:02 21.4 C 7.69 g/m*3 21.4 C 0 km/h
1512 09-08-2006 12:10:02 22.1 C 7.61 g/m*3 22.1 C 0 km/h
1513 09-08-2006 12:20:02 21.8 C 7.67 g/m*3 21.8 C 0 km/h
1514 09-08-2006 12:30:02 21.8 C 7.67 g/m*3 21.8 C 0 km/h
1515 09-08-2006 12:40:01 21.8 C 7.29 g/m*3 21.8 C 0 km/h
1516 09-08-2006 12:50:02 22 C 7.57 g/m*3 22 C 0 km/h
1517 09-08-2006 13:00:02 22 C 7.18 g/m*3 22 C 0 km/h
1518 09-08-2006 13:10:02 22.1 C 7.22 g/m*3 22.1 C 0 km/h
1519 09-08-2006 13:20:02 21.8 C 7.29 g/m*3 21.8 C 0 km/h
1520 09-08-2006 13:30:02 22.1 C 7.22 g/m*3 22.1 C 0 km/h
1521 09-08-2006 13:40:01 22.5 C 7.39 g/m*3 22.5 C 0 km/h
1522 09-08-2006 13:50:02 23.6 C 7.02 g/m*3 23.6 C 0 km/h
1523 09-08-2006 14:00:02 23.9 C 7.14 g/m*3 23.9 C 0 km/h
1524 09-08-2006 14:10:02 24.6 C 7.43 g/m*3 24.6 C 0 km/h
1525 09-08-2006 14:20:02 26.3 C 6.68 g/m*3 26.3 C 0 km/h
Sensor: Nr:Datum:Temp:Abs-Feuchte:Windchill:Wind:
Aussen-T/F 1526 09-08-2006 14:30:02 27.4 C 6.58 g/m*3 27.4 C 0 km/h
1527 09-08-2006 14:40:01 24.5 C 6.04 g/m*3 24.5 C 0 km/h
1528 09-08-2006 14:50:02 23.4 C 6.31 g/m*3 23.4 C 0 km/h
1529 09-08-2006 15:00:02 24.3 C 6.64 g/m*3 24.3 C 0 km/h
1530 09-08-2006 15:10:02 26.4 C 6.72 g/m*3 26.4 C 0 km/h
1531 09-08-2006 15:20:02 27.4 C 6.05 g/m*3 27.4 C 0 km/h
1532 09-08-2006 15:30:02 25 C 5.75 g/m*3 25 C 0 km/h
1533 09-08-2006 15:40:01 26 C 5.36 g/m*3 26 C 0 km/h
1534 09-08-2006 15:50:02 26.9 C 5.63 g/m*3 26.9 C 0 km/h
1535 09-08-2006 16:00:02 25.6 C 5.48 g/m*3 25.6 C 0 km/h
1536 09-08-2006 16:10:02 25.9 C 5.08 g/m*3 25.9 C 0 km/h
1537 09-08-2006 16:20:01 26 C 5.36 g/m*3 26 C 0 km/h
1538 09-08-2006 16:30:01 27.8 C 5.65 g/m*3 27.8 C 0 km/h
1539 09-08-2006 16:40:02 27.1 C 5.18 g/m*3 27.1 C 0 km/h
1540 09-08-2006 16:50:02 25.1 C 4.86 g/m*3 25.1 C 0 km/h
1541 09-08-2006 17:00:02 25 C 5.06 g/m*3 25 C 0 km/h
1542 09-08-2006 17:10:02 24.5 C 4.92 g/m*3 24.5 C 0 km/h
1543 09-08-2006 17:20:02 25.1 C 5.09 g/m*3 25.1 C 0 km/h
1544 09-08-2006 17:30:02 24.9 C 5.04 g/m*3 24.9 C 0 km/h
1545 09-08-2006 17:40:01 24.1 C 5.03 g/m*3 24.1 C 0 km/h
1546 09-08-2006 17:50:02 23.8 C 5.38 g/m*3 23.8 C 0 km/h
1547 09-08-2006 18:00:02 23.3 C 5.44 g/m*3 23.3 C 0 km/h
1548 09-08-2006 18:10:02 23.1 C 5.79 g/m*3 23.1 C 0 km/h
1549 09-08-2006 18:20:02 22.9 C 6.13 g/m*3 22.9 C 0 km/h
1550 09-08-2006 18:30:02 22.5 C 6.19 g/m*3 22.5 C 0 km/h
Sensor: Nr:Datum:Temp:Abs-Feuchte:Windchill:Wind:
Aussen-T/F 1551 09-08-2006 18:40:03 22.4 C 6.16 g/m*3 22.4 C 0 km/h
1552 09-08-2006 18:50:03 22 C 6.4 g/m*3 22 C 0 km/h
1553 09-08-2006 19:00:03 21.7 C 7.06 g/m*3 21.7 C 0 km/h
1554 09-08-2006 19:10:03 21.2 C 7.6 g/m*3 21.2 C 0 km/h
1555 09-08-2006 19:20:02 20.6 C 8.05 g/m*3 20.6 C 0 km/h
1556 09-08-2006 19:30:02 20.6 C 8.23 g/m*3 20.6 C 0 km/h
1557 09-08-2006 19:40:02 20.4 C 8.31 g/m*3 20.4 C 0 km/h
1558 09-08-2006 19:50:02 19.4 C 9.18 g/m*3 19.4 C 0 km/h
1559 09-08-2006 20:00:02 19 C 9.45 g/m*3 19 C 0 km/h
1560 09-08-2006 20:10:02 18.8 C 10.15 g/m*3 18.8 C 0 km/h
1561 09-08-2006 20:20:01 18.4 C 10.07 g/m*3 18.4 C 0 km/h
1562 09-08-2006 20:30:01 17.7 C 10.41 g/m*3 17.7 C 0 km/h
1563 09-08-2006 20:40:02 17.6 C 11.7 g/m*3 17.6 C 0 km/h
1564 09-08-2006 20:50:02 17.2 C 11.86 g/m*3 17.2 C 0 km/h
1565 09-08-2006 21:00:02 16.8 C 11.72 g/m*3 16.8 C 0 km/h
1566 09-08-2006 21:10:02 17.1 C 11.94 g/m*3 17.1 C 0 km/h
1567 09-08-2006 21:20:02 17.1 C 11.79 g/m*3 17.1 C 0 km/h
1568 09-08-2006 21:30:02 16.9 C 11.65 g/m*3 16.9 C 0 km/h
1569 09-08-2006 21:40:02 16.8 C 11.72 g/m*3 16.8 C 0 km/h
1570 09-08-2006 21:50:02 16.5 C 11.65 g/m*3 16.5 C 0 km/h
1571 09-08-2006 22:00:02 16.4 C 11.72 g/m*3 16.4 C 0 km/h
1572 09-08-2006 22:10:03 16.3 C 11.79 g/m*3 16.3 C 0 km/h
1573 09-08-2006 22:20:02 16 C 11.58 g/m*3 16 C 0 km/h
1574 09-08-2006 22:30:02 16 C 11.72 g/m*3 16 C 0 km/h
1575 09-08-2006 22:40:02 15.8 C 11.71 g/m*3 15.8 C 0 km/h
Sensor: Nr:Datum:Temp:Abs-Feuchte:Windchill:Wind:
Aussen-T/F 1576 09-08-2006 22:50:02 15.4 C 11.56 g/m*3 15.4 C 0 km/h
1577 09-08-2006 23:00:02 15.5 C 11.63 g/m*3 15.5 C 0 km/h
1578 09-08-2006 23:10:02 15.4 C 11.69 g/m*3 15.4 C 0 km/h
1579 09-08-2006 23:20:02 15.4 C 11.69 g/m*3 15.4 C 0 km/h
1580 09-08-2006 23:30:02 15.4 C 11.69 g/m*3 15.4 C 0 km/h
1581 09-08-2006 23:40:02 15.4 C 11.69 g/m*3 15.4 C 0 km/h
1582 09-08-2006 23:50:02 15.5 C 11.9 g/m*3 15.5 C 0 km/h
1583 10-08-2006 00:00:02 15.6 C 11.97 g/m*3 15.6 C 0 km/h
1584 10-08-2006 00:10:02 15.7 C 12.04 g/m*3 15.7 C 0 km/h
1585 10-08-2006 00:20:03 15.8 C 12.11 g/m*3 15.8 C 0 km/h
1586 10-08-2006 00:30:03 15.6 C 11.97 g/m*3 15.6 C 0 km/h
1587 10-08-2006 00:40:03 15.5 C 11.9 g/m*3 15.5 C 0 km/h
1588 10-08-2006 00:50:02 15.4 C 11.82 g/m*3 15.4 C 0 km/h
1589 10-08-2006 01:00:02 15.6 C 11.97 g/m*3 15.6 C 0 km/h
1590 10-08-2006 01:10:03 15.7 C 12.04 g/m*3 15.7 C 0 km/h
1591 10-08-2006 01:20:02 15.8 C 11.98 g/m*3 15.8 C 0 km/h
1592 10-08-2006 01:30:02 15.8 C 11.98 g/m*3 15.8 C 0 km/h
1593 10-08-2006 01:40:02 15.8 C 11.85 g/m*3 15.8 C 0 km/h
1594 10-08-2006 01:50:02 15.6 C 11.7 g/m*3 15.6 C 0 km/h
1595 10-08-2006 02:00:02 15.6 C 11.7 g/m*3 15.6 C 0 km/h
1596 10-08-2006 02:10:02 15.6 C 11.7 g/m*3 15.6 C 0 km/h
1597 10-08-2006 02:20:02 15.6 C 11.7 g/m*3 15.6 C 0 km/h
1598 10-08-2006 02:30:02 15.5 C 11.63 g/m*3 15.5 C 0 km/h
1599 10-08-2006 02:40:02 15.4 C 11.56 g/m*3 15.4 C 0 km/h
1600 10-08-2006 02:51:04 15.4 C 11.56 g/m*3 15.4 C 0 km/h
Sensor: Nr:Datum:Temp:Abs-Feuchte:Windchill:Wind:
Aussen-T/F 1601 10-08-2006 03:01:04 15.4 C 11.56 g/m*3 15.4 C 0 km/h
1602 10-08-2006 03:11:04 15.5 C 11.63 g/m*3 15.5 C 0 km/h
1603 10-08-2006 03:21:04 15.4 C 11.56 g/m*3 15.4 C 0 km/h
1604 10-08-2006 03:31:03 15.1 C 11.09 g/m*3 15.1 C 0 km/h
1605 10-08-2006 03:41:03 15 C 10.64 g/m*3 15 C 0 km/h
1606 10-08-2006 03:51:03 14.9 C 10.71 g/m*3 14.9 C 0 km/h
1607 10-08-2006 04:01:02 14.7 C 10.58 g/m*3 14.7 C 0 km/h
1608 10-08-2006 04:11:02 14.4 C 10.38 g/m*3 14.4 C 0 km/h
1609 10-08-2006 04:21:02 14.2 C 10.26 g/m*3 14.2 C 0 km/h
1610 10-08-2006 04:31:02 13.8 C 10.13 g/m*3 13.8 C 0 km/h
1611 10-08-2006 04:41:02 13.5 C 9.94 g/m*3 13.5 C 0 km/h
1612 10-08-2006 04:51:02 13.4 C 9.88 g/m*3 13.4 C 0 km/h
1613 10-08-2006 05:01:02 13.3 C 9.7 g/m*3 13.3 C 0 km/h
1614 10-08-2006 05:11:02 13.1 C 9.59 g/m*3 13.1 C 0 km/h
1615 10-08-2006 05:21:02 13 C 9.53 g/m*3 13 C 0 km/h
1616 10-08-2006 05:31:02 12.7 C 9.46 g/m*3 12.7 C 0 km/h
1617 10-08-2006 05:41:02 12.5 C 9.46 g/m*3 12.5 C 0 km/h
1618 10-08-2006 05:51:02 12.3 C 9.34 g/m*3 12.3 C 0 km/h
1619 10-08-2006 06:01:02 12.1 C 9.22 g/m*3 12.1 C 0 km/h
1620 10-08-2006 06:11:02 12 C 9.17 g/m*3 12 C 0 km/h
1621 10-08-2006 06:21:01 11.8 C 9.16 g/m*3 11.8 C 0 km/h
1622 10-08-2006 06:31:01 11.7 C 9.2 g/m*3 11.7 C 0 km/h
1623 10-08-2006 06:41:01 11.7 C 9.2 g/m*3 11.7 C 0 km/h
1624 10-08-2006 06:51:02 11.7 C 9.2 g/m*3 11.7 C 0 km/h
1625 10-08-2006 07:01:02 11.6 C 9.15 g/m*3 11.6 C 0 km/h
Sensor: Nr:Datum:Temp:Abs-Feuchte:Windchill:Wind:
Aussen-T/F 1626 10-08-2006 07:11:02 11.6 C 9.15 g/m*3 11.6 C 0 km/h
1627 10-08-2006 07:21:02 11.6 C 9.15 g/m*3 11.6 C 0 km/h
1628 10-08-2006 07:31:01 11.7 C 9.2 g/m*3 11.7 C 0 km/h
1629 10-08-2006 07:41:01 11.7 C 9.31 g/m*3 11.7 C 0 km/h
1630 10-08-2006 07:51:02 11.8 C 9.37 g/m*3 11.8 C 0 km/h
1631 10-08-2006 08:01:02 12 C 9.38 g/m*3 12 C 0 km/h
1632 10-08-2006 08:11:03 12 C 9.38 g/m*3 12 C 0 km/h
1633 10-08-2006 08:21:02 12.1 C 9.44 g/m*3 12.1 C 0 km/h
1634 10-08-2006 08:31:03 12.3 C 9.66 g/m*3 12.3 C 0 km/h
1635 10-08-2006 08:41:03 12.5 C 9.78 g/m*3 12.5 C 0 km/h
1636 10-08-2006 08:51:03 12.6 C 9.74 g/m*3 12.6 C 0 km/h
1637 10-08-2006 09:01:02 12.8 C 9.74 g/m*3 12.8 C 0 km/h
1638 10-08-2006 09:11:02 13 C 9.75 g/m*3 13 C 0 km/h
1639 10-08-2006 09:21:04 13.4 C 9.76 g/m*3 13.4 C 0 km/h
1640 10-08-2006 09:31:05 13.7 C 9.59 g/m*3 13.7 C 0 km/h
1641 10-08-2006 09:41:05 14.1 C 9.22 g/m*3 14.1 C 0 km/h
1642 10-08-2006 09:51:08 14.8 C 9.12 g/m*3 14.8 C 0 km/h
1643 10-08-2006 10:01:04 15.2 C 8.96 g/m*3 15.2 C 0 km/h
1644 10-08-2006 10:11:04 15.8 C 8.62 g/m*3 15.8 C 0 km/h
1645 10-08-2006 10:21:03 16 C 7.77 g/m*3 16 C 0 km/h
1646 10-08-2006 10:31:04 16.4 C 7.96 g/m*3 16.4 C 0 km/h
1647 10-08-2006 10:41:04 17.1 C 7.86 g/m*3 17.1 C 0 km/h
1648 10-08-2006 10:51:02 17.5 C 8.05 g/m*3 17.5 C 0 km/h
1649 10-08-2006 11:01:02 18 C 7.83 g/m*3 18 C 0 km/h
1650 10-08-2006 11:11:02 18.6 C 7.64 g/m*3 18.6 C 0 km/h
Sensor: Nr:Datum:Temp:Abs-Feuchte:Windchill:Wind:
Aussen-T/F 1651 10-08-2006 11:21:02 19.4 C 7.67 g/m*3 19.4 C 0 km/h
1652 10-08-2006 11:31:01 18.5 C 6.96 g/m*3 18.5 C 0 km/h
1653 10-08-2006 11:41:01 18.1 C 7.26 g/m*3 18.1 C 0 km/h
1654 10-08-2006 11:51:02 18.2 C 6.99 g/m*3 18.2 C 0 km/h
1655 10-08-2006 12:02:02 18.2 C 7.15 g/m*3 18.2 C 0 km/h
1656 10-08-2006 12:12:02 18.4 C 7.24 g/m*3 18.4 C 0 km/h
1657 10-08-2006 12:22:02 19.1 C 7.38 g/m*3 19.1 C 0 km/h
1658 10-08-2006 12:32:02 19.2 C 7.09 g/m*3 19.2 C 0 km/h
1659 10-08-2006 12:42:02 19.5 C 7.05 g/m*3 19.5 C 0 km/h
1660 10-08-2006 12:52:02 19.4 C 7.01 g/m*3 19.4 C 0 km/h
1661 10-08-2006 13:02:02 20.6 C 7.34 g/m*3 20.6 C 0 km/h
1662 10-08-2006 13:12:02 21.2 C 7.04 g/m*3 21.2 C 0 km/h
1663 10-08-2006 13:22:02 21.4 C 6.37 g/m*3 21.4 C 0 km/h
1664 10-08-2006 13:32:02 20.7 C 6.3 g/m*3 20.7 C 0 km/h
1665 10-08-2006 13:42:02 19.1 C 6.07 g/m*3 19.1 C 0 km/h
1666 10-08-2006 13:52:02 18.9 C 6.32 g/m*3 18.9 C 0 km/h
1667 10-08-2006 14:02:03 19.3 C 6.3 g/m*3 19.3 C 0 km/h
1668 10-08-2006 14:12:03 19.7 C 6.45 g/m*3 19.7 C 0 km/h
1669 10-08-2006 14:22:03 19.6 C 6.25 g/m*3 19.6 C 0 km/h
1670 10-08-2006 14:32:03 19.6 C 6.42 g/m*3 19.6 C 0 km/h
1671 10-08-2006 14:42:03 20 C 6.91 g/m*3 20 C 0 km/h
1672 10-08-2006 14:52:03 20.5 C 6.76 g/m*3 20.5 C 0 km/h
1673 10-08-2006 15:02:03 19.3 C 6.8 g/m*3 19.3 C 0 km/h
1674 10-08-2006 15:12:03 19.2 C 6.93 g/m*3 19.2 C 0 km/h
1675 10-08-2006 15:22:03 17.8 C 7.74 g/m*3 17.8 C 0 km/h
Sensor: Nr:Datum:Temp:Abs-Feuchte:Windchill:Wind:
Aussen-T/F 1676 10-08-2006 15:32:03 17.4 C 7.85 g/m*3 17.4 C 0 km/h
1677 10-08-2006 15:42:03 17.2 C 8.05 g/m*3 17.2 C 0 km/h
1678 10-08-2006 15:52:03 15.3 C 8.49 g/m*3 15.3 C 0 km/h
1679 10-08-2006 16:02:03 15.1 C 8.51 g/m*3 15.1 C 0 km/h
1680 10-08-2006 16:12:03 15.4 C 8.41 g/m*3 15.4 C 0 km/h
1681 10-08-2006 16:22:03 16.2 C 8.27 g/m*3 16.2 C 0 km/h
1682 10-08-2006 16:32:03 17 C 7.96 g/m*3 17 C 0 km/h
1683 10-08-2006 16:42:03 17.4 C 8.6 g/m*3 17.4 C 0 km/h
1684 10-08-2006 16:52:04 16.9 C 8.34 g/m*3 16.9 C 0 km/h
1685 10-08-2006 17:02:04 16.2 C 8.14 g/m*3 16.2 C 0 km/h
1686 10-08-2006 17:12:04 15.9 C 8.26 g/m*3 15.9 C 0 km/h
1687 10-08-2006 17:22:04 14.3 C 9.21 g/m*3 14.3 C 0 km/h
1688 10-08-2006 17:32:04 13.4 C 9.76 g/m*3 13.4 C 0 km/h
1689 10-08-2006 17:42:04 13.4 C 10 g/m*3 13.4 C 0 km/h
1690 10-08-2006 17:52:04 13.7 C 10.42 g/m*3 13.7 C 0 km/h
1691 10-08-2006 18:02:04 14 C 10.61 g/m*3 14 C 0 km/h
1692 10-08-2006 18:12:04 13.9 C 10.67 g/m*3 13.9 C 0 km/h
1693 10-08-2006 18:22:04 14 C 10.74 g/m*3 14 C 0 km/h
1694 10-08-2006 18:32:04 13.9 C 10.67 g/m*3 13.9 C 0 km/h
1695 10-08-2006 18:42:04 14 C 10.74 g/m*3 14 C 0 km/h
1696 10-08-2006 18:52:04 14.1 C 10.8 g/m*3 14.1 C 0 km/h
1697 10-08-2006 19:02:04 14.1 C 10.68 g/m*3 14.1 C 0 km/h
1698 10-08-2006 19:12:04 13.9 C 10.43 g/m*3 13.9 C 0 km/h
1699 10-08-2006 19:22:04 13.7 C 10.18 g/m*3 13.7 C 0 km/h
1700 10-08-2006 19:32:04 13.6 C 10.24 g/m*3 13.6 C 0 km/h
Sensor: Nr:Datum:Temp:Abs-Feuchte:Windchill:Wind:
Aussen-T/F 1701 10-08-2006 19:42:05 13.6 C 10.24 g/m*3 13.6 C 0 km/h
1702 10-08-2006 19:52:05 13.7 C 10.42 g/m*3 13.7 C 0 km/h
1703 10-08-2006 20:02:05 13.6 C 10.36 g/m*3 13.6 C 0 km/h
1704 10-08-2006 20:12:05 13.6 C 10.36 g/m*3 13.6 C 0 km/h
1705 10-08-2006 20:22:05 13.5 C 10.29 g/m*3 13.5 C 0 km/h
1706 10-08-2006 20:32:05 13.4 C 10.23 g/m*3 13.4 C 0 km/h
1707 10-08-2006 20:42:05 13.4 C 10.35 g/m*3 13.4 C 0 km/h
1708 10-08-2006 20:52:05 13.4 C 10.35 g/m*3 13.4 C 0 km/h
1709 10-08-2006 21:02:05 13.2 C 10.22 g/m*3 13.2 C 0 km/h
1710 10-08-2006 21:12:05 13.2 C 10.22 g/m*3 13.2 C 0 km/h
1711 10-08-2006 21:22:05 13.1 C 10.16 g/m*3 13.1 C 0 km/h
1712 10-08-2006 21:32:05 13.1 C 10.16 g/m*3 13.1 C 0 km/h
1713 10-08-2006 21:42:05 12.9 C 10.14 g/m*3 12.9 C 0 km/h
1714 10-08-2006 21:52:05 13 C 10.09 g/m*3 13 C 0 km/h
1715 10-08-2006 22:02:05 13.1 C 10.16 g/m*3 13.1 C 0 km/h
1716 10-08-2006 22:12:05 13.1 C 10.04 g/m*3 13.1 C 0 km/h
1717 10-08-2006 22:22:05 13.1 C 9.81 g/m*3 13.1 C 0 km/h
1718 10-08-2006 22:32:06 13.1 C 9.81 g/m*3 13.1 C 0 km/h
1719 10-08-2006 22:42:06 13.1 C 9.81 g/m*3 13.1 C 0 km/h
1720 10-08-2006 22:52:06 13.1 C 9.81 g/m*3 13.1 C 0 km/h
1721 10-08-2006 23:02:06 13.1 C 9.93 g/m*3 13.1 C 0 km/h
1722 10-08-2006 23:12:06 13.1 C 9.93 g/m*3 13.1 C 0 km/h
1723 10-08-2006 23:22:06 13.1 C 9.93 g/m*3 13.1 C 0 km/h
1724 10-08-2006 23:32:06 13.1 C 9.93 g/m*3 13.1 C 0 km/h
1725 10-08-2006 23:42:06 13.1 C 9.93 g/m*3 13.1 C 0 km/h
Sensor: Nr:Datum:Temp:Abs-Feuchte:Windchill:Wind:
Aussen-T/F 1726 10-08-2006 23:52:06 13.1 C 9.93 g/m*3 13.1 C 0 km/h
1727 11-08-2006 00:02:06 13.1 C 9.93 g/m*3 13.1 C 0 km/h
1728 11-08-2006 00:12:06 13.1 C 9.93 g/m*3 13.1 C 0 km/h
1729 11-08-2006 00:22:06 13.1 C 9.93 g/m*3 13.1 C 0 km/h
1730 11-08-2006 00:32:06 13.1 C 9.81 g/m*3 13.1 C 0 km/h
1731 11-08-2006 00:42:06 13.1 C 9.81 g/m*3 13.1 C 0 km/h
1732 11-08-2006 00:52:06 13.1 C 9.7 g/m*3 13.1 C 0 km/h
1733 11-08-2006 01:02:06 13.1 C 9.7 g/m*3 13.1 C 0 km/h
1734 11-08-2006 01:12:06 13 C 9.64 g/m*3 13 C 0 km/h
1735 11-08-2006 01:22:07 12.9 C 9.69 g/m*3 12.9 C 0 km/h
1736 11-08-2006 01:32:07 12.9 C 9.69 g/m*3 12.9 C 0 km/h
1737 11-08-2006 01:42:07 12.9 C 9.58 g/m*3 12.9 C 0 km/h
1738 11-08-2006 01:52:07 12.8 C 9.52 g/m*3 12.8 C 0 km/h
1739 11-08-2006 02:02:07 12.7 C 9.46 g/m*3 12.7 C 0 km/h
1740 11-08-2006 02:12:07 12.6 C 9.4 g/m*3 12.6 C 0 km/h
1741 11-08-2006 02:22:07 12.5 C 9.46 g/m*3 12.5 C 0 km/h
1742 11-08-2006 02:32:07 12.4 C 9.51 g/m*3 12.4 C 0 km/h
1743 11-08-2006 02:42:07 12.4 C 9.51 g/m*3 12.4 C 0 km/h
1744 11-08-2006 02:52:07 12.3 C 9.45 g/m*3 12.3 C 0 km/h
1745 11-08-2006 03:02:07 12.3 C 9.45 g/m*3 12.3 C 0 km/h
1746 11-08-2006 03:12:07 12.3 C 9.34 g/m*3 12.3 C 0 km/h
1747 11-08-2006 03:22:07 12.3 C 9.34 g/m*3 12.3 C 0 km/h
1748 11-08-2006 03:32:07 12.3 C 9.34 g/m*3 12.3 C 0 km/h
1749 11-08-2006 03:42:07 12.3 C 9.34 g/m*3 12.3 C 0 km/h
1750 11-08-2006 03:52:07 12.3 C 9.34 g/m*3 12.3 C 0 km/h
Sensor: Nr:Datum:Temp:Abs-Feuchte:Windchill:Wind:
Aussen-T/F 1751 11-08-2006 04:02:07 12.4 C 9.4 g/m*3 12.4 C 0 km/h
1752 11-08-2006 04:12:08 12.4 C 9.4 g/m*3 12.4 C 0 km/h
1753 11-08-2006 04:22:08 12.4 C 9.4 g/m*3 12.4 C 0 km/h
1754 11-08-2006 04:32:08 12.4 C 9.51 g/m*3 12.4 C 0 km/h
1755 11-08-2006 04:42:08 12.2 C 9.39 g/m*3 12.2 C 0 km/h
1756 11-08-2006 04:52:08 12.1 C 9.44 g/m*3 12.1 C 0 km/h
1757 11-08-2006 05:02:08 12 C 9.38 g/m*3 12 C 0 km/h
1758 11-08-2006 05:12:08 12 C 9.48 g/m*3 12 C 0 km/h
1759 11-08-2006 05:22:08 11.9 C 9.53 g/m*3 11.9 C 0 km/h
1760 11-08-2006 05:32:08 11.9 C 9.64 g/m*3 11.9 C 0 km/h
1761 11-08-2006 05:42:08 11.9 C 9.64 g/m*3 11.9 C 0 km/h
1762 11-08-2006 05:52:08 11.9 C 9.74 g/m*3 11.9 C 0 km/h
1763 11-08-2006 06:02:08 11.9 C 9.74 g/m*3 11.9 C 0 km/h
1764 11-08-2006 06:12:08 11.8 C 9.68 g/m*3 11.8 C 0 km/h
1765 11-08-2006 06:22:08 11.8 C 9.68 g/m*3 11.8 C 0 km/h
1766 11-08-2006 06:32:08 11.9 C 9.74 g/m*3 11.9 C 0 km/h
1767 11-08-2006 06:42:08 12 C 9.8 g/m*3 12 C 0 km/h
1768 11-08-2006 06:52:08 12 C 9.8 g/m*3 12 C 0 km/h
1769 11-08-2006 07:02:09 12 C 9.8 g/m*3 12 C 0 km/h
1770 11-08-2006 07:12:09 12 C 9.8 g/m*3 12 C 0 km/h
1771 11-08-2006 07:22:09 12.1 C 9.87 g/m*3 12.1 C 0 km/h
1772 11-08-2006 07:32:09 12.4 C 10.05 g/m*3 12.4 C 0 km/h
1773 11-08-2006 07:42:09 12.6 C 10.18 g/m*3 12.6 C 0 km/h
1774 11-08-2006 07:52:09 13.1 C 10.27 g/m*3 13.1 C 0 km/h
1775 11-08-2006 08:02:09 13.2 C 10.1 g/m*3 13.2 C 0 km/h
Sensor: Nr:Datum:Temp:Abs-Feuchte:Windchill:Wind:
Aussen-T/F 1776 11-08-2006 08:12:09 13.3 C 10.05 g/m*3 13.3 C 0 km/h
1777 11-08-2006 08:22:09 13.2 C 9.87 g/m*3 13.2 C 0 km/h
1778 11-08-2006 08:32:09 13.1 C 9.93 g/m*3 13.1 C 0 km/h
1779 11-08-2006 08:42:09 12.9 C 9.92 g/m*3 12.9 C 0 km/h
1780 11-08-2006 08:52:09 12.8 C 9.86 g/m*3 12.8 C 0 km/h
1781 11-08-2006 09:02:09 12.8 C 9.97 g/m*3 12.8 C 0 km/h
1782 11-08-2006 09:12:09 12.9 C 10.03 g/m*3 12.9 C 0 km/h
1783 11-08-2006 09:22:09 13.1 C 10.16 g/m*3 13.1 C 0 km/h
1784 11-08-2006 09:32:09 13 C 10.09 g/m*3 13 C 0 km/h
1785 11-08-2006 09:42:09 12.8 C 9.97 g/m*3 12.8 C 0 km/h
1786 11-08-2006 09:52:10 13.1 C 10.16 g/m*3 13.1 C 0 km/h
1787 11-08-2006 10:02:10 13 C 9.98 g/m*3 13 C 0 km/h
1788 11-08-2006 10:12:10 13.2 C 9.99 g/m*3 13.2 C 0 km/h
1789 11-08-2006 10:22:10 13.4 C 10 g/m*3 13.4 C 0 km/h
1790 11-08-2006 10:32:10 14 C 9.77 g/m*3 14 C 0 km/h
1791 11-08-2006 10:42:10 14.9 C 9.94 g/m*3 14.9 C 0 km/h
1792 11-08-2006 10:52:10 15.6 C 9.58 g/m*3 15.6 C 0 km/h
1793 11-08-2006 11:02:10 15.9 C 9.34 g/m*3 15.9 C 0 km/h
1794 11-08-2006 11:12:10 16.1 C 9.18 g/m*3 16.1 C 0 km/h
1795 11-08-2006 11:22:10 15.4 C 9.07 g/m*3 15.4 C 0 km/h
1796 11-08-2006 11:32:10 15.2 C 9.61 g/m*3 15.2 C 0 km/h
1797 11-08-2006 11:42:10 15 C 9.75 g/m*3 15 C 0 km/h
1798 11-08-2006 11:52:10 15 C 9.49 g/m*3 15 C 0 km/h
1799 11-08-2006 12:02:10 14.7 C 9.95 g/m*3 14.7 C 0 km/h
1800 11-08-2006 12:12:10 14.8 C 9.88 g/m*3 14.8 C 0 km/h
Sensor: Nr:Datum:Temp:Abs-Feuchte:Windchill:Wind:
Aussen-T/F 1801 11-08-2006 12:22:10 16.5 C 10.53 g/m*3 16.5 C 0 km/h
1802 11-08-2006 12:32:10 17.7 C 9.96 g/m*3 17.7 C 0 km/h
1803 11-08-2006 12:42:11 18.1 C 9.12 g/m*3 18.1 C 0 km/h
1804 11-08-2006 12:52:11 18.4 C 9.28 g/m*3 18.4 C 0 km/h
1805 11-08-2006 13:02:11 19.2 C 8.57 g/m*3 19.2 C 0 km/h
1806 11-08-2006 13:12:11 19.2 C 8.9 g/m*3 19.2 C 0 km/h
1807 11-08-2006 13:22:11 20.5 C 8.36 g/m*3 20.5 C 0 km/h
1808 11-08-2006 13:32:11 21.2 C 7.23 g/m*3 21.2 C 0 km/h
1809 11-08-2006 13:42:11 21.7 C 7.82 g/m*3 21.7 C 0 km/h
1810 11-08-2006 13:52:01 21.2 C 7.6 g/m*3 21.2 C 0 km/h
1811 11-08-2006 14:02:01 22.4 C 7.55 g/m*3 22.4 C 0 km/h
1812 11-08-2006 14:12:01 21.7 C 7.06 g/m*3 21.7 C 0 km/h
1813 11-08-2006 14:22:02 20.4 C 7.08 g/m*3 20.4 C 0 km/h
1814 11-08-2006 14:32:03 20 C 7.43 g/m*3 20 C 0 km/h
1815 11-08-2006 14:42:03 20.2 C 7.69 g/m*3 20.2 C 0 km/h
1816 11-08-2006 14:52:02 21 C 7.69 g/m*3 21 C 0 km/h
1817 11-08-2006 15:02:03 18.6 C 8.28 g/m*3 18.6 C 0 km/h
1818 11-08-2006 15:12:04 18.7 C 9.13 g/m*3 18.7 C 0 km/h
1819 11-08-2006 15:22:03 20.2 C 7.87 g/m*3 20.2 C 0 km/h
1820 11-08-2006 15:32:03 21.9 C 7.72 g/m*3 21.9 C 0 km/h
1821 11-08-2006 15:42:03 19.2 C 7.26 g/m*3 19.2 C 0 km/h
1822 11-08-2006 15:52:04 17.1 C 7.42 g/m*3 17.1 C 0 km/h
1823 11-08-2006 16:02:04 14.4 C 8.78 g/m*3 14.4 C 0 km/h
1824 11-08-2006 16:12:04 13.5 C 9.01 g/m*3 13.5 C 0 km/h
1825 11-08-2006 16:22:04 13.8 C 10.01 g/m*3 13.8 C 0 km/h
Sensor: Nr:Datum:Temp:Abs-Feuchte:Windchill:Wind:
Aussen-T/F 1826 11-08-2006 16:32:04 14 C 10.37 g/m*3 14 C 0 km/h
1827 11-08-2006 16:42:04 15.6 C 11.3 g/m*3 15.6 C 0 km/h
1828 11-08-2006 16:52:02 15.6 C 9.58 g/m*3 15.6 C 0 km/h
1829 11-08-2006 17:02:03 15.6 C 9.18 g/m*3 15.6 C 0 km/h
1830 11-08-2006 17:12:03 15.8 C 9.02 g/m*3 15.8 C 0 km/h
1831 11-08-2006 17:22:02 15.5 C 9.25 g/m*3 15.5 C 0 km/h
1832 11-08-2006 17:32:02 14.8 C 9.5 g/m*3 14.8 C 0 km/h
1833 11-08-2006 17:42:02 14.4 C 10.14 g/m*3 14.4 C 0 km/h
1834 11-08-2006 17:52:01 14.2 C 10.26 g/m*3 14.2 C 0 km/h
1835 11-08-2006 18:02:02 14.3 C 10.44 g/m*3 14.3 C 0 km/h
1836 11-08-2006 18:12:02 14 C 10.37 g/m*3 14 C 0 km/h
1837 11-08-2006 18:22:02 13.8 C 10.37 g/m*3 13.8 C 0 km/h
1838 11-08-2006 18:32:02 13.7 C 10.42 g/m*3 13.7 C 0 km/h
1839 11-08-2006 18:42:02 14.2 C 10.62 g/m*3 14.2 C 0 km/h
1840 11-08-2006 18:52:02 14.5 C 10.7 g/m*3 14.5 C 0 km/h
1841 11-08-2006 19:02:02 14.7 C 10.45 g/m*3 14.7 C 0 km/h
1842 11-08-2006 19:12:02 14.7 C 10.32 g/m*3 14.7 C 0 km/h
1843 11-08-2006 19:22:02 14.5 C 10.2 g/m*3 14.5 C 0 km/h
1844 11-08-2006 19:32:02 14.1 C 10.07 g/m*3 14.1 C 0 km/h
1845 11-08-2006 19:42:02 13.9 C 10.07 g/m*3 13.9 C 0 km/h
1846 11-08-2006 19:52:02 13.6 C 9.89 g/m*3 13.6 C 0 km/h
1847 11-08-2006 20:02:02 13.5 C 9.94 g/m*3 13.5 C 0 km/h
1848 11-08-2006 20:12:02 13.5 C 9.94 g/m*3 13.5 C 0 km/h
1849 11-08-2006 20:22:02 13.5 C 10.06 g/m*3 13.5 C 0 km/h
1850 11-08-2006 20:32:02 13.3 C 9.94 g/m*3 13.3 C 0 km/h
Sensor: Nr:Datum:Temp:Abs-Feuchte:Windchill:Wind:
Aussen-T/F 1851 11-08-2006 20:42:02 13.4 C 10 g/m*3 13.4 C 0 km/h
1852 11-08-2006 20:52:02 13.2 C 9.87 g/m*3 13.2 C 0 km/h
1853 11-08-2006 21:02:02 13 C 9.75 g/m*3 13 C 0 km/h
1854 11-08-2006 21:12:02 12.8 C 9.74 g/m*3 12.8 C 0 km/h
1855 11-08-2006 21:22:02 12.6 C 9.62 g/m*3 12.6 C 0 km/h
1856 11-08-2006 21:32:02 12.6 C 9.74 g/m*3 12.6 C 0 km/h
1857 11-08-2006 21:42:02 12.6 C 9.74 g/m*3 12.6 C 0 km/h
1858 11-08-2006 21:52:02 12.6 C 9.74 g/m*3 12.6 C 0 km/h
1859 11-08-2006 22:02:02 12.5 C 9.78 g/m*3 12.5 C 0 km/h
1860 11-08-2006 22:12:02 12.5 C 9.78 g/m*3 12.5 C 0 km/h
1861 11-08-2006 22:22:02 12.5 C 9.78 g/m*3 12.5 C 0 km/h
1862 11-08-2006 22:32:02 12.5 C 9.78 g/m*3 12.5 C 0 km/h
1863 11-08-2006 22:42:02 12.5 C 9.89 g/m*3 12.5 C 0 km/h
1864 11-08-2006 22:52:02 12.7 C 10.02 g/m*3 12.7 C 0 km/h
1865 11-08-2006 23:02:02 12.8 C 10.08 g/m*3 12.8 C 0 km/h
1866 11-08-2006 23:12:02 12.8 C 9.97 g/m*3 12.8 C 0 km/h
1867 11-08-2006 23:22:02 12.8 C 9.86 g/m*3 12.8 C 0 km/h
1868 11-08-2006 23:32:02 12.9 C 9.81 g/m*3 12.9 C 0 km/h
1869 11-08-2006 23:42:02 13.1 C 9.7 g/m*3 13.1 C 0 km/h
1870 11-08-2006 23:52:02 13.1 C 9.59 g/m*3 13.1 C 0 km/h
1871 12-08-2006 00:02:02 13.1 C 9.59 g/m*3 13.1 C 0 km/h
1872 12-08-2006 00:12:03 12.9 C 9.58 g/m*3 12.9 C 0 km/h
1873 12-08-2006 00:22:02 12.8 C 9.52 g/m*3 12.8 C 0 km/h
1874 12-08-2006 00:32:02 12.8 C 9.52 g/m*3 12.8 C 0 km/h
1875 12-08-2006 00:42:02 12.8 C 9.52 g/m*3 12.8 C 0 km/h
Sensor: Nr:Datum:Temp:Abs-Feuchte:Windchill:Wind:
Aussen-T/F 1876 12-08-2006 00:52:02 12.8 C 9.52 g/m*3 12.8 C 0 km/h
1877 12-08-2006 01:02:02 12.8 C 9.52 g/m*3 12.8 C 0 km/h
1878 12-08-2006 01:12:03 12.8 C 9.52 g/m*3 12.8 C 0 km/h
1879 12-08-2006 01:22:02 12.7 C 9.46 g/m*3 12.7 C 0 km/h
1880 12-08-2006 01:32:02 12.6 C 9.4 g/m*3 12.6 C 0 km/h
1881 12-08-2006 01:42:02 12.6 C 9.4 g/m*3 12.6 C 0 km/h
1882 12-08-2006 01:52:03 12.6 C 9.4 g/m*3 12.6 C 0 km/h
1883 12-08-2006 02:02:03 12.5 C 9.46 g/m*3 12.5 C 0 km/h
1884 12-08-2006 02:12:03 12.3 C 9.34 g/m*3 12.3 C 0 km/h
1885 12-08-2006 02:22:02 12.2 C 9.28 g/m*3 12.2 C 0 km/h
1886 12-08-2006 02:32:02 12.1 C 9.33 g/m*3 12.1 C 0 km/h
1887 12-08-2006 02:42:02 11.9 C 9.21 g/m*3 11.9 C 0 km/h
1888 12-08-2006 02:53:03 11.8 C 9.26 g/m*3 11.8 C 0 km/h
1889 12-08-2006 03:03:03 11.8 C 9.26 g/m*3 11.8 C 0 km/h
1890 12-08-2006 03:13:03 11.9 C 9.32 g/m*3 11.9 C 0 km/h
1891 12-08-2006 03:23:03 12 C 9.38 g/m*3 12 C 0 km/h
1892 12-08-2006 03:33:03 11.9 C 9.43 g/m*3 11.9 C 0 km/h
1893 12-08-2006 03:43:03 11.8 C 9.37 g/m*3 11.8 C 0 km/h
1894 12-08-2006 03:53:03 11.8 C 9.26 g/m*3 11.8 C 0 km/h
1895 12-08-2006 04:03:03 11.8 C 9.37 g/m*3 11.8 C 0 km/h
1896 12-08-2006 04:13:03 11.8 C 9.37 g/m*3 11.8 C 0 km/h
1897 12-08-2006 04:23:02 11.9 C 9.43 g/m*3 11.9 C 0 km/h
1898 12-08-2006 04:33:03 12 C 9.38 g/m*3 12 C 0 km/h
1899 12-08-2006 04:43:03 12 C 9.38 g/m*3 12 C 0 km/h
1900 12-08-2006 04:53:02 12 C 9.38 g/m*3 12 C 0 km/h
Sensor: Nr:Datum:Temp:Abs-Feuchte:Windchill:Wind:
Aussen-T/F 1901 12-08-2006 05:03:02 12 C 9.38 g/m*3 12 C 0 km/h
1902 12-08-2006 05:13:02 12 C 9.27 g/m*3 12 C 0 km/h
1903 12-08-2006 05:23:03 11.9 C 9.32 g/m*3 11.9 C 0 km/h
1904 12-08-2006 05:33:03 11.9 C 9.32 g/m*3 11.9 C 0 km/h
1905 12-08-2006 05:43:03 11.8 C 9.26 g/m*3 11.8 C 0 km/h
1906 12-08-2006 05:53:02 11.8 C 9.26 g/m*3 11.8 C 0 km/h
1907 12-08-2006 06:03:02 11.8 C 9.26 g/m*3 11.8 C 0 km/h
1908 12-08-2006 06:13:02 11.8 C 9.16 g/m*3 11.8 C 0 km/h
1909 12-08-2006 06:23:02 11.8 C 9.16 g/m*3 11.8 C 0 km/h
1910 12-08-2006 06:33:01 11.8 C 9.05 g/m*3 11.8 C 0 km/h
1911 12-08-2006 06:43:01 11.8 C 9.16 g/m*3 11.8 C 0 km/h
1912 12-08-2006 06:53:02 11.8 C 9.16 g/m*3 11.8 C 0 km/h
1913 12-08-2006 07:03:02 11.9 C 9.11 g/m*3 11.9 C 0 km/h
1914 12-08-2006 07:13:02 12 C 9.06 g/m*3 12 C 0 km/h
1915 12-08-2006 07:23:02 12.1 C 9.01 g/m*3 12.1 C 0 km/h
1916 12-08-2006 07:33:01 12.2 C 8.96 g/m*3 12.2 C 0 km/h
1917 12-08-2006 07:43:01 12.3 C 8.9 g/m*3 12.3 C 0 km/h
1918 12-08-2006 07:53:02 12.4 C 8.96 g/m*3 12.4 C 0 km/h
1919 12-08-2006 08:03:02 12.5 C 9.02 g/m*3 12.5 C 0 km/h
1920 12-08-2006 08:13:02 12.6 C 9.07 g/m*3 12.6 C 0 km/h
1921 12-08-2006 08:23:02 12.7 C 9.02 g/m*3 12.7 C 0 km/h
1922 12-08-2006 08:33:01 12.8 C 9.07 g/m*3 12.8 C 0 km/h
1923 12-08-2006 08:43:01 13.1 C 9.01 g/m*3 13.1 C 0 km/h
1924 12-08-2006 08:53:02 13.3 C 9.01 g/m*3 13.3 C 0 km/h
1925 12-08-2006 09:03:02 13.6 C 9.06 g/m*3 13.6 C 0 km/h
Sensor: Nr:Datum:Temp:Abs-Feuchte:Windchill:Wind:
Aussen-T/F 1926 12-08-2006 09:13:02 13.8 C 8.82 g/m*3 13.8 C 0 km/h
1927 12-08-2006 09:23:01 14 C 8.81 g/m*3 14 C 0 km/h
1928 12-08-2006 09:33:02 13.9 C 8.75 g/m*3 13.9 C 0 km/h
1929 12-08-2006 09:43:02 14 C 8.56 g/m*3 14 C 0 km/h
1930 12-08-2006 09:53:02 14.1 C 8.5 g/m*3 14.1 C 0 km/h
1931 12-08-2006 10:03:02 14.2 C 8.67 g/m*3 14.2 C 0 km/h
1932 12-08-2006 10:13:02 14.3 C 8.6 g/m*3 14.3 C 0 km/h
1933 12-08-2006 10:23:02 14.2 C 8.67 g/m*3 14.2 C 0 km/h
1934 12-08-2006 10:33:01 14.4 C 8.53 g/m*3 14.4 C 0 km/h
1935 12-08-2006 10:43:01 14.6 C 8.63 g/m*3 14.6 C 0 km/h
1936 12-08-2006 10:53:02 14.8 C 8.74 g/m*3 14.8 C 0 km/h
1937 12-08-2006 11:03:02 15.5 C 8.72 g/m*3 15.5 C 0 km/h
1938 12-08-2006 11:13:02 16 C 7.63 g/m*3 16 C 0 km/h
1939 12-08-2006 11:23:02 16.6 C 7.77 g/m*3 16.6 C 0 km/h
1940 12-08-2006 11:33:02 17.2 C 7.61 g/m*3 17.2 C 0 km/h
1941 12-08-2006 11:43:02 17.5 C 7.6 g/m*3 17.5 C 0 km/h
1942 12-08-2006 11:53:02 16.8 C 7.58 g/m*3 16.8 C 0 km/h
1943 12-08-2006 12:03:02 17 C 7.52 g/m*3 17 C 0 km/h
1944 12-08-2006 12:13:02 16.7 C 7.96 g/m*3 16.7 C 0 km/h
1945 12-08-2006 12:23:01 16.8 C 8.01 g/m*3 16.8 C 0 km/h
1946 12-08-2006 12:33:01 16.8 C 7.72 g/m*3 16.8 C 0 km/h
1947 12-08-2006 12:43:01 17.2 C 7.76 g/m*3 17.2 C 0 km/h
1948 12-08-2006 12:53:02 17.5 C 7.31 g/m*3 17.5 C 0 km/h
1949 12-08-2006 13:03:02 18 C 7.68 g/m*3 18 C 0 km/h
1950 12-08-2006 13:13:02 18 C 7.53 g/m*3 18 C 0 km/h
Sensor: Nr:Datum:Temp:Abs-Feuchte:Windchill:Wind:
Aussen-T/F 1951 12-08-2006 13:23:02 18.1 C 7.11 g/m*3 18.1 C 0 km/h
1952 12-08-2006 13:33:02 18.9 C 7.13 g/m*3 18.9 C 0 km/h
1953 12-08-2006 13:43:02 19.8 C 7.52 g/m*3 19.8 C 0 km/h
1954 12-08-2006 13:53:01 20.5 C 7.3 g/m*3 20.5 C 0 km/h
1955 12-08-2006 14:03:02 19.7 C 7.13 g/m*3 19.7 C 0 km/h
1956 12-08-2006 14:13:02 20.2 C 6.82 g/m*3 20.2 C 0 km/h
1957 12-08-2006 14:23:02 20.9 C 6.92 g/m*3 20.9 C 0 km/h
1958 12-08-2006 14:33:02 20.1 C 6.95 g/m*3 20.1 C 0 km/h
1959 12-08-2006 14:43:03 19.5 C 7.22 g/m*3 19.5 C 0 km/h
1960 12-08-2006 14:53:02 18.7 C 7.04 g/m*3 18.7 C 0 km/h
1961 12-08-2006 15:03:03 17.5 C 7.16 g/m*3 17.5 C 0 km/h
1962 12-08-2006 15:13:03 17.3 C 7.07 g/m*3 17.3 C 0 km/h
1963 12-08-2006 15:23:02 17.3 C 7.22 g/m*3 17.3 C 0 km/h
1964 12-08-2006 15:33:02 17.8 C 7.44 g/m*3 17.8 C 0 km/h
1965 12-08-2006 15:43:02 17.6 C 7.65 g/m*3 17.6 C 0 km/h
1966 12-08-2006 15:53:02 18.4 C 8.18 g/m*3 18.4 C 0 km/h
1967 12-08-2006 16:03:02 18.8 C 7.89 g/m*3 18.8 C 0 km/h
1968 12-08-2006 16:13:02 19.1 C 8.03 g/m*3 19.1 C 0 km/h
1969 12-08-2006 16:23:02 19.9 C 7.39 g/m*3 19.9 C 0 km/h
1970 12-08-2006 16:33:02 20.8 C 7.24 g/m*3 20.8 C 0 km/h
1971 12-08-2006 16:43:02 20.2 C 6.82 g/m*3 20.2 C 0 km/h
1972 12-08-2006 16:53:03 20.2 C 6.82 g/m*3 20.2 C 0 km/h
1973 12-08-2006 17:03:03 20.7 C 7.38 g/m*3 20.7 C 0 km/h
1974 12-08-2006 17:13:03 21.2 C 7.04 g/m*3 21.2 C 0 km/h
1975 12-08-2006 17:23:02 20.6 C 6.62 g/m*3 20.6 C 0 km/h
Sensor: Nr:Datum:Temp:Abs-Feuchte:Windchill:Wind:
Aussen-T/F 1976 12-08-2006 17:33:02 20.3 C 6.86 g/m*3 20.3 C 0 km/h
1977 12-08-2006 17:43:02 20 C 7.09 g/m*3 20 C 0 km/h
1978 12-08-2006 17:53:01 19.4 C 7.01 g/m*3 19.4 C 0 km/h
1979 12-08-2006 18:03:02 19 C 7.17 g/m*3 19 C 0 km/h
1980 12-08-2006 18:13:02 18.6 C 7.16 g/m*3 18.6 C 0 km/h
1981 12-08-2006 18:23:02 19 C 7.33 g/m*3 19 C 0 km/h
1982 12-08-2006 18:33:02 19.1 C 7.7 g/m*3 19.1 C 0 km/h
1983 12-08-2006 18:43:02 19.5 C 7.72 g/m*3 19.5 C 0 km/h
1984 12-08-2006 18:53:02 19.3 C 7.63 g/m*3 19.3 C 0 km/h
1985 12-08-2006 19:03:02 19 C 7.66 g/m*3 19 C 0 km/h
1986 12-08-2006 19:13:02 18.4 C 7.86 g/m*3 18.4 C 0 km/h
1987 12-08-2006 19:23:02 18.1 C 7.88 g/m*3 18.1 C 0 km/h
1988 12-08-2006 19:33:03 18.2 C 8.39 g/m*3 18.2 C 0 km/h
1989 12-08-2006 19:43:03 18.3 C 8.29 g/m*3 18.3 C 0 km/h
1990 12-08-2006 19:53:02 18 C 8.45 g/m*3 18 C 0 km/h
1991 12-08-2006 20:03:02 17.8 C 8.8 g/m*3 17.8 C 0 km/h
1992 12-08-2006 20:13:03 17 C 8.68 g/m*3 17 C 0 km/h
1993 12-08-2006 20:23:02 16.6 C 8.62 g/m*3 16.6 C 0 km/h
1994 12-08-2006 20:33:02 15.7 C 7.63 g/m*3 15.7 C 0 km/h
1995 12-08-2006 20:43:02 15.3 C 7.84 g/m*3 15.3 C 0 km/h
1996 12-08-2006 20:53:02 15 C 7.95 g/m*3 15 C 0 km/h
1997 12-08-2006 21:03:02 14.6 C 8.01 g/m*3 14.6 C 0 km/h
1998 12-08-2006 21:13:02 14.5 C 7.96 g/m*3 14.5 C 0 km/h
1999 12-08-2006 21:23:01 14.4 C 8.16 g/m*3 14.4 C 0 km/h
2000 12-08-2006 21:33:01 14.2 C 8.18 g/m*3 14.2 C 0 km/h
Sensor: Nr:Datum:Temp:Abs-Feuchte:Windchill:Wind:
Aussen-T/F 2001 12-08-2006 21:43:01 14.1 C 8.37 g/m*3 14.1 C 0 km/h
2002 12-08-2006 21:53:02 13.8 C 8.46 g/m*3 13.8 C 0 km/h
2003 12-08-2006 22:03:02 13.6 C 8.47 g/m*3 13.6 C 0 km/h
2004 12-08-2006 22:13:02 13.4 C 8.6 g/m*3 13.4 C 0 km/h
2005 12-08-2006 22:23:01 13.3 C 8.66 g/m*3 13.3 C 0 km/h
2006 12-08-2006 22:33:02 13.2 C 8.5 g/m*3 13.2 C 0 km/h
2007 12-08-2006 22:43:02 13.2 C 8.61 g/m*3 13.2 C 0 km/h
2008 12-08-2006 22:53:02 13 C 8.62 g/m*3 13 C 0 km/h
2009 12-08-2006 23:03:02 12.8 C 8.62 g/m*3 12.8 C 0 km/h
2010 12-08-2006 23:13:02 12.5 C 8.58 g/m*3 12.5 C 0 km/h
2011 12-08-2006 23:23:01 12.3 C 8.47 g/m*3 12.3 C 0 km/h
2012 12-08-2006 23:33:02 12.2 C 8.31 g/m*3 12.2 C 0 km/h
2013 12-08-2006 23:43:02 12.1 C 8.26 g/m*3 12.1 C 0 km/h
2014 12-08-2006 23:53:02 11.9 C 8.26 g/m*3 11.9 C 0 km/h
2015 13-08-2006 00:03:02 11.7 C 8.16 g/m*3 11.7 C 0 km/h
2016 13-08-2006 00:13:02 11.7 C 8.26 g/m*3 11.7 C 0 km/h
2017 13-08-2006 00:23:02 11.7 C 8.47 g/m*3 11.7 C 0 km/h
2018 13-08-2006 00:33:02 11.7 C 8.47 g/m*3 11.7 C 0 km/h
2019 13-08-2006 00:43:02 11.6 C 8.52 g/m*3 11.6 C 0 km/h
2020 13-08-2006 00:53:03 11.6 C 8.42 g/m*3 11.6 C 0 km/h
2021 13-08-2006 01:03:03 11.6 C 8.42 g/m*3 11.6 C 0 km/h
2022 13-08-2006 01:13:03 11.5 C 8.37 g/m*3 11.5 C 0 km/h
2023 13-08-2006 01:23:02 11.3 C 8.26 g/m*3 11.3 C 0 km/h
2024 13-08-2006 01:33:03 11.2 C 8.31 g/m*3 11.2 C 0 km/h
2025 13-08-2006 01:43:03 11.1 C 8.36 g/m*3 11.1 C 0 km/h
Sensor: Nr:Datum:Temp:Abs-Feuchte:Windchill:Wind:
Aussen-T/F 2026 13-08-2006 01:53:03 11.1 C 8.36 g/m*3 11.1 C 0 km/h
2027 13-08-2006 02:03:03 11 C 8.41 g/m*3 11 C 0 km/h
2028 13-08-2006 02:13:03 10.8 C 8.4 g/m*3 10.8 C 0 km/h
2029 13-08-2006 02:23:02 10.8 C 8.4 g/m*3 10.8 C 0 km/h
2030 13-08-2006 02:33:02 10.7 C 8.45 g/m*3 10.7 C 0 km/h
2031 13-08-2006 02:43:02 10.6 C 8.39 g/m*3 10.6 C 0 km/h
2032 13-08-2006 02:54:03 10.5 C 8.34 g/m*3 10.5 C 0 km/h
2033 13-08-2006 03:04:03 10.4 C 8.29 g/m*3 10.4 C 0 km/h
2034 13-08-2006 03:14:03 10.4 C 8.38 g/m*3 10.4 C 0 km/h
2035 13-08-2006 03:24:03 10.3 C 8.33 g/m*3 10.3 C 0 km/h
2036 13-08-2006 03:34:03 10.3 C 8.43 g/m*3 10.3 C 0 km/h
2037 13-08-2006 03:44:03 10.2 C 8.37 g/m*3 10.2 C 0 km/h
2038 13-08-2006 03:54:03 10.2 C 8.37 g/m*3 10.2 C 0 km/h
2039 13-08-2006 04:04:02 10.3 C 8.43 g/m*3 10.3 C 0 km/h
2040 13-08-2006 04:14:02 10.8 C 8.9 g/m*3 10.8 C 0 km/h
2041 13-08-2006 04:24:03 11.1 C 8.96 g/m*3 11.1 C 0 km/h
2042 13-08-2006 04:34:02 11.3 C 9.08 g/m*3 11.3 C 0 km/h
2043 13-08-2006 04:44:02 11 C 8.81 g/m*3 11 C 0 km/h
2044 13-08-2006 04:54:03 10.9 C 8.85 g/m*3 10.9 C 0 km/h
2045 13-08-2006 05:04:03 10.7 C 8.64 g/m*3 10.7 C 0 km/h
2046 13-08-2006 05:14:03 10.7 C 8.64 g/m*3 10.7 C 0 km/h
2047 13-08-2006 05:24:03 10.7 C 8.74 g/m*3 10.7 C 0 km/h
2048 13-08-2006 05:34:03 10.7 C 8.64 g/m*3 10.7 C 0 km/h
2049 13-08-2006 05:44:03 10.7 C 8.74 g/m*3 10.7 C 0 km/h
2050 13-08-2006 05:54:03 10.7 C 8.74 g/m*3 10.7 C 0 km/h
Sensor: Nr:Datum:Temp:Abs-Feuchte:Windchill:Wind:
Aussen-T/F 2051 13-08-2006 06:04:02 10.7 C 8.74 g/m*3 10.7 C 0 km/h
2052 13-08-2006 06:14:02 10.6 C 8.59 g/m*3 10.6 C 0 km/h
2053 13-08-2006 06:24:02 10.5 C 8.53 g/m*3 10.5 C 0 km/h
2054 13-08-2006 06:34:02 10.6 C 8.69 g/m*3 10.6 C 0 km/h
2055 13-08-2006 06:44:02 10.7 C 8.64 g/m*3 10.7 C 0 km/h
2056 13-08-2006 06:54:01 10.8 C 8.8 g/m*3 10.8 C 0 km/h
2057 13-08-2006 07:04:01 11 C 8.81 g/m*3 11 C 0 km/h
2058 13-08-2006 07:14:01 11.3 C 9.08 g/m*3 11.3 C 0 km/h
2059 13-08-2006 07:24:01 11.5 C 9.19 g/m*3 11.5 C 0 km/h
2060 13-08-2006 07:34:02 11.7 C 9.31 g/m*3 11.7 C 0 km/h
2061 13-08-2006 07:44:02 11.9 C 9.32 g/m*3 11.9 C 0 km/h
2062 13-08-2006 07:54:03 12 C 9.27 g/m*3 12 C 0 km/h
2063 13-08-2006 08:04:02 12.4 C 9.51 g/m*3 12.4 C 0 km/h
2064 13-08-2006 08:14:02 12.7 C 9.46 g/m*3 12.7 C 0 km/h
2065 13-08-2006 08:24:02 13 C 9.53 g/m*3 13 C 0 km/h
2066 13-08-2006 08:34:02 13.2 C 9.53 g/m*3 13.2 C 0 km/h
2067 13-08-2006 08:44:02 13.3 C 9.47 g/m*3 13.3 C 0 km/h
2068 13-08-2006 08:54:02 13.5 C 9.24 g/m*3 13.5 C 0 km/h
2069 13-08-2006 09:04:01 13.6 C 9.18 g/m*3 13.6 C 0 km/h
2070 13-08-2006 09:14:01 13.8 C 9.17 g/m*3 13.8 C 0 km/h
2071 13-08-2006 09:24:01 13.8 C 9.17 g/m*3 13.8 C 0 km/h
2072 13-08-2006 09:34:01 13.7 C 9 g/m*3 13.7 C 0 km/h
2073 13-08-2006 09:44:01 13.8 C 9.06 g/m*3 13.8 C 0 km/h
2074 13-08-2006 09:54:02 13.8 C 9.06 g/m*3 13.8 C 0 km/h
2075 13-08-2006 10:04:01 14.1 C 9.1 g/m*3 14.1 C 0 km/h
Sensor: Nr:Datum:Temp:Abs-Feuchte:Windchill:Wind:
Aussen-T/F 2076 13-08-2006 10:14:01 14.4 C 9.15 g/m*3 14.4 C 0 km/h
2077 13-08-2006 10:24:01 14.8 C 9.25 g/m*3 14.8 C 0 km/h
2078 13-08-2006 10:34:02 15.4 C 9.07 g/m*3 15.4 C 0 km/h
2079 13-08-2006 10:44:02 15.7 C 9.23 g/m*3 15.7 C 0 km/h
2080 13-08-2006 10:54:02 16.4 C 9.21 g/m*3 16.4 C 0 km/h
2081 13-08-2006 11:04:03 17 C 8.83 g/m*3 17 C 0 km/h
2082 13-08-2006 11:14:03 17.5 C 9.09 g/m*3 17.5 C 0 km/h
2083 13-08-2006 11:24:03 17.3 C 8.84 g/m*3 17.3 C 0 km/h
2084 13-08-2006 11:34:03 17.4 C 9.04 g/m*3 17.4 C 0 km/h
2085 13-08-2006 11:44:03 17.6 C 9 g/m*3 17.6 C 0 km/h
2086 13-08-2006 11:54:02 18.4 C 8.65 g/m*3 18.4 C 0 km/h
2087 13-08-2006 12:04:02 18.7 C 8.97 g/m*3 18.7 C 0 km/h
2088 13-08-2006 12:14:03 18.5 C 8.54 g/m*3 18.5 C 0 km/h
2089 13-08-2006 12:24:02 18.5 C 8.7 g/m*3 18.5 C 0 km/h
2090 13-08-2006 12:34:02 18.5 C 8.7 g/m*3 18.5 C 0 km/h
2091 13-08-2006 12:44:02 18.7 C 8.49 g/m*3 18.7 C 0 km/h
2092 13-08-2006 12:54:03 19.3 C 8.29 g/m*3 19.3 C 0 km/h
2093 13-08-2006 13:04:03 20 C 8.12 g/m*3 20 C 0 km/h
2094 13-08-2006 13:14:03 19.7 C 7.81 g/m*3 19.7 C 0 km/h
2095 13-08-2006 13:24:02 19.4 C 8.01 g/m*3 19.4 C 0 km/h
2096 13-08-2006 13:34:02 19.6 C 8.1 g/m*3 19.6 C 0 km/h
2097 13-08-2006 13:44:02 19.6 C 8.27 g/m*3 19.6 C 0 km/h
2098 13-08-2006 13:54:02 20 C 8.3 g/m*3 20 C 0 km/h
2099 13-08-2006 14:04:02 19.6 C 7.93 g/m*3 19.6 C 0 km/h
2100 13-08-2006 14:14:02 18.1 C 8.81 g/m*3 18.1 C 0 km/h
Sensor: Nr:Datum:Temp:Abs-Feuchte:Windchill:Wind:
Aussen-T/F 2101 13-08-2006 14:24:02 16.1 C 9.73 g/m*3 16.1 C 0 km/h
2102 13-08-2006 14:34:02 15.1 C 9.8 g/m*3 15.1 C 0 km/h
2103 13-08-2006 14:44:02 15.2 C 10.51 g/m*3 15.2 C 0 km/h
2104 13-08-2006 14:54:02 15.7 C 10.97 g/m*3 15.7 C 0 km/h
2105 13-08-2006 15:04:02 16.6 C 11.02 g/m*3 16.6 C 0 km/h
2106 13-08-2006 15:14:02 17.6 C 10.35 g/m*3 17.6 C 0 km/h
2107 13-08-2006 15:24:02 18.1 C 9.27 g/m*3 18.1 C 0 km/h
2108 13-08-2006 15:34:02 19.1 C 9.51 g/m*3 19.1 C 0 km/h
2109 13-08-2006 15:44:02 18.9 C 9.23 g/m*3 18.9 C 0 km/h
2110 13-08-2006 15:54:02 19.6 C 9.45 g/m*3 19.6 C 0 km/h
2111 13-08-2006 16:04:01 19.9 C 9.28 g/m*3 19.9 C 0 km/h
2112 13-08-2006 16:14:01 19.4 C 9.18 g/m*3 19.4 C 0 km/h
2113 13-08-2006 16:24:01 19.8 C 9.22 g/m*3 19.8 C 0 km/h
2114 13-08-2006 16:34:02 21.7 C 8.01 g/m*3 21.7 C 0 km/h
2115 13-08-2006 16:44:02 22.8 C 7.72 g/m*3 22.8 C 0 km/h
2116 13-08-2006 16:54:02 24.2 C 7.92 g/m*3 24.2 C 0 km/h
2117 13-08-2006 17:04:02 24.2 C 7.26 g/m*3 24.2 C 0 km/h
2118 13-08-2006 17:14:02 23.9 C 7.36 g/m*3 23.9 C 0 km/h
2119 13-08-2006 17:24:02 24.4 C 6.9 g/m*3 24.4 C 0 km/h
2120 13-08-2006 17:34:02 23.6 C 7.66 g/m*3 23.6 C 0 km/h
2121 13-08-2006 17:44:02 22 C 7.57 g/m*3 22 C 0 km/h
2122 13-08-2006 17:54:01 20.1 C 8.17 g/m*3 20.1 C 0 km/h
2123 13-08-2006 18:04:01 19.3 C 8.63 g/m*3 19.3 C 0 km/h
2124 13-08-2006 18:14:01 16.4 C 9.49 g/m*3 16.4 C 0 km/h
2125 13-08-2006 18:24:02 15.5 C 9.78 g/m*3 15.5 C 0 km/h
Sensor: Nr:Datum:Temp:Abs-Feuchte:Windchill:Wind:
Aussen-T/F 2126 13-08-2006 18:34:02 15.7 C 10.17 g/m*3 15.7 C 0 km/h
2127 13-08-2006 18:44:02 15.8 C 9.83 g/m*3 15.8 C 0 km/h
2128 13-08-2006 18:54:02 16 C 9.81 g/m*3 16 C 0 km/h
2129 13-08-2006 19:04:02 16.2 C 9.79 g/m*3 16.2 C 0 km/h
2130 13-08-2006 19:14:02 16.3 C 9.57 g/m*3 16.3 C 0 km/h
2131 13-08-2006 19:24:02 16.3 C 9.57 g/m*3 16.3 C 0 km/h
2132 13-08-2006 19:34:03 16.5 C 9.83 g/m*3 16.5 C 0 km/h
2133 13-08-2006 19:44:03 16.4 C 9.63 g/m*3 16.4 C 0 km/h
2134 13-08-2006 19:54:01 16.5 C 9.83 g/m*3 16.5 C 0 km/h
2135 13-08-2006 20:04:01 16.6 C 10.03 g/m*3 16.6 C 0 km/h
2136 13-08-2006 20:14:01 16.4 C 10.19 g/m*3 16.4 C 0 km/h
2137 13-08-2006 20:24:01 15.7 C 10.17 g/m*3 15.7 C 0 km/h
2138 13-08-2006 20:34:02 15.2 C 9.99 g/m*3 15.2 C 0 km/h
2139 13-08-2006 20:44:02 14.5 C 9.58 g/m*3 14.5 C 0 km/h
2140 13-08-2006 20:54:02 14 C 9.29 g/m*3 14 C 0 km/h
2141 13-08-2006 21:04:02 13.9 C 9.47 g/m*3 13.9 C 0 km/h
2142 13-08-2006 21:14:02 13.6 C 9.18 g/m*3 13.6 C 0 km/h
2143 13-08-2006 21:24:02 13.5 C 9.12 g/m*3 13.5 C 0 km/h
2144 13-08-2006 21:34:03 13.4 C 9.07 g/m*3 13.4 C 0 km/h
2145 13-08-2006 21:44:03 13.2 C 8.96 g/m*3 13.2 C 0 km/h
2146 13-08-2006 21:54:02 13.1 C 9.01 g/m*3 13.1 C 0 km/h
2147 13-08-2006 22:04:02 13.1 C 9.24 g/m*3 13.1 C 0 km/h
2148 13-08-2006 22:14:02 13 C 9.19 g/m*3 13 C 0 km/h
2149 13-08-2006 22:24:02 12.8 C 9.07 g/m*3 12.8 C 0 km/h
2150 13-08-2006 22:34:02 12.8 C 9.18 g/m*3 12.8 C 0 km/h
Sensor: Nr:Datum:Temp:Abs-Feuchte:Windchill:Wind:
Aussen-T/F 2151 13-08-2006 22:44:02 12.5 C 9.13 g/m*3 12.5 C 0 km/h
2152 13-08-2006 22:54:01 12.4 C 9.07 g/m*3 12.4 C 0 km/h
2153 13-08-2006 23:04:01 12.3 C 9.01 g/m*3 12.3 C 0 km/h
2154 13-08-2006 23:14:01 12.2 C 8.96 g/m*3 12.2 C 0 km/h
2155 13-08-2006 23:24:01 12.1 C 8.9 g/m*3 12.1 C 0 km/h
2156 13-08-2006 23:34:02 12 C 8.95 g/m*3 12 C 0 km/h
2157 13-08-2006 23:44:02 12 C 9.17 g/m*3 12 C 0 km/h
2158 13-08-2006 23:54:02 12 C 9.38 g/m*3 12 C 0 km/h
2159 14-08-2006 00:04:02 12 C 9.48 g/m*3 12 C 0 km/h
2160 14-08-2006 00:14:02 11.8 C 9.47 g/m*3 11.8 C 0 km/h
2161 14-08-2006 00:24:03 11.8 C 9.47 g/m*3 11.8 C 0 km/h
2162 14-08-2006 00:34:02 11.7 C 9.41 g/m*3 11.7 C 0 km/h
2163 14-08-2006 00:44:02 11.5 C 9.19 g/m*3 11.5 C 0 km/h
2164 14-08-2006 00:54:03 11.4 C 9.14 g/m*3 11.4 C 0 km/h
2165 14-08-2006 01:04:03 11.3 C 9.08 g/m*3 11.3 C 0 km/h
2166 14-08-2006 01:14:03 11.2 C 9.02 g/m*3 11.2 C 0 km/h
2167 14-08-2006 01:24:03 11.1 C 8.96 g/m*3 11.1 C 0 km/h
2168 14-08-2006 01:34:02 11 C 8.81 g/m*3 11 C 0 km/h
2169 14-08-2006 01:44:02 11.1 C 8.96 g/m*3 11.1 C 0 km/h
2170 14-08-2006 01:54:02 11 C 8.91 g/m*3 11 C 0 km/h
2171 14-08-2006 02:04:02 10.8 C 8.9 g/m*3 10.8 C 0 km/h
2172 14-08-2006 02:14:02 10.7 C 8.84 g/m*3 10.7 C 0 km/h
2173 14-08-2006 02:24:02 10.7 C 8.84 g/m*3 10.7 C 0 km/h
2174 14-08-2006 02:34:01 10.6 C 8.78 g/m*3 10.6 C 0 km/h
2175 14-08-2006 02:44:01 10.5 C 8.73 g/m*3 10.5 C 0 km/h
Sensor: Nr:Datum:Temp:Abs-Feuchte:Windchill:Wind:
Aussen-T/F 2176 14-08-2006 02:55:03 10.4 C 8.67 g/m*3 10.4 C 0 km/h
2177 14-08-2006 03:05:03 10.5 C 8.73 g/m*3 10.5 C 0 km/h
2178 14-08-2006 03:15:04 10.5 C 8.73 g/m*3 10.5 C 0 km/h
2179 14-08-2006 03:25:04 10.3 C 8.62 g/m*3 10.3 C 0 km/h
2180 14-08-2006 03:35:02 10.1 C 8.51 g/m*3 10.1 C 0 km/h
2181 14-08-2006 03:45:02 10.2 C 8.56 g/m*3 10.2 C 0 km/h
2182 14-08-2006 03:55:02 10.3 C 8.71 g/m*3 10.3 C 0 km/h
2183 14-08-2006 04:05:02 10.1 C 8.7 g/m*3 10.1 C 0 km/h
2184 14-08-2006 04:15:02 10.2 C 8.76 g/m*3 10.2 C 0 km/h
2185 14-08-2006 04:25:02 10.2 C 8.76 g/m*3 10.2 C 0 km/h
2186 14-08-2006 04:35:03 10.2 C 8.76 g/m*3 10.2 C 0 km/h
2187 14-08-2006 04:45:02 10.2 C 8.76 g/m*3 10.2 C 0 km/h
2188 14-08-2006 04:55:02 10.2 C 8.76 g/m*3 10.2 C 0 km/h
2189 14-08-2006 05:05:03 10.1 C 8.7 g/m*3 10.1 C 0 km/h
2190 14-08-2006 05:15:03 10.2 C 8.85 g/m*3 10.2 C 0 km/h
2191 14-08-2006 05:25:03 10.2 C 8.85 g/m*3 10.2 C 0 km/h
2192 14-08-2006 05:35:02 10.1 C 8.7 g/m*3 10.1 C 0 km/h
2193 14-08-2006 05:45:02 10 C 8.64 g/m*3 10 C 0 km/h
2194 14-08-2006 05:55:02 10 C 8.64 g/m*3 10 C 0 km/h
2195 14-08-2006 06:05:02 10.1 C 8.7 g/m*3 10.1 C 0 km/h
2196 14-08-2006 06:15:01 10.2 C 8.76 g/m*3 10.2 C 0 km/h
2197 14-08-2006 06:25:01 10.2 C 8.76 g/m*3 10.2 C 0 km/h
2198 14-08-2006 06:35:01 10.1 C 8.7 g/m*3 10.1 C 0 km/h
2199 14-08-2006 06:45:02 10.3 C 8.81 g/m*3 10.3 C 0 km/h
2200 14-08-2006 06:55:02 10.6 C 9.08 g/m*3 10.6 C 0 km/h
Sensor: Nr:Datum:Temp:Abs-Feuchte:Windchill:Wind:
Aussen-T/F 2201 14-08-2006 07:05:02 10.9 C 9.25 g/m*3 10.9 C 0 km/h
2202 14-08-2006 07:15:01 11.1 C 9.27 g/m*3 11.1 C 0 km/h
2203 14-08-2006 07:25:01 11.2 C 9.33 g/m*3 11.2 C 0 km/h
2204 14-08-2006 07:35:02 11.3 C 9.49 g/m*3 11.3 C 0 km/h
2205 14-08-2006 07:45:02 11.5 C 9.5 g/m*3 11.5 C 0 km/h
2206 14-08-2006 07:55:02 11.7 C 9.52 g/m*3 11.7 C 0 km/h
2207 14-08-2006 08:05:02 11.8 C 9.58 g/m*3 11.8 C 0 km/h
2208 14-08-2006 08:15:02 12 C 9.48 g/m*3 12 C 0 km/h
2209 14-08-2006 08:25:02 12 C 9.38 g/m*3 12 C 0 km/h
2210 14-08-2006 08:35:02 11.8 C 9.16 g/m*3 11.8 C 0 km/h
2211 14-08-2006 08:45:02 12 C 9.17 g/m*3 12 C 0 km/h
2212 14-08-2006 08:55:02 12.3 C 9.34 g/m*3 12.3 C 0 km/h
2213 14-08-2006 09:05:02 12.6 C 9.29 g/m*3 12.6 C 0 km/h
2214 14-08-2006 09:15:02 12.4 C 9.18 g/m*3 12.4 C 0 km/h
2215 14-08-2006 09:25:02 12.7 C 9.46 g/m*3 12.7 C 0 km/h
2216 14-08-2006 09:35:02 13 C 9.53 g/m*3 13 C 0 km/h
2217 14-08-2006 09:45:02 13.4 C 9.65 g/m*3 13.4 C 0 km/h
2218 14-08-2006 09:55:02 13.9 C 9.71 g/m*3 13.9 C 0 km/h
2219 14-08-2006 10:05:02 14.3 C 9.83 g/m*3 14.3 C 0 km/h
2220 14-08-2006 10:15:02 14.9 C 9.94 g/m*3 14.9 C 0 km/h
2221 14-08-2006 10:25:02 15.7 C 9.77 g/m*3 15.7 C 0 km/h
2222 14-08-2006 10:35:02 16.2 C 9.79 g/m*3 16.2 C 0 km/h
2223 14-08-2006 10:45:02 16.4 C 9.49 g/m*3 16.4 C 0 km/h
2224 14-08-2006 10:55:02 16.4 C 9.35 g/m*3 16.4 C 0 km/h
2225 14-08-2006 11:05:02 16.3 C 9.3 g/m*3 16.3 C 0 km/h
Sensor: Nr:Datum:Temp:Abs-Feuchte:Windchill:Wind:
Aussen-T/F 2226 14-08-2006 11:15:02 16.8 C 9.29 g/m*3 16.8 C 0 km/h
2227 14-08-2006 11:25:02 17.9 C 9.01 g/m*3 17.9 C 0 km/h
2228 14-08-2006 11:35:02 17.9 C 8.7 g/m*3 17.9 C 0 km/h
2229 14-08-2006 11:45:03 18.7 C 8.65 g/m*3 18.7 C 0 km/h
2230 14-08-2006 11:55:03 19 C 8.47 g/m*3 19 C 0 km/h
2231 14-08-2006 12:05:02 19.9 C 8.59 g/m*3 19.9 C 0 km/h
2232 14-08-2006 12:15:02 20 C 8.3 g/m*3 20 C 0 km/h
2233 14-08-2006 12:25:02 19.8 C 8.37 g/m*3 19.8 C 0 km/h
2234 14-08-2006 12:35:02 19.6 C 8.44 g/m*3 19.6 C 0 km/h
2235 14-08-2006 12:45:02 19.1 C 8.52 g/m*3 19.1 C 0 km/h
2236 14-08-2006 12:55:02 19 C 8.47 g/m*3 19 C 0 km/h
2237 14-08-2006 13:05:01 19.4 C 8.68 g/m*3 19.4 C 0 km/h
2238 14-08-2006 13:15:01 20 C 8.3 g/m*3 20 C 0 km/h
2239 14-08-2006 13:25:01 21 C 8.24 g/m*3 21 C 0 km/h
2240 14-08-2006 13:35:01 20.2 C 8.04 g/m*3 20.2 C 0 km/h
2241 14-08-2006 13:45:02 18.4 C 8.97 g/m*3 18.4 C 0 km/h
2242 14-08-2006 13:55:02 17 C 10.56 g/m*3 17 C 0 km/h
2243 14-08-2006 14:05:01 16.5 C 11.65 g/m*3 16.5 C 0 km/h
2244 14-08-2006 14:15:01 15.9 C 11.38 g/m*3 15.9 C 0 km/h
2245 14-08-2006 14:25:01 16.4 C 12 g/m*3 16.4 C 0 km/h
2246 14-08-2006 14:35:01 16.7 C 12.36 g/m*3 16.7 C 0 km/h
2247 14-08-2006 14:45:02 16.9 C 12.66 g/m*3 16.9 C 0 km/h
2248 14-08-2006 14:55:02 16.9 C 12.66 g/m*3 16.9 C 0 km/h
2249 14-08-2006 15:05:01 17.2 C 12.59 g/m*3 17.2 C 0 km/h
2250 14-08-2006 15:15:01 17.5 C 12.37 g/m*3 17.5 C 0 km/h
Sensor: Nr:Datum:Temp:Abs-Feuchte:Windchill:Wind:
Aussen-T/F 2251 14-08-2006 15:25:01 18.6 C 12.41 g/m*3 18.6 C 0 km/h
2252 14-08-2006 15:35:02 18.4 C 10.7 g/m*3 18.4 C 0 km/h
2253 14-08-2006 15:45:02 18.6 C 11.46 g/m*3 18.6 C 0 km/h
2254 14-08-2006 15:55:02 18.7 C 10.25 g/m*3 18.7 C 0 km/h
2255 14-08-2006 16:05:02 18.8 C 10.95 g/m*3 18.8 C 0 km/h
2256 14-08-2006 16:15:02 19.1 C 10.98 g/m*3 19.1 C 0 km/h
2257 14-08-2006 16:25:02 20.1 C 10.78 g/m*3 20.1 C 0 km/h
2258 14-08-2006 16:35:02 20.3 C 10.9 g/m*3 20.3 C 0 km/h
2259 14-08-2006 16:45:01 19.8 C 10.08 g/m*3 19.8 C 0 km/h
2260 14-08-2006 16:55:01 19.5 C 9.57 g/m*3 19.5 C 0 km/h
2261 14-08-2006 17:05:02 18.7 C 7.2 g/m*3 18.7 C 0 km/h
2262 14-08-2006 17:15:02 18.4 C 7.08 g/m*3 18.4 C 0 km/h
2263 14-08-2006 17:25:02 17.9 C 7.18 g/m*3 17.9 C 0 km/h
2264 14-08-2006 17:35:02 17.6 C 7.95 g/m*3 17.6 C 0 km/h
2265 14-08-2006 17:45:02 17.6 C 7.8 g/m*3 17.6 C 0 km/h
2266 14-08-2006 17:55:02 17.8 C 8.04 g/m*3 17.8 C 0 km/h
2267 14-08-2006 18:05:03 18.1 C 8.19 g/m*3 18.1 C 0 km/h
2268 14-08-2006 18:15:02 17.7 C 8.6 g/m*3 17.7 C 0 km/h
2269 14-08-2006 18:25:02 17 C 9.55 g/m*3 17 C 0 km/h
2270 14-08-2006 18:35:02 16 C 9.81 g/m*3 16 C 0 km/h
2271 14-08-2006 18:45:02 15.8 C 10.1 g/m*3 15.8 C 0 km/h
2272 14-08-2006 18:55:02 15.5 C 10.57 g/m*3 15.5 C 0 km/h
2273 14-08-2006 19:05:02 15.3 C 10.32 g/m*3 15.3 C 0 km/h
2274 14-08-2006 19:15:02 15.1 C 10.19 g/m*3 15.1 C 0 km/h
2275 14-08-2006 19:25:02 14.8 C 10.26 g/m*3 14.8 C 0 km/h
Sensor: Nr:Datum:Temp:Abs-Feuchte:Windchill:Wind:
Aussen-T/F 2276 14-08-2006 19:35:02 14.6 C 10.26 g/m*3 14.6 C 0 km/h
2277 14-08-2006 19:45:02 14.5 C 10.2 g/m*3 14.5 C 0 km/h
2278 14-08-2006 19:55:02 14.2 C 10.14 g/m*3 14.2 C 0 km/h
2279 14-08-2006 20:05:02 14 C 10.01 g/m*3 14 C 0 km/h
2280 14-08-2006 20:15:02 13.7 C 9.95 g/m*3 13.7 C 0 km/h
2281 14-08-2006 20:25:02 13.4 C 9.88 g/m*3 13.4 C 0 km/h
2282 14-08-2006 20:35:02 13.3 C 10.05 g/m*3 13.3 C 0 km/h
2283 14-08-2006 20:45:02 13.2 C 9.99 g/m*3 13.2 C 0 km/h
2284 14-08-2006 20:55:02 13.2 C 10.1 g/m*3 13.2 C 0 km/h
2285 14-08-2006 21:05:02 13.2 C 10.1 g/m*3 13.2 C 0 km/h
2286 14-08-2006 21:15:02 13.1 C 10.04 g/m*3 13.1 C 0 km/h
2287 14-08-2006 21:25:02 13.1 C 9.93 g/m*3 13.1 C 0 km/h
2288 14-08-2006 21:35:02 13.1 C 9.93 g/m*3 13.1 C 0 km/h
2289 14-08-2006 21:45:01 13.1 C 9.93 g/m*3 13.1 C 0 km/h
2290 14-08-2006 21:55:01 13.1 C 10.04 g/m*3 13.1 C 0 km/h
2291 14-08-2006 22:05:02 13.1 C 10.04 g/m*3 13.1 C 0 km/h
2292 14-08-2006 22:15:02 13.1 C 10.16 g/m*3 13.1 C 0 km/h
2293 14-08-2006 22:25:02 13.2 C 10.1 g/m*3 13.2 C 0 km/h
2294 14-08-2006 22:35:02 13.3 C 10.05 g/m*3 13.3 C 0 km/h
2295 14-08-2006 22:45:02 13.3 C 10.05 g/m*3 13.3 C 0 km/h
2296 14-08-2006 22:55:02 13.4 C 10.11 g/m*3 13.4 C 0 km/h
2297 14-08-2006 23:05:02 13.4 C 10.11 g/m*3 13.4 C 0 km/h
2298 14-08-2006 23:15:02 13.4 C 10.11 g/m*3 13.4 C 0 km/h
2299 14-08-2006 23:25:02 13.5 C 10.06 g/m*3 13.5 C 0 km/h
2300 14-08-2006 23:35:02 13.5 C 10.06 g/m*3 13.5 C 0 km/h
Sensor: Nr:Datum:Temp:Abs-Feuchte:Windchill:Wind:
Aussen-T/F 2301 14-08-2006 23:45:02 13.5 C 10.06 g/m*3 13.5 C 0 km/h
2302 14-08-2006 23:55:02 13.6 C 10.12 g/m*3 13.6 C 0 km/h
2303 15-08-2006 00:05:02 13.6 C 10.12 g/m*3 13.6 C 0 km/h
2304 15-08-2006 00:15:02 13.7 C 10.07 g/m*3 13.7 C 0 km/h
2305 15-08-2006 00:25:02 13.9 C 10.19 g/m*3 13.9 C 0 km/h
2306 15-08-2006 00:35:02 14 C 10.13 g/m*3 14 C 0 km/h
2307 15-08-2006 00:45:02 13.9 C 10.07 g/m*3 13.9 C 0 km/h
2308 15-08-2006 00:55:02 14 C 10.13 g/m*3 14 C 0 km/h
2309 15-08-2006 01:05:02 13.9 C 10.19 g/m*3 13.9 C 0 km/h
2310 15-08-2006 01:15:02 13.9 C 10.31 g/m*3 13.9 C 0 km/h
2311 15-08-2006 01:25:02 13.9 C 10.43 g/m*3 13.9 C 0 km/h
2312 15-08-2006 01:35:02 13.9 C 10.43 g/m*3 13.9 C 0 km/h
2313 15-08-2006 01:45:03 13.9 C 10.55 g/m*3 13.9 C 0 km/h
2314 15-08-2006 01:55:03 13.9 C 10.55 g/m*3 13.9 C 0 km/h
2315 15-08-2006 02:05:03 13.8 C 10.6 g/m*3 13.8 C 0 km/h
2316 15-08-2006 02:15:02 13.8 C 10.72 g/m*3 13.8 C 0 km/h
2317 15-08-2006 02:25:02 13.8 C 10.84 g/m*3 13.8 C 0 km/h
2318 15-08-2006 02:35:02 13.8 C 10.96 g/m*3 13.8 C 0 km/h
2319 15-08-2006 02:46:03 13.8 C 10.96 g/m*3 13.8 C 0 km/h
2320 15-08-2006 02:56:03 13.8 C 11.08 g/m*3 13.8 C 0 km/h
2321 15-08-2006 03:06:03 13.9 C 11.15 g/m*3 13.9 C 0 km/h
2322 15-08-2006 03:16:04 14 C 11.22 g/m*3 14 C 0 km/h
2323 15-08-2006 03:26:04 14 C 11.22 g/m*3 14 C 0 km/h
2324 15-08-2006 03:36:02 14.1 C 11.29 g/m*3 14.1 C 0 km/h
2325 15-08-2006 03:46:03 14.2 C 11.48 g/m*3 14.2 C 0 km/h
Sensor: Nr:Datum:Temp:Abs-Feuchte:Windchill:Wind:
Aussen-T/F 2326 15-08-2006 03:56:03 14.2 C 11.48 g/m*3 14.2 C 0 km/h
2327 15-08-2006 04:06:02 14.2 C 11.48 g/m*3 14.2 C 0 km/h
2328 15-08-2006 04:16:03 14.3 C 11.55 g/m*3 14.3 C 0 km/h
2329 15-08-2006 04:26:03 14.3 C 11.55 g/m*3 14.3 C 0 km/h
2330 15-08-2006 04:36:03 14.3 C 11.67 g/m*3 14.3 C 0 km/h
2331 15-08-2006 04:46:02 14.4 C 11.74 g/m*3 14.4 C 0 km/h
2332 15-08-2006 04:56:02 14.5 C 11.82 g/m*3 14.5 C 0 km/h
2333 15-08-2006 05:06:02 14.5 C 11.82 g/m*3 14.5 C 0 km/h
2334 15-08-2006 05:16:02 14.6 C 11.89 g/m*3 14.6 C 0 km/h
2335 15-08-2006 05:26:02 14.6 C 11.89 g/m*3 14.6 C 0 km/h
2336 15-08-2006 05:36:02 14.7 C 11.83 g/m*3 14.7 C 0 km/h
2337 15-08-2006 05:46:02 14.7 C 11.83 g/m*3 14.7 C 0 km/h
2338 15-08-2006 05:56:02 14.7 C 11.83 g/m*3 14.7 C 0 km/h
2339 15-08-2006 06:06:02 14.7 C 11.83 g/m*3 14.7 C 0 km/h
2340 15-08-2006 06:16:02 14.7 C 11.71 g/m*3 14.7 C 0 km/h
2341 15-08-2006 06:26:02 14.7 C 11.71 g/m*3 14.7 C 0 km/h
2342 15-08-2006 06:36:02 14.7 C 11.58 g/m*3 14.7 C 0 km/h
2343 15-08-2006 06:46:02 14.7 C 11.46 g/m*3 14.7 C 0 km/h
2344 15-08-2006 06:56:02 14.7 C 11.33 g/m*3 14.7 C 0 km/h
2345 15-08-2006 07:06:02 14.8 C 11.27 g/m*3 14.8 C 0 km/h
2346 15-08-2006 07:16:02 14.9 C 11.22 g/m*3 14.9 C 0 km/h
2347 15-08-2006 07:26:02 15 C 11.16 g/m*3 15 C 0 km/h
2348 15-08-2006 07:36:02 15 C 10.9 g/m*3 15 C 0 km/h
2349 15-08-2006 07:46:02 15 C 10.77 g/m*3 15 C 0 km/h
2350 15-08-2006 07:56:02 15 C 10.77 g/m*3 15 C 0 km/h
Sensor: Nr:Datum:Temp:Abs-Feuchte:Windchill:Wind:
Aussen-T/F 2351 15-08-2006 08:06:02 15 C 10.77 g/m*3 15 C 0 km/h
2352 15-08-2006 08:16:02 14.9 C 10.83 g/m*3 14.9 C 0 km/h
2353 15-08-2006 08:26:02 15 C 10.77 g/m*3 15 C 0 km/h
2354 15-08-2006 08:36:02 15 C 10.64 g/m*3 15 C 0 km/h
2355 15-08-2006 08:46:03 15 C 10.64 g/m*3 15 C 0 km/h
2356 15-08-2006 08:56:03 14.9 C 10.71 g/m*3 14.9 C 0 km/h
2357 15-08-2006 09:06:03 14.8 C 10.64 g/m*3 14.8 C 0 km/h
2358 15-08-2006 09:16:02 14.9 C 10.71 g/m*3 14.9 C 0 km/h
2359 15-08-2006 09:26:02 15 C 10.51 g/m*3 15 C 0 km/h
2360 15-08-2006 09:36:02 15 C 10.51 g/m*3 15 C 0 km/h
2361 15-08-2006 09:46:02 15 C 10.51 g/m*3 15 C 0 km/h
2362 15-08-2006 09:56:02 15.6 C 10.77 g/m*3 15.6 C 0 km/h
2363 15-08-2006 10:06:02 15.4 C 10.38 g/m*3 15.4 C 0 km/h
2364 15-08-2006 10:16:02 15.5 C 10.31 g/m*3 15.5 C 0 km/h
2365 15-08-2006 10:26:02 15.5 C 10.18 g/m*3 15.5 C 0 km/h
2366 15-08-2006 10:36:02 15.5 C 10.31 g/m*3 15.5 C 0 km/h
2367 15-08-2006 10:46:03 15.5 C 10.18 g/m*3 15.5 C 0 km/h
2368 15-08-2006 10:56:03 16.2 C 10.07 g/m*3 16.2 C 0 km/h
2369 15-08-2006 11:06:03 16.5 C 9.97 g/m*3 16.5 C 0 km/h
2370 15-08-2006 11:16:02 16.8 C 9.44 g/m*3 16.8 C 0 km/h
2371 15-08-2006 11:26:02 17.6 C 9.6 g/m*3 17.6 C 0 km/h
2372 15-08-2006 11:36:02 18 C 9.06 g/m*3 18 C 0 km/h
2373 15-08-2006 11:46:02 18.7 C 9.29 g/m*3 18.7 C 0 km/h
2374 15-08-2006 11:56:03 19.2 C 9.07 g/m*3 19.2 C 0 km/h
2375 15-08-2006 12:06:01 18.9 C 8.75 g/m*3 18.9 C 0 km/h
Sensor: Nr:Datum:Temp:Abs-Feuchte:Windchill:Wind:
Aussen-T/F 2376 15-08-2006 12:16:02 18.7 C 8.49 g/m*3 18.7 C 0 km/h
2377 15-08-2006 12:26:02 18.5 C 8.39 g/m*3 18.5 C 0 km/h
2378 15-08-2006 12:36:02 18.7 C 8.49 g/m*3 18.7 C 0 km/h
2379 15-08-2006 12:46:03 20.1 C 8.69 g/m*3 20.1 C 0 km/h
2380 15-08-2006 12:56:03 20.3 C 8.44 g/m*3 20.3 C 0 km/h
2381 15-08-2006 13:06:03 20.2 C 8.04 g/m*3 20.2 C 0 km/h
2382 15-08-2006 13:16:02 21 C 8.24 g/m*3 21 C 0 km/h
2383 15-08-2006 13:26:02 21.2 C 7.97 g/m*3 21.2 C 0 km/h
2384 15-08-2006 13:36:02 21.1 C 7.92 g/m*3 21.1 C 0 km/h
2385 15-08-2006 13:46:02 21 C 8.24 g/m*3 21 C 0 km/h
2386 15-08-2006 13:56:03 21.1 C 8.11 g/m*3 21.1 C 0 km/h
2387 15-08-2006 14:06:01 21.6 C 8.35 g/m*3 21.6 C 0 km/h
2388 15-08-2006 14:16:01 21.9 C 8.3 g/m*3 21.9 C 0 km/h
2389 15-08-2006 14:26:01 22.4 C 8.14 g/m*3 22.4 C 0 km/h
2390 15-08-2006 14:36:01 22.2 C 7.85 g/m*3 22.2 C 0 km/h
2391 15-08-2006 14:46:02 22.4 C 7.75 g/m*3 22.4 C 0 km/h
2392 15-08-2006 14:56:02 22.7 C 7.68 g/m*3 22.7 C 0 km/h
2393 15-08-2006 15:06:02 23 C 7.81 g/m*3 23 C 0 km/h
2394 15-08-2006 15:16:02 23.2 C 7.9 g/m*3 23.2 C 0 km/h
2395 15-08-2006 15:26:02 23.2 C 7.69 g/m*3 23.2 C 0 km/h
2396 15-08-2006 15:36:01 22.9 C 7.97 g/m*3 22.9 C 0 km/h
2397 15-08-2006 15:46:02 23 C 7.81 g/m*3 23 C 0 km/h
2398 15-08-2006 15:56:02 23.7 C 8.13 g/m*3 23.7 C 0 km/h
2399 15-08-2006 16:06:02 24 C 7.83 g/m*3 24 C 0 km/h
2400 15-08-2006 16:16:02 23.7 C 7.91 g/m*3 23.7 C 0 km/h
Sensor: Nr:Datum:Temp:Abs-Feuchte:Windchill:Wind:
Aussen-T/F 2401 15-08-2006 16:26:02 23.6 C 7.87 g/m*3 23.6 C 0 km/h
2402 15-08-2006 16:36:01 23.7 C 8.13 g/m*3 23.7 C 0 km/h
2403 15-08-2006 16:46:02 23.8 C 7.74 g/m*3 23.8 C 0 km/h
2404 15-08-2006 16:56:02 24.4 C 7.79 g/m*3 24.4 C 0 km/h
2405 15-08-2006 17:06:02 24.3 C 7.52 g/m*3 24.3 C 0 km/h
2406 15-08-2006 17:16:02 24.1 C 7.44 g/m*3 24.1 C 0 km/h
2407 15-08-2006 17:26:02 24.3 C 7.75 g/m*3 24.3 C 0 km/h
2408 15-08-2006 17:36:02 24.6 C 7.43 g/m*3 24.6 C 0 km/h
2409 15-08-2006 17:46:02 24.5 C 7.61 g/m*3 24.5 C 0 km/h
2410 15-08-2006 17:56:02 23.4 C 7.36 g/m*3 23.4 C 0 km/h
2411 15-08-2006 18:06:01 22.7 C 8.08 g/m*3 22.7 C 0 km/h
2412 15-08-2006 18:16:01 22.1 C 8 g/m*3 22.1 C 0 km/h
2413 15-08-2006 18:26:01 22.1 C 8.59 g/m*3 22.1 C 0 km/h
2414 15-08-2006 18:36:02 22.2 C 8.44 g/m*3 22.2 C 0 km/h
2415 15-08-2006 18:46:02 21.4 C 8.06 g/m*3 21.4 C 0 km/h
2416 15-08-2006 18:56:02 21.1 C 8.11 g/m*3 21.1 C 0 km/h
2417 15-08-2006 19:06:01 21.1 C 8.11 g/m*3 21.1 C 0 km/h
2418 15-08-2006 19:16:01 20.8 C 8.51 g/m*3 20.8 C 0 km/h
2419 15-08-2006 19:26:01 20.7 C 8.64 g/m*3 20.7 C 0 km/h
2420 15-08-2006 19:36:02 20.7 C 8.82 g/m*3 20.7 C 0 km/h
2421 15-08-2006 19:46:01 20.6 C 9.13 g/m*3 20.6 C 0 km/h
2422 15-08-2006 19:56:01 20.6 C 9.31 g/m*3 20.6 C 0 km/h
2423 15-08-2006 20:06:01 20.3 C 9.5 g/m*3 20.3 C 0 km/h
2424 15-08-2006 20:16:02 20 C 9.33 g/m*3 20 C 0 km/h
2425 15-08-2006 20:26:02 19.6 C 9.45 g/m*3 19.6 C 0 km/h
Sensor: Nr:Datum:Temp:Abs-Feuchte:Windchill:Wind:
Aussen-T/F 2426 15-08-2006 20:36:02 19.3 C 9.62 g/m*3 19.3 C 0 km/h
2427 15-08-2006 20:46:02 18.8 C 9.66 g/m*3 18.8 C 0 km/h
2428 15-08-2006 20:56:02 18.3 C 9.85 g/m*3 18.3 C 0 km/h
2429 15-08-2006 21:06:02 18 C 9.83 g/m*3 18 C 0 km/h
2430 15-08-2006 21:16:02 17.7 C 10.11 g/m*3 17.7 C 0 km/h
2431 15-08-2006 21:26:02 17.8 C 10.17 g/m*3 17.8 C 0 km/h
2432 15-08-2006 21:36:03 17.7 C 10.26 g/m*3 17.7 C 0 km/h
2433 15-08-2006 21:46:02 17.5 C 10.44 g/m*3 17.5 C 0 km/h
2434 15-08-2006 21:56:02 17.1 C 10.04 g/m*3 17.1 C 0 km/h
2435 15-08-2006 22:06:02 17 C 10.42 g/m*3 17 C 0 km/h
2436 15-08-2006 22:16:02 16.7 C 10.37 g/m*3 16.7 C 0 km/h
2437 15-08-2006 22:26:02 16.5 C 10.39 g/m*3 16.5 C 0 km/h
2438 15-08-2006 22:36:03 16.4 C 10.33 g/m*3 16.4 C 0 km/h
2439 15-08-2006 22:46:02 16.4 C 10.33 g/m*3 16.4 C 0 km/h
2440 15-08-2006 22:56:02 16.2 C 10.07 g/m*3 16.2 C 0 km/h
2441 15-08-2006 23:06:02 16 C 10.08 g/m*3 16 C 0 km/h
2442 15-08-2006 23:16:02 16 C 10.22 g/m*3 16 C 0 km/h
2443 15-08-2006 23:26:02 15.8 C 10.36 g/m*3 15.8 C 0 km/h
2444 15-08-2006 23:36:03 15.6 C 10.24 g/m*3 15.6 C 0 km/h
2445 15-08-2006 23:46:02 15.6 C 10.37 g/m*3 15.6 C 0 km/h
2446 15-08-2006 23:56:02 15.5 C 10.31 g/m*3 15.5 C 0 km/h
2447 16-08-2006 00:06:02 15.4 C 10.38 g/m*3 15.4 C 0 km/h
2448 16-08-2006 00:16:02 15.1 C 10.32 g/m*3 15.1 C 0 km/h
2449 16-08-2006 00:26:02 15.2 C 10.38 g/m*3 15.2 C 0 km/h
2450 16-08-2006 00:36:03 15 C 10.39 g/m*3 15 C 0 km/h
Sensor: Nr:Datum:Temp:Abs-Feuchte:Windchill:Wind:
Aussen-T/F 2451 16-08-2006 00:46:02 14.9 C 10.45 g/m*3 14.9 C 0 km/h
2452 16-08-2006 00:56:02 14.9 C 10.45 g/m*3 14.9 C 0 km/h
2453 16-08-2006 01:06:02 15 C 10.39 g/m*3 15 C 0 km/h
2454 16-08-2006 01:16:02 15 C 10.39 g/m*3 15 C 0 km/h
2455 16-08-2006 01:26:03 14.8 C 10.51 g/m*3 14.8 C 0 km/h
2456 16-08-2006 01:36:02 14.7 C 10.45 g/m*3 14.7 C 0 km/h
2457 16-08-2006 01:46:02 14.7 C 10.45 g/m*3 14.7 C 0 km/h
2458 16-08-2006 01:56:03 14.8 C 10.51 g/m*3 14.8 C 0 km/h
2459 16-08-2006 02:06:02 14.6 C 10.39 g/m*3 14.6 C 0 km/h
2460 16-08-2006 02:16:03 14.4 C 10.38 g/m*3 14.4 C 0 km/h
2461 16-08-2006 02:26:03 14.4 C 10.38 g/m*3 14.4 C 0 km/h
2462 16-08-2006 02:36:01 14.4 C 10.38 g/m*3 14.4 C 0 km/h
2463 16-08-2006 02:47:04 14.4 C 10.38 g/m*3 14.4 C 0 km/h
2464 16-08-2006 02:57:04 14.1 C 10.19 g/m*3 14.1 C 0 km/h
2465 16-08-2006 03:07:04 14 C 10.13 g/m*3 14 C 0 km/h
2466 16-08-2006 03:17:04 13.9 C 10.31 g/m*3 13.9 C 0 km/h
2467 16-08-2006 03:27:04 13.9 C 10.19 g/m*3 13.9 C 0 km/h
2468 16-08-2006 03:37:02 13.8 C 10.25 g/m*3 13.8 C 0 km/h
2469 16-08-2006 03:47:02 13.7 C 10.18 g/m*3 13.7 C 0 km/h
2470 16-08-2006 03:57:02 13.6 C 10.12 g/m*3 13.6 C 0 km/h
2471 16-08-2006 04:07:02 13.4 C 10 g/m*3 13.4 C 0 km/h
2472 16-08-2006 04:17:03 13.4 C 10 g/m*3 13.4 C 0 km/h
2473 16-08-2006 04:27:03 13.3 C 10.05 g/m*3 13.3 C 0 km/h
2474 16-08-2006 04:37:02 13.2 C 9.99 g/m*3 13.2 C 0 km/h
2475 16-08-2006 04:47:01 13.2 C 9.99 g/m*3 13.2 C 0 km/h
Sensor: Nr:Datum:Temp:Abs-Feuchte:Windchill:Wind:
Aussen-T/F 2476 16-08-2006 04:57:01 13.2 C 9.99 g/m*3 13.2 C 0 km/h
2477 16-08-2006 05:07:01 13.2 C 9.99 g/m*3 13.2 C 0 km/h
2478 16-08-2006 05:17:02 13.2 C 10.1 g/m*3 13.2 C 0 km/h
2479 16-08-2006 05:27:02 13.2 C 10.1 g/m*3 13.2 C 0 km/h
2480 16-08-2006 05:37:02 13.1 C 10.04 g/m*3 13.1 C 0 km/h
2481 16-08-2006 05:47:02 13 C 9.98 g/m*3 13 C 0 km/h
2482 16-08-2006 05:57:02 12.9 C 10.03 g/m*3 12.9 C 0 km/h
2483 16-08-2006 06:07:02 12.8 C 9.97 g/m*3 12.8 C 0 km/h
2484 16-08-2006 06:17:01 12.8 C 10.08 g/m*3 12.8 C 0 km/h
2485 16-08-2006 06:27:01 12.8 C 10.08 g/m*3 12.8 C 0 km/h
2486 16-08-2006 06:37:01 12.9 C 10.26 g/m*3 12.9 C 0 km/h
2487 16-08-2006 06:47:02 13 C 10.21 g/m*3 13 C 0 km/h
2488 16-08-2006 06:57:02 13 C 10.21 g/m*3 13 C 0 km/h
2489 16-08-2006 07:07:02 13 C 10.09 g/m*3 13 C 0 km/h
2490 16-08-2006 07:17:02 13.1 C 10.16 g/m*3 13.1 C 0 km/h
2491 16-08-2006 07:27:02 13.2 C 10.22 g/m*3 13.2 C 0 km/h
2492 16-08-2006 07:37:02 13.3 C 10.17 g/m*3 13.3 C 0 km/h
2493 16-08-2006 07:47:02 13.3 C 10.17 g/m*3 13.3 C 0 km/h
2494 16-08-2006 07:57:02 13.6 C 10.36 g/m*3 13.6 C 0 km/h
2495 16-08-2006 08:07:03 13.8 C 10.37 g/m*3 13.8 C 0 km/h
2496 16-08-2006 08:17:03 14.1 C 10.32 g/m*3 14.1 C 0 km/h
2497 16-08-2006 08:27:03 14.2 C 10.26 g/m*3 14.2 C 0 km/h
2498 16-08-2006 08:37:02 14.3 C 10.2 g/m*3 14.3 C 0 km/h
2499 16-08-2006 08:47:02 14.6 C 10.39 g/m*3 14.6 C 0 km/h
2500 16-08-2006 08:57:02 14.6 C 10.39 g/m*3 14.6 C 0 km/h
Sensor: Nr:Datum:Temp:Abs-Feuchte:Windchill:Wind:
Aussen-T/F 2501 16-08-2006 09:07:02 14.9 C 10.45 g/m*3 14.9 C 0 km/h
2502 16-08-2006 09:17:02 15 C 10.39 g/m*3 15 C 0 km/h
2503 16-08-2006 09:27:02 15.1 C 10.45 g/m*3 15.1 C 0 km/h
2504 16-08-2006 09:37:01 15.3 C 10.58 g/m*3 15.3 C 0 km/h
2505 16-08-2006 09:47:02 15.5 C 10.57 g/m*3 15.5 C 0 km/h
2506 16-08-2006 09:57:02 16.2 C 10.76 g/m*3 16.2 C 0 km/h
2507 16-08-2006 10:07:02 16.4 C 10.61 g/m*3 16.4 C 0 km/h
2508 16-08-2006 10:17:02 16.7 C 10.66 g/m*3 16.7 C 0 km/h
2509 16-08-2006 10:27:02 17.2 C 10.69 g/m*3 17.2 C 0 km/h
2510 16-08-2006 10:37:01 17.4 C 10.67 g/m*3 17.4 C 0 km/h
2511 16-08-2006 10:47:02 17.3 C 10.61 g/m*3 17.3 C 0 km/h
2512 16-08-2006 10:57:02 17.1 C 10.92 g/m*3 17.1 C 0 km/h
2513 16-08-2006 11:07:02 16.8 C 11.15 g/m*3 16.8 C 0 km/h
2514 16-08-2006 11:17:02 16.6 C 11.44 g/m*3 16.6 C 0 km/h
2515 16-08-2006 11:27:02 16.8 C 11.87 g/m*3 16.8 C 0 km/h
2516 16-08-2006 11:37:01 17.1 C 12.23 g/m*3 17.1 C 0 km/h
2517 16-08-2006 11:47:02 17.4 C 12.6 g/m*3 17.4 C 0 km/h
2518 16-08-2006 11:57:02 17.5 C 12.52 g/m*3 17.5 C 0 km/h
2519 16-08-2006 12:07:02 18 C 12.75 g/m*3 18 C 0 km/h
2520 16-08-2006 12:17:02 17.9 C 12.52 g/m*3 17.9 C 0 km/h
2521 16-08-2006 12:27:02 18 C 12.29 g/m*3 18 C 0 km/h
2522 16-08-2006 12:37:01 18.3 C 12.51 g/m*3 18.3 C 0 km/h
2523 16-08-2006 12:47:02 18.3 C 12.04 g/m*3 18.3 C 0 km/h
2524 16-08-2006 12:57:02 18.6 C 12.73 g/m*3 18.6 C 0 km/h
2525 16-08-2006 13:07:02 19.1 C 13.11 g/m*3 19.1 C 0 km/h
Sensor: Nr:Datum:Temp:Abs-Feuchte:Windchill:Wind:
Aussen-T/F 2526 16-08-2006 13:17:02 19.1 C 12.79 g/m*3 19.1 C 0 km/h
2527 16-08-2006 13:27:02 19.4 C 12.68 g/m*3 19.4 C 0 km/h
2528 16-08-2006 13:37:01 19.9 C 12.54 g/m*3 19.9 C 0 km/h
2529 16-08-2006 13:47:02 20.3 C 12.14 g/m*3 20.3 C 0 km/h
2530 16-08-2006 13:57:02 20.7 C 11.88 g/m*3 20.7 C 0 km/h
2531 16-08-2006 14:07:02 21.5 C 12.07 g/m*3 21.5 C 0 km/h
2532 16-08-2006 14:17:02 21.4 C 11.62 g/m*3 21.4 C 0 km/h
2533 16-08-2006 14:27:02 21.6 C 11.76 g/m*3 21.6 C 0 km/h
2534 16-08-2006 14:37:01 21.7 C 11.06 g/m*3 21.7 C 0 km/h
2535 16-08-2006 14:47:02 22.4 C 11.32 g/m*3 22.4 C 0 km/h
2536 16-08-2006 14:57:03 21.9 C 10.81 g/m*3 21.9 C 0 km/h
2537 16-08-2006 15:07:02 22.8 C 11.58 g/m*3 22.8 C 0 km/h
2538 16-08-2006 15:17:01 23.2 C 10.39 g/m*3 23.2 C 0 km/h
2539 16-08-2006 15:27:01 23.4 C 10.3 g/m*3 23.4 C 0 km/h
2540 16-08-2006 15:37:02 24.4 C 10.24 g/m*3 24.4 C 0 km/h
2541 16-08-2006 15:47:02 23.7 C 9.84 g/m*3 23.7 C 0 km/h
2542 16-08-2006 15:57:02 23.1 C 8.89 g/m*3 23.1 C 0 km/h
2543 16-08-2006 16:07:02 24.4 C 9.12 g/m*3 24.4 C 0 km/h
2544 16-08-2006 16:17:01 25.1 C 9.03 g/m*3 25.1 C 0 km/h
2545 16-08-2006 16:27:01 25.2 C 8.61 g/m*3 25.2 C 0 km/h
2546 16-08-2006 16:37:02 24.3 C 8.85 g/m*3 24.3 C 0 km/h
2547 16-08-2006 16:47:02 23.9 C 8.87 g/m*3 23.9 C 0 km/h
2548 16-08-2006 16:57:02 22.9 C 8.99 g/m*3 22.9 C 0 km/h
2549 16-08-2006 17:08:02 23.6 C 9.36 g/m*3 23.6 C 0 km/h
2550 16-08-2006 17:18:02 23.6 C 9.15 g/m*3 23.6 C 0 km/h
Sensor: Nr:Datum:Temp:Abs-Feuchte:Windchill:Wind:
Aussen-T/F 2551 16-08-2006 17:28:02 23.4 C 9.67 g/m*3 23.4 C 0 km/h
2552 16-08-2006 17:38:02 24.5 C 8.95 g/m*3 24.5 C 0 km/h
2553 16-08-2006 17:48:02 25.7 C 9.1 g/m*3 25.7 C 0 km/h
2554 16-08-2006 17:58:02 25.1 C 9.03 g/m*3 25.1 C 0 km/h
2555 16-08-2006 18:08:02 23.9 C 9.74 g/m*3 23.9 C 0 km/h
2556 16-08-2006 18:18:02 23.1 C 9.51 g/m*3 23.1 C 0 km/h
2557 16-08-2006 18:28:02 22.8 C 9.55 g/m*3 22.8 C 0 km/h
2558 16-08-2006 18:38:02 22.3 C 9.48 g/m*3 22.3 C 0 km/h
2559 16-08-2006 18:48:02 21.8 C 9.78 g/m*3 21.8 C 0 km/h
2560 16-08-2006 18:58:02 21.6 C 9.86 g/m*3 21.6 C 0 km/h
2561 16-08-2006 19:08:02 21.3 C 9.88 g/m*3 21.3 C 0 km/h
2562 16-08-2006 19:18:02 21.4 C 10.12 g/m*3 21.4 C 0 km/h
2563 16-08-2006 19:28:03 22 C 9.9 g/m*3 22 C 0 km/h
2564 16-08-2006 19:38:03 21.6 C 10.05 g/m*3 21.6 C 0 km/h
2565 16-08-2006 19:48:03 21.4 C 10.31 g/m*3 21.4 C 0 km/h
2566 16-08-2006 19:58:03 21.6 C 10.24 g/m*3 21.6 C 0 km/h
2567 16-08-2006 20:08:03 21.3 C 10.25 g/m*3 21.3 C 0 km/h
2568 16-08-2006 20:18:03 20.9 C 10.38 g/m*3 20.9 C 0 km/h
2569 16-08-2006 20:28:03 20.3 C 10.38 g/m*3 20.3 C 0 km/h
2570 16-08-2006 20:38:03 19.9 C 10.65 g/m*3 19.9 C 0 km/h
2571 16-08-2006 20:48:03 19.4 C 10.68 g/m*3 19.4 C 0 km/h
2572 16-08-2006 20:58:03 19.2 C 10.72 g/m*3 19.2 C 0 km/h
2573 16-08-2006 21:08:03 19 C 10.92 g/m*3 19 C 0 km/h
2574 16-08-2006 21:18:03 18.8 C 11.11 g/m*3 18.8 C 0 km/h
2575 16-08-2006 21:28:03 18.6 C 11.14 g/m*3 18.6 C 0 km/h
Sensor: Nr:Datum:Temp:Abs-Feuchte:Windchill:Wind:
Aussen-T/F 2576 16-08-2006 21:38:03 18.5 C 11.08 g/m*3 18.5 C 0 km/h
2577 16-08-2006 21:48:03 18.4 C 11.01 g/m*3 18.4 C 0 km/h
2578 16-08-2006 21:58:03 18.2 C 11.04 g/m*3 18.2 C 0 km/h
2579 16-08-2006 22:08:03 18.1 C 11.12 g/m*3 18.1 C 0 km/h
2580 16-08-2006 22:18:03 18 C 11.06 g/m*3 18 C 0 km/h
2581 16-08-2006 22:28:04 18 C 11.21 g/m*3 18 C 0 km/h
2582 16-08-2006 22:38:04 17.8 C 11.23 g/m*3 17.8 C 0 km/h
2583 16-08-2006 22:48:04 17.7 C 11.32 g/m*3 17.7 C 0 km/h
2584 16-08-2006 22:58:04 17.8 C 11.38 g/m*3 17.8 C 0 km/h
2585 16-08-2006 23:08:04 17.5 C 11.48 g/m*3 17.5 C 0 km/h
2586 16-08-2006 23:18:04 17.1 C 11.21 g/m*3 17.1 C 0 km/h
2587 16-08-2006 23:28:04 16.9 C 11.36 g/m*3 16.9 C 0 km/h
2588 16-08-2006 23:38:04 16.6 C 11.16 g/m*3 16.6 C 0 km/h
2589 16-08-2006 23:48:04 16.4 C 11.17 g/m*3 16.4 C 0 km/h
2590 16-08-2006 23:58:04 16.3 C 11.24 g/m*3 16.3 C 0 km/h
2591 17-08-2006 00:08:04 16.1 C 11.1 g/m*3 16.1 C 0 km/h
2592 17-08-2006 00:18:04 16.2 C 11.31 g/m*3 16.2 C 0 km/h
2593 17-08-2006 00:28:04 16.2 C 11.31 g/m*3 16.2 C 0 km/h
2594 17-08-2006 00:38:04 16.3 C 11.38 g/m*3 16.3 C 0 km/h
2595 17-08-2006 00:48:04 16.2 C 11.17 g/m*3 16.2 C 0 km/h
2596 17-08-2006 00:58:04 16 C 11.17 g/m*3 16 C 0 km/h
2597 17-08-2006 01:08:04 15.8 C 11.17 g/m*3 15.8 C 0 km/h
2598 17-08-2006 01:18:04 15.7 C 11.11 g/m*3 15.7 C 0 km/h
2599 17-08-2006 01:28:05 15.5 C 11.1 g/m*3 15.5 C 0 km/h
2600 17-08-2006 01:38:05 15.6 C 11.17 g/m*3 15.6 C 0 km/h
Sensor: Nr:Datum:Temp:Abs-Feuchte:Windchill:Wind:
Aussen-T/F 2601 17-08-2006 01:48:05 15.6 C 11.17 g/m*3 15.6 C 0 km/h
2602 17-08-2006 01:58:05 15.6 C 11.17 g/m*3 15.6 C 0 km/h
2603 17-08-2006 02:08:05 15.5 C 11.1 g/m*3 15.5 C 0 km/h
2604 17-08-2006 02:18:05 15.4 C 11.04 g/m*3 15.4 C 0 km/h
2605 17-08-2006 02:28:05 15.2 C 10.9 g/m*3 15.2 C 0 km/h
2606 17-08-2006 02:38:05 15.2 C 10.9 g/m*3 15.2 C 0 km/h
2607 17-08-2006 02:48:05 15.4 C 11.17 g/m*3 15.4 C 0 km/h
2608 17-08-2006 02:58:05 15.3 C 11.1 g/m*3 15.3 C 0 km/h
2609 17-08-2006 03:08:05 15.4 C 11.17 g/m*3 15.4 C 0 km/h
2610 17-08-2006 03:18:05 15.2 C 11.03 g/m*3 15.2 C 0 km/h
2611 17-08-2006 03:28:05 15.2 C 11.03 g/m*3 15.2 C 0 km/h
2612 17-08-2006 03:38:05 14.9 C 10.96 g/m*3 14.9 C 0 km/h
2613 17-08-2006 03:48:05 14.7 C 10.83 g/m*3 14.7 C 0 km/h
2614 17-08-2006 03:58:05 14.7 C 10.83 g/m*3 14.7 C 0 km/h
2615 17-08-2006 04:08:05 14.6 C 10.89 g/m*3 14.6 C 0 km/h
2616 17-08-2006 04:18:05 14.6 C 10.89 g/m*3 14.6 C 0 km/h
2617 17-08-2006 04:28:06 14.7 C 11.08 g/m*3 14.7 C 0 km/h
2618 17-08-2006 04:38:06 15 C 11.16 g/m*3 15 C 0 km/h
2619 17-08-2006 04:48:06 15.1 C 11.22 g/m*3 15.1 C 0 km/h
2620 17-08-2006 04:58:06 15.1 C 11.09 g/m*3 15.1 C 0 km/h
2621 17-08-2006 05:08:06 15 C 11.03 g/m*3 15 C 0 km/h
2622 17-08-2006 05:18:06 15 C 11.03 g/m*3 15 C 0 km/h
2623 17-08-2006 05:28:06 14.9 C 11.09 g/m*3 14.9 C 0 km/h
2624 17-08-2006 05:38:06 15 C 11.03 g/m*3 15 C 0 km/h
2625 17-08-2006 05:48:06 15 C 11.03 g/m*3 15 C 0 km/h
Sensor: Nr:Datum:Temp:Abs-Feuchte:Windchill:Wind:
Aussen-T/F 2626 17-08-2006 05:58:06 15 C 11.03 g/m*3 15 C 0 km/h
2627 17-08-2006 06:08:06 15 C 11.03 g/m*3 15 C 0 km/h
2628 17-08-2006 06:18:06 15.2 C 11.29 g/m*3 15.2 C 0 km/h
2629 17-08-2006 06:28:06 15.2 C 11.29 g/m*3 15.2 C 0 km/h
2630 17-08-2006 06:38:06 15 C 11.16 g/m*3 15 C 0 km/h
2631 17-08-2006 06:48:06 14.8 C 11.15 g/m*3 14.8 C 0 km/h
2632 17-08-2006 06:58:06 14.8 C 11.27 g/m*3 14.8 C 0 km/h
2633 17-08-2006 07:08:06 14.9 C 11.22 g/m*3 14.9 C 0 km/h
2634 17-08-2006 07:18:06 15 C 11.28 g/m*3 15 C 0 km/h
2635 17-08-2006 07:28:07 15.1 C 11.35 g/m*3 15.1 C 0 km/h
2636 17-08-2006 07:38:02 14.8 C 11.27 g/m*3 14.8 C 0 km/h
2637 17-08-2006 07:48:02 14.9 C 11.34 g/m*3 14.9 C 0 km/h
2638 17-08-2006 07:58:02 15.4 C 11.69 g/m*3 15.4 C 0 km/h
2639 17-08-2006 08:08:02 15.5 C 11.76 g/m*3 15.5 C 0 km/h
2640 17-08-2006 08:18:02 15.6 C 11.7 g/m*3 15.6 C 0 km/h
2641 17-08-2006 08:28:02 15.8 C 11.85 g/m*3 15.8 C 0 km/h
2642 17-08-2006 08:38:02 16.1 C 11.93 g/m*3 16.1 C 0 km/h
2643 17-08-2006 08:48:02 16.4 C 12 g/m*3 16.4 C 0 km/h
2644 17-08-2006 08:58:02 16.6 C 11.87 g/m*3 16.6 C 0 km/h
2645 17-08-2006 09:08:02 16.9 C 11.94 g/m*3 16.9 C 0 km/h
2646 17-08-2006 09:18:02 17.3 C 11.93 g/m*3 17.3 C 0 km/h
2647 17-08-2006 09:28:02 18 C 12.29 g/m*3 18 C 0 km/h
2648 17-08-2006 09:38:03 18.5 C 12.18 g/m*3 18.5 C 0 km/h
2649 17-08-2006 09:48:02 19 C 12.06 g/m*3 19 C 0 km/h
2650 17-08-2006 09:58:02 19.1 C 11.8 g/m*3 19.1 C 0 km/h
Sensor: Nr:Datum:Temp:Abs-Feuchte:Windchill:Wind:
Aussen-T/F 2651 17-08-2006 10:08:02 19.5 C 11.75 g/m*3 19.5 C 0 km/h
2652 17-08-2006 10:18:02 19.6 C 11.99 g/m*3 19.6 C 0 km/h
2653 17-08-2006 10:28:02 19.8 C 11.79 g/m*3 19.8 C 0 km/h
2654 17-08-2006 10:38:03 20.3 C 11.61 g/m*3 20.3 C 0 km/h
2655 17-08-2006 10:48:02 20.5 C 11.74 g/m*3 20.5 C 0 km/h
2656 17-08-2006 10:58:02 21 C 11.54 g/m*3 21 C 0 km/h
2657 17-08-2006 11:08:02 21.4 C 11.06 g/m*3 21.4 C 0 km/h
2658 17-08-2006 11:18:02 22.3 C 11.06 g/m*3 22.3 C 0 km/h
2659 17-08-2006 11:28:02 22.7 C 11.11 g/m*3 22.7 C 0 km/h
2660 17-08-2006 11:38:02 23.3 C 10.66 g/m*3 23.3 C 0 km/h
2661 17-08-2006 11:48:02 22.8 C 10.57 g/m*3 22.8 C 0 km/h
2662 17-08-2006 11:58:03 23.1 C 10.75 g/m*3 23.1 C 0 km/h
2663 17-08-2006 12:08:02 22.7 C 10.51 g/m*3 22.7 C 0 km/h
2664 17-08-2006 12:18:01 22.6 C 10.25 g/m*3 22.6 C 0 km/h
2665 17-08-2006 12:28:01 23.2 C 10.39 g/m*3 23.2 C 0 km/h
2666 17-08-2006 12:38:02 23.5 C 10.57 g/m*3 23.5 C 0 km/h
2667 17-08-2006 12:48:02 23.7 C 10.48 g/m*3 23.7 C 0 km/h
2668 17-08-2006 12:58:02 23.6 C 9.78 g/m*3 23.6 C 0 km/h
2669 17-08-2006 13:08:02 24 C 9.79 g/m*3 24 C 0 km/h
2670 17-08-2006 13:18:01 25.3 C 9.6 g/m*3 25.3 C 0 km/h
2671 17-08-2006 13:28:01 25.3 C 9.36 g/m*3 25.3 C 0 km/h
2672 17-08-2006 13:38:02 25.6 C 9.76 g/m*3 25.6 C 0 km/h
2673 17-08-2006 13:48:02 26.4 C 8.71 g/m*3 26.4 C 0 km/h
2674 17-08-2006 13:58:02 27 C 9.01 g/m*3 27 C 0 km/h
2675 17-08-2006 14:08:02 26.5 C 8.76 g/m*3 26.5 C 0 km/h
Sensor: Nr:Datum:Temp:Abs-Feuchte:Windchill:Wind:
Aussen-T/F 2676 17-08-2006 14:18:01 26.9 C 8.96 g/m*3 26.9 C 0 km/h
2677 17-08-2006 14:28:01 26.7 C 8.86 g/m*3 26.7 C 0 km/h
2678 17-08-2006 14:38:01 27 C 8.75 g/m*3 27 C 0 km/h
2679 17-08-2006 14:48:02 27.4 C 8.68 g/m*3 27.4 C 0 km/h
2680 17-08-2006 14:58:02 27.8 C 8.34 g/m*3 27.8 C 0 km/h
2681 17-08-2006 15:08:02 27.5 C 8.2 g/m*3 27.5 C 0 km/h
2682 17-08-2006 15:18:01 28.2 C 8.52 g/m*3 28.2 C 0 km/h
2683 17-08-2006 15:28:01 27.9 C 8.65 g/m*3 27.9 C 0 km/h
2684 17-08-2006 15:38:01 28.8 C 8.52 g/m*3 28.8 C 0 km/h
2685 17-08-2006 15:48:02 29.1 C 8.66 g/m*3 29.1 C 0 km/h
2686 17-08-2006 15:58:02 29.4 C 8.22 g/m*3 29.4 C 0 km/h
2687 17-08-2006 16:08:02 29.1 C 8.09 g/m*3 29.1 C 0 km/h
2688 17-08-2006 16:18:01 28.9 C 8.57 g/m*3 28.9 C 0 km/h
2689 17-08-2006 16:28:01 29 C 8.62 g/m*3 29 C 0 km/h
2690 17-08-2006 16:38:02 29.8 C 9 g/m*3 29.8 C 0 km/h
2691 17-08-2006 16:48:02 30.3 C 9.25 g/m*3 30.3 C 0 km/h
2692 17-08-2006 16:58:02 29.7 C 8.35 g/m*3 29.7 C 0 km/h
2693 17-08-2006 17:08:02 29.5 C 7.67 g/m*3 29.5 C 0 km/h
2694 17-08-2006 17:18:02 29.8 C 8.1 g/m*3 29.8 C 0 km/h
2695 17-08-2006 17:28:02 30.4 C 8.99 g/m*3 30.4 C 0 km/h
2696 17-08-2006 17:38:01 30.6 C 8.14 g/m*3 30.6 C 0 km/h
2697 17-08-2006 17:48:02 31 C 8.32 g/m*3 31 C 0 km/h
2698 17-08-2006 17:58:02 31 C 8 g/m*3 31 C 0 km/h
2699 17-08-2006 18:08:02 30.6 C 8.46 g/m*3 30.6 C 0 km/h
2700 17-08-2006 18:18:01 29.6 C 8.9 g/m*3 29.6 C 0 km/h
Sensor: Nr:Datum:Temp:Abs-Feuchte:Windchill:Wind:
Aussen-T/F 2701 17-08-2006 18:28:01 28.3 C 9.4 g/m*3 28.3 C 0 km/h
2702 17-08-2006 18:38:02 28.5 C 10.06 g/m*3 28.5 C 0 km/h
2703 17-08-2006 18:48:02 27.7 C 9.9 g/m*3 27.7 C 0 km/h
2704 17-08-2006 18:58:02 27.5 C 10.58 g/m*3 27.5 C 0 km/h
2705 17-08-2006 19:08:02 27.2 C 10.41 g/m*3 27.2 C 0 km/h
2706 17-08-2006 19:18:01 26.7 C 11.14 g/m*3 26.7 C 0 km/h
2707 17-08-2006 19:28:01 26.3 C 10.4 g/m*3 26.3 C 0 km/h
2708 17-08-2006 19:38:01 25.9 C 10.89 g/m*3 25.9 C 0 km/h
2709 17-08-2006 19:48:02 25.6 C 10.71 g/m*3 25.6 C 0 km/h
2710 17-08-2006 19:58:02 25.3 C 11 g/m*3 25.3 C 0 km/h
2711 17-08-2006 20:08:02 25 C 10.82 g/m*3 25 C 0 km/h
2712 17-08-2006 20:18:02 24.7 C 10.86 g/m*3 24.7 C 0 km/h
2713 17-08-2006 20:28:02 24.5 C 10.74 g/m*3 24.5 C 0 km/h
2714 17-08-2006 20:38:02 24.1 C 11.82 g/m*3 24.1 C 0 km/h
2715 17-08-2006 20:48:02 23.1 C 12.82 g/m*3 23.1 C 0 km/h
2716 17-08-2006 20:58:02 21.6 C 13.66 g/m*3 21.6 C 0 km/h
2717 17-08-2006 21:09:03 21.3 C 13.61 g/m*3 21.3 C 0 km/h
2718 17-08-2006 21:19:03 21 C 13.37 g/m*3 21 C 0 km/h
2719 17-08-2006 21:29:03 20.7 C 13.5 g/m*3 20.7 C 0 km/h
2720 17-08-2006 21:39:03 20.7 C 13.86 g/m*3 20.7 C 0 km/h
2721 17-08-2006 21:49:03 20.5 C 13.35 g/m*3 20.5 C 0 km/h
2722 17-08-2006 21:59:03 20.7 C 13.14 g/m*3 20.7 C 0 km/h
2723 17-08-2006 22:09:03 20.7 C 13.14 g/m*3 20.7 C 0 km/h
2724 17-08-2006 22:19:03 20.4 C 13.8 g/m*3 20.4 C 0 km/h
2725 17-08-2006 22:29:03 20.1 C 13.73 g/m*3 20.1 C 0 km/h
Sensor: Nr:Datum:Temp:Abs-Feuchte:Windchill:Wind:
Aussen-T/F 2726 17-08-2006 22:39:03 19.9 C 13.74 g/m*3 19.9 C 0 km/h
2727 17-08-2006 22:49:04 19.5 C 13.59 g/m*3 19.5 C 0 km/h
2728 17-08-2006 22:59:04 19.3 C 13.77 g/m*3 19.3 C 0 km/h
2729 17-08-2006 23:09:04 19.3 C 14.26 g/m*3 19.3 C 0 km/h
2730 17-08-2006 23:19:04 19.3 C 14.26 g/m*3 19.3 C 0 km/h
2731 17-08-2006 23:29:04 19.3 C 14.26 g/m*3 19.3 C 0 km/h
2732 17-08-2006 23:39:04 19.3 C 14.43 g/m*3 19.3 C 0 km/h
2733 17-08-2006 23:49:04 18.9 C 14.26 g/m*3 18.9 C 0 km/h
2734 17-08-2006 23:59:04 18.2 C 13.68 g/m*3 18.2 C 0 km/h
2735 18-08-2006 00:09:04 17.7 C 13.43 g/m*3 17.7 C 0 km/h
2736 18-08-2006 00:19:04 17.3 C 13.11 g/m*3 17.3 C 0 km/h
2737 18-08-2006 00:29:04 17.1 C 12.96 g/m*3 17.1 C 0 km/h
2738 18-08-2006 00:39:04 17 C 12.88 g/m*3 17 C 0 km/h
2739 18-08-2006 00:49:04 16.8 C 12.87 g/m*3 16.8 C 0 km/h
2740 18-08-2006 00:59:04 16.8 C 12.87 g/m*3 16.8 C 0 km/h
2741 18-08-2006 01:09:04 16.8 C 12.87 g/m*3 16.8 C 0 km/h
2742 18-08-2006 01:19:04 16.8 C 13.01 g/m*3 16.8 C 0 km/h
2743 18-08-2006 01:29:05 16.8 C 13.15 g/m*3 16.8 C 0 km/h
2744 18-08-2006 01:39:05 16.9 C 13.23 g/m*3 16.9 C 0 km/h
2745 18-08-2006 01:49:05 16.6 C 13 g/m*3 16.6 C 0 km/h
2746 18-08-2006 01:59:05 16.4 C 12.84 g/m*3 16.4 C 0 km/h
2747 18-08-2006 02:09:05 16.4 C 12.98 g/m*3 16.4 C 0 km/h
2748 18-08-2006 02:19:05 16.5 C 13.06 g/m*3 16.5 C 0 km/h
2749 18-08-2006 02:29:05 16.3 C 12.9 g/m*3 16.3 C 0 km/h
2750 18-08-2006 02:39:05 16.4 C 12.98 g/m*3 16.4 C 0 km/h
Sensor: Nr:Datum:Temp:Abs-Feuchte:Windchill:Wind:
Aussen-T/F 2751 18-08-2006 02:49:05 16.4 C 12.98 g/m*3 16.4 C 0 km/h
2752 18-08-2006 02:59:05 16.1 C 12.75 g/m*3 16.1 C 0 km/h
2753 18-08-2006 03:09:05 16 C 12.67 g/m*3 16 C 0 km/h
2754 18-08-2006 03:19:05 16 C 12.81 g/m*3 16 C 0 km/h
2755 18-08-2006 03:29:05 16.2 C 12.96 g/m*3 16.2 C 0 km/h
2756 18-08-2006 03:39:05 16.1 C 12.88 g/m*3 16.1 C 0 km/h
2757 18-08-2006 03:49:05 16.3 C 13.04 g/m*3 16.3 C 0 km/h
2758 18-08-2006 03:59:05 16.1 C 12.88 g/m*3 16.1 C 0 km/h
2759 18-08-2006 04:09:05 16 C 12.81 g/m*3 16 C 0 km/h
2760 18-08-2006 04:19:06 16.2 C 13.1 g/m*3 16.2 C 0 km/h
2761 18-08-2006 04:29:06 16.2 C 13.1 g/m*3 16.2 C 0 km/h
2762 18-08-2006 04:39:06 16.1 C 13.02 g/m*3 16.1 C 0 km/h
2763 18-08-2006 04:49:06 16.2 C 13.1 g/m*3 16.2 C 0 km/h
2764 18-08-2006 04:59:06 16.2 C 13.1 g/m*3 16.2 C 0 km/h
2765 18-08-2006 05:09:06 16.2 C 13.1 g/m*3 16.2 C 0 km/h
2766 18-08-2006 05:19:06 16.2 C 13.1 g/m*3 16.2 C 0 km/h
2767 18-08-2006 05:29:06 16.2 C 13.1 g/m*3 16.2 C 0 km/h
2768 18-08-2006 05:39:06 16.3 C 13.18 g/m*3 16.3 C 0 km/h
2769 18-08-2006 05:49:06 16.3 C 13.18 g/m*3 16.3 C 0 km/h
2770 18-08-2006 05:59:06 16.4 C 13.26 g/m*3 16.4 C 0 km/h
2771 18-08-2006 06:09:06 16.3 C 13.18 g/m*3 16.3 C 0 km/h
2772 18-08-2006 06:19:06 16.4 C 13.26 g/m*3 16.4 C 0 km/h
2773 18-08-2006 06:29:06 16.3 C 13.18 g/m*3 16.3 C 0 km/h
2774 18-08-2006 06:39:06 16.3 C 13.18 g/m*3 16.3 C 0 km/h
2775 18-08-2006 06:49:06 16.3 C 13.18 g/m*3 16.3 C 0 km/h
Sensor: Nr:Datum:Temp:Abs-Feuchte:Windchill:Wind:
Aussen-T/F 2776 18-08-2006 06:59:07 16.3 C 13.18 g/m*3 16.3 C 0 km/h
2777 18-08-2006 07:09:03 16.3 C 13.18 g/m*3 16.3 C 0 km/h
2778 18-08-2006 07:19:02 16.3 C 13.18 g/m*3 16.3 C 0 km/h
2779 18-08-2006 07:29:02 16.3 C 13.18 g/m*3 16.3 C 0 km/h
2780 18-08-2006 07:39:02 16.2 C 13.1 g/m*3 16.2 C 0 km/h
2781 18-08-2006 07:49:02 16.3 C 13.18 g/m*3 16.3 C 0 km/h
2782 18-08-2006 07:59:02 16.2 C 13.1 g/m*3 16.2 C 0 km/h
2783 18-08-2006 08:09:02 16.1 C 13.02 g/m*3 16.1 C 0 km/h
2784 18-08-2006 08:19:02 16.2 C 13.1 g/m*3 16.2 C 0 km/h
2785 18-08-2006 08:29:02 16.5 C 13.34 g/m*3 16.5 C 0 km/h
2786 18-08-2006 08:39:01 16.6 C 13.42 g/m*3 16.6 C 0 km/h
2787 18-08-2006 08:49:02 17.1 C 13.83 g/m*3 17.1 C 0 km/h
2788 18-08-2006 08:59:03 17 C 13.75 g/m*3 17 C 0 km/h
2789 18-08-2006 09:09:02 17.1 C 13.83 g/m*3 17.1 C 0 km/h
2790 18-08-2006 09:19:03 17.3 C 14 g/m*3 17.3 C 0 km/h
2791 18-08-2006 09:29:03 17.2 C 13.91 g/m*3 17.2 C 0 km/h
2792 18-08-2006 09:39:02 17.3 C 14 g/m*3 17.3 C 0 km/h
2793 18-08-2006 09:49:02 17.1 C 13.83 g/m*3 17.1 C 0 km/h
2794 18-08-2006 09:59:02 16.7 C 13.5 g/m*3 16.7 C 0 km/h
2795 18-08-2006 10:09:02 16.7 C 13.5 g/m*3 16.7 C 0 km/h
2796 18-08-2006 10:19:02 16.5 C 13.2 g/m*3 16.5 C 0 km/h
2797 18-08-2006 10:29:02 16.5 C 13.06 g/m*3 16.5 C 0 km/h
2798 18-08-2006 10:39:02 16.6 C 13.14 g/m*3 16.6 C 0 km/h
2799 18-08-2006 10:49:03 16.7 C 13.07 g/m*3 16.7 C 0 km/h
2800 18-08-2006 10:59:03 16.6 C 12.86 g/m*3 16.6 C 0 km/h
Sensor: Nr:Datum:Temp:Abs-Feuchte:Windchill:Wind:
Aussen-T/F 2801 18-08-2006 11:09:02 16.8 C 13.01 g/m*3 16.8 C 0 km/h
2802 18-08-2006 11:19:02 17.1 C 12.81 g/m*3 17.1 C 0 km/h
2803 18-08-2006 11:29:02 17.2 C 12.74 g/m*3 17.2 C 0 km/h
2804 18-08-2006 11:39:03 17.3 C 12.67 g/m*3 17.3 C 0 km/h
2805 18-08-2006 11:49:02 17.1 C 12.37 g/m*3 17.1 C 0 km/h
2806 18-08-2006 11:59:03 17.3 C 12.37 g/m*3 17.3 C 0 km/h
2807 18-08-2006 12:09:01 18.2 C 12.43 g/m*3 18.2 C 0 km/h
2808 18-08-2006 12:19:01 18.7 C 12.01 g/m*3 18.7 C 0 km/h
2809 18-08-2006 12:29:01 19 C 11.57 g/m*3 19 C 0 km/h
2810 18-08-2006 12:39:02 19.5 C 11.41 g/m*3 19.5 C 0 km/h
2811 18-08-2006 12:49:02 19.4 C 11.18 g/m*3 19.4 C 0 km/h
2812 18-08-2006 12:59:03 19.7 C 10.87 g/m*3 19.7 C 0 km/h
2813 18-08-2006 13:09:02 20.2 C 10.32 g/m*3 20.2 C 0 km/h
2814 18-08-2006 13:19:02 21.1 C 10.13 g/m*3 21.1 C 0 km/h
2815 18-08-2006 13:29:02 21.2 C 9.82 g/m*3 21.2 C 0 km/h
2816 18-08-2006 13:39:04 21.4 C 8.81 g/m*3 21.4 C 0 km/h
2817 18-08-2006 13:49:03 21.1 C 8.84 g/m*3 21.1 C 0 km/h
2818 18-08-2006 13:59:03 21.6 C 9.1 g/m*3 21.6 C 0 km/h
2819 18-08-2006 14:09:03 22.2 C 8.83 g/m*3 22.2 C 0 km/h
2820 18-08-2006 14:19:02 23 C 8.63 g/m*3 23 C 0 km/h
2821 18-08-2006 14:29:03 23.1 C 8.48 g/m*3 23.1 C 0 km/h
2822 18-08-2006 14:39:02 23.3 C 8.36 g/m*3 23.3 C 0 km/h
2823 18-08-2006 14:49:02 23.7 C 7.91 g/m*3 23.7 C 0 km/h
2824 18-08-2006 14:59:02 23.7 C 7.49 g/m*3 23.7 C 0 km/h
2825 18-08-2006 15:09:02 24 C 7.4 g/m*3 24 C 0 km/h
Sensor: Nr:Datum:Temp:Abs-Feuchte:Windchill:Wind:
Aussen-T/F 2826 18-08-2006 15:19:02 23.9 C 7.36 g/m*3 23.9 C 0 km/h
2827 18-08-2006 15:29:02 23.7 C 7.27 g/m*3 23.7 C 0 km/h
2828 18-08-2006 15:39:02 24.4 C 7.34 g/m*3 24.4 C 0 km/h
2829 18-08-2006 15:49:02 24.9 C 7.55 g/m*3 24.9 C 0 km/h
2830 18-08-2006 15:59:02 24.3 C 7.52 g/m*3 24.3 C 0 km/h
2831 18-08-2006 16:09:02 24.7 C 7.7 g/m*3 24.7 C 0 km/h
2832 18-08-2006 16:19:02 25 C 7.6 g/m*3 25 C 0 km/h
2833 18-08-2006 16:29:02 25.2 C 7.45 g/m*3 25.2 C 0 km/h
2834 18-08-2006 16:39:01 25 C 7.37 g/m*3 25 C 0 km/h
2835 18-08-2006 16:49:02 24.4 C 7.34 g/m*3 24.4 C 0 km/h
2836 18-08-2006 16:59:02 23.9 C 7.57 g/m*3 23.9 C 0 km/h
2837 18-08-2006 17:09:03 24.2 C 7.7 g/m*3 24.2 C 0 km/h
2838 18-08-2006 17:19:02 23.7 C 7.7 g/m*3 23.7 C 0 km/h
2839 18-08-2006 17:29:02 23.5 C 7.82 g/m*3 23.5 C 0 km/h
2840 18-08-2006 17:39:02 23.9 C 8 g/m*3 23.9 C 0 km/h
2841 18-08-2006 17:49:02 24.2 C 7.7 g/m*3 24.2 C 0 km/h
2842 18-08-2006 17:59:02 24.6 C 7.88 g/m*3 24.6 C 0 km/h
2843 18-08-2006 18:09:02 24.7 C 7.92 g/m*3 24.7 C 0 km/h
2844 18-08-2006 18:19:02 24.5 C 7.83 g/m*3 24.5 C 0 km/h
2845 18-08-2006 18:29:02 24.4 C 8.01 g/m*3 24.4 C 0 km/h
2846 18-08-2006 18:39:03 24.3 C 7.97 g/m*3 24.3 C 0 km/h
2847 18-08-2006 18:49:03 23.9 C 8.22 g/m*3 23.9 C 0 km/h
2848 18-08-2006 18:59:03 23.4 C 8.62 g/m*3 23.4 C 0 km/h
2849 18-08-2006 19:09:03 22.8 C 8.53 g/m*3 22.8 C 0 km/h
2850 18-08-2006 19:19:03 23.1 C 8.48 g/m*3 23.1 C 0 km/h
Sensor: Nr:Datum:Temp:Abs-Feuchte:Windchill:Wind:
Aussen-T/F 2851 18-08-2006 19:29:03 23.5 C 8.46 g/m*3 23.5 C 0 km/h
2852 18-08-2006 19:39:03 23.6 C 8.51 g/m*3 23.6 C 0 km/h
2853 18-08-2006 19:49:02 23.9 C 9.09 g/m*3 23.9 C 0 km/h
2854 18-08-2006 19:59:02 24.1 C 9.19 g/m*3 24.1 C 0 km/h
2855 18-08-2006 20:09:02 23.9 C 9.52 g/m*3 23.9 C 0 km/h
2856 18-08-2006 20:19:02 22.8 C 9.75 g/m*3 22.8 C 0 km/h
2857 18-08-2006 20:29:02 21.7 C 9.54 g/m*3 21.7 C 0 km/h
2858 18-08-2006 20:39:01 20.9 C 9.83 g/m*3 20.9 C 0 km/h
2859 18-08-2006 20:49:02 20.2 C 9.79 g/m*3 20.2 C 0 km/h
2860 18-08-2006 20:59:02 19.9 C 9.97 g/m*3 19.9 C 0 km/h
2861 18-08-2006 21:09:02 19.5 C 10.07 g/m*3 19.5 C 0 km/h
2862 18-08-2006 21:19:02 19.3 C 10.12 g/m*3 19.3 C 0 km/h
2863 18-08-2006 21:29:02 19 C 10.1 g/m*3 19 C 0 km/h
2864 18-08-2006 21:39:02 18.5 C 10.28 g/m*3 18.5 C 0 km/h
2865 18-08-2006 21:49:02 18.4 C 10.38 g/m*3 18.4 C 0 km/h
2866 18-08-2006 21:59:02 18.3 C 10.48 g/m*3 18.3 C 0 km/h
2867 18-08-2006 22:09:03 18.1 C 10.35 g/m*3 18.1 C 0 km/h
2868 18-08-2006 22:19:02 18.1 C 10.66 g/m*3 18.1 C 0 km/h
2869 18-08-2006 22:29:02 18 C 10.75 g/m*3 18 C 0 km/h
2870 18-08-2006 22:39:02 17.9 C 10.84 g/m*3 17.9 C 0 km/h
2871 18-08-2006 22:49:02 17.9 C 10.99 g/m*3 17.9 C 0 km/h
2872 18-08-2006 22:59:02 17.9 C 10.99 g/m*3 17.9 C 0 km/h
2873 18-08-2006 23:09:02 17.7 C 10.86 g/m*3 17.7 C 0 km/h
2874 18-08-2006 23:19:02 17.5 C 10.73 g/m*3 17.5 C 0 km/h
2875 18-08-2006 23:29:02 17.3 C 10.75 g/m*3 17.3 C 0 km/h
Sensor: Nr:Datum:Temp:Abs-Feuchte:Windchill:Wind:
Aussen-T/F 2876 18-08-2006 23:39:01 17.3 C 10.75 g/m*3 17.3 C 0 km/h
2877 18-08-2006 23:49:02 17.2 C 10.69 g/m*3 17.2 C 0 km/h
2878 18-08-2006 23:59:02 17.2 C 10.69 g/m*3 17.2 C 0 km/h
2879 19-08-2006 00:09:02 17.1 C 10.63 g/m*3 17.1 C 0 km/h
2880 19-08-2006 00:19:03 16.8 C 10.72 g/m*3 16.8 C 0 km/h
2881 19-08-2006 00:29:03 16.8 C 10.72 g/m*3 16.8 C 0 km/h
2882 19-08-2006 00:39:02 16.6 C 10.59 g/m*3 16.6 C 0 km/h
2883 19-08-2006 00:49:02 16.6 C 10.74 g/m*3 16.6 C 0 km/h
2884 19-08-2006 00:59:02 16.6 C 10.74 g/m*3 16.6 C 0 km/h
2885 19-08-2006 01:09:03 16.4 C 10.61 g/m*3 16.4 C 0 km/h
2886 19-08-2006 01:19:03 16.3 C 10.68 g/m*3 16.3 C 0 km/h
2887 19-08-2006 01:29:03 16.3 C 10.82 g/m*3 16.3 C 0 km/h
2888 19-08-2006 01:39:03 16.4 C 10.75 g/m*3 16.4 C 0 km/h
2889 19-08-2006 01:49:02 16.4 C 10.75 g/m*3 16.4 C 0 km/h
2890 19-08-2006 01:59:02 16.2 C 10.62 g/m*3 16.2 C 0 km/h
2891 19-08-2006 02:09:02 16.2 C 10.76 g/m*3 16.2 C 0 km/h
2892 19-08-2006 02:19:02 16 C 10.76 g/m*3 16 C 0 km/h
2893 19-08-2006 02:29:02 16 C 10.76 g/m*3 16 C 0 km/h
2894 19-08-2006 02:39:03 16 C 10.76 g/m*3 16 C 0 km/h
2895 19-08-2006 02:50:04 15.8 C 11.04 g/m*3 15.8 C 0 km/h
2896 19-08-2006 03:00:04 15.7 C 10.97 g/m*3 15.7 C 0 km/h
2897 19-08-2006 03:10:05 15.3 C 10.84 g/m*3 15.3 C 0 km/h
2898 19-08-2006 03:20:05 15.3 C 10.84 g/m*3 15.3 C 0 km/h
2899 19-08-2006 03:30:05 15.4 C 11.04 g/m*3 15.4 C 0 km/h
2900 19-08-2006 03:40:02 15.3 C 10.97 g/m*3 15.3 C 0 km/h
Sensor: Nr:Datum:Temp:Abs-Feuchte:Windchill:Wind:
Aussen-T/F 2901 19-08-2006 03:50:02 15.2 C 10.77 g/m*3 15.2 C 0 km/h
2902 19-08-2006 04:00:02 14.9 C 10.45 g/m*3 14.9 C 0 km/h
2903 19-08-2006 04:10:03 15 C 10.51 g/m*3 15 C 0 km/h
2904 19-08-2006 04:20:02 15.5 C 10.97 g/m*3 15.5 C 0 km/h
2905 19-08-2006 04:30:02 14.7 C 10.45 g/m*3 14.7 C 0 km/h
2906 19-08-2006 04:40:02 14.6 C 10.39 g/m*3 14.6 C 0 km/h
2907 19-08-2006 04:50:02 14.5 C 10.45 g/m*3 14.5 C 0 km/h
2908 19-08-2006 05:00:02 14.4 C 10.51 g/m*3 14.4 C 0 km/h
2909 19-08-2006 05:10:02 14.3 C 10.44 g/m*3 14.3 C 0 km/h
2910 19-08-2006 05:20:02 14.2 C 10.38 g/m*3 14.2 C 0 km/h
2911 19-08-2006 05:30:02 14.1 C 10.32 g/m*3 14.1 C 0 km/h
2912 19-08-2006 05:40:02 14 C 10.37 g/m*3 14 C 0 km/h
2913 19-08-2006 05:50:01 13.9 C 10.31 g/m*3 13.9 C 0 km/h
2914 19-08-2006 06:00:01 13.8 C 10.25 g/m*3 13.8 C 0 km/h
2915 19-08-2006 06:10:02 13.7 C 10.3 g/m*3 13.7 C 0 km/h
2916 19-08-2006 06:20:02 13.7 C 10.42 g/m*3 13.7 C 0 km/h
2917 19-08-2006 06:30:02 13.6 C 10.36 g/m*3 13.6 C 0 km/h
2918 19-08-2006 06:40:02 13.6 C 10.36 g/m*3 13.6 C 0 km/h
2919 19-08-2006 06:50:03 13.7 C 10.54 g/m*3 13.7 C 0 km/h
2920 19-08-2006 07:00:03 14 C 10.61 g/m*3 14 C 0 km/h
2921 19-08-2006 07:10:03 13.9 C 10.55 g/m*3 13.9 C 0 km/h
2922 19-08-2006 07:20:03 14.1 C 10.68 g/m*3 14.1 C 0 km/h
2923 19-08-2006 07:30:03 14.2 C 10.62 g/m*3 14.2 C 0 km/h
2924 19-08-2006 07:40:02 14.4 C 10.75 g/m*3 14.4 C 0 km/h
2925 19-08-2006 07:50:02 14.7 C 10.95 g/m*3 14.7 C 0 km/h
Sensor: Nr:Datum:Temp:Abs-Feuchte:Windchill:Wind:
Aussen-T/F 2926 19-08-2006 08:00:02 14.9 C 10.96 g/m*3 14.9 C 0 km/h
2927 19-08-2006 08:10:02 14.9 C 10.83 g/m*3 14.9 C 0 km/h
2928 19-08-2006 08:20:02 14.9 C 10.96 g/m*3 14.9 C 0 km/h
2929 19-08-2006 08:30:02 14.9 C 10.96 g/m*3 14.9 C 0 km/h
2930 19-08-2006 08:40:02 15.3 C 11.1 g/m*3 15.3 C 0 km/h
2931 19-08-2006 08:50:02 15.5 C 11.24 g/m*3 15.5 C 0 km/h
2932 19-08-2006 09:00:02 16.1 C 11.24 g/m*3 16.1 C 0 km/h
2933 19-08-2006 09:10:03 16.3 C 11.1 g/m*3 16.3 C 0 km/h
2934 19-08-2006 09:20:02 16.4 C 10.89 g/m*3 16.4 C 0 km/h
2935 19-08-2006 09:30:02 16.8 C 11.01 g/m*3 16.8 C 0 km/h
2936 19-08-2006 09:40:02 17.5 C 10.88 g/m*3 17.5 C 0 km/h
2937 19-08-2006 09:50:03 18.1 C 10.51 g/m*3 18.1 C 0 km/h
2938 19-08-2006 10:00:03 18.5 C 10.44 g/m*3 18.5 C 0 km/h
2939 19-08-2006 10:10:03 18.8 C 10.31 g/m*3 18.8 C 0 km/h
2940 19-08-2006 10:20:02 19.2 C 10.55 g/m*3 19.2 C 0 km/h
2941 19-08-2006 10:30:02 19.8 C 10.25 g/m*3 19.8 C 0 km/h
2942 19-08-2006 10:40:02 20.6 C 10.56 g/m*3 20.6 C 0 km/h
2943 19-08-2006 10:50:02 21.6 C 10.81 g/m*3 21.6 C 0 km/h
2944 19-08-2006 11:00:02 21.5 C 10.94 g/m*3 21.5 C 0 km/h
2945 19-08-2006 11:10:02 21.6 C 11.38 g/m*3 21.6 C 0 km/h
2946 19-08-2006 11:20:01 22.5 C 11.39 g/m*3 22.5 C 0 km/h
2947 19-08-2006 11:30:01 23.1 C 11.37 g/m*3 23.1 C 0 km/h
2948 19-08-2006 11:40:01 23.6 C 11.7 g/m*3 23.6 C 0 km/h
2949 19-08-2006 11:50:02 24 C 9.79 g/m*3 24 C 0 km/h
2950 19-08-2006 12:00:02 24.7 C 9.73 g/m*3 24.7 C 0 km/h
Sensor: Nr:Datum:Temp:Abs-Feuchte:Windchill:Wind:
Aussen-T/F 2951 19-08-2006 12:10:02 25.3 C 9.13 g/m*3 25.3 C 0 km/h
2952 19-08-2006 12:20:02 24.9 C 8.7 g/m*3 24.9 C 0 km/h
2953 19-08-2006 12:30:02 25.4 C 8.95 g/m*3 25.4 C 0 km/h
2954 19-08-2006 12:40:01 25.8 C 9.15 g/m*3 25.8 C 0 km/h
2955 19-08-2006 12:50:02 25.5 C 7.58 g/m*3 25.5 C 0 km/h
2956 19-08-2006 13:00:02 25.7 C 7.42 g/m*3 25.7 C 0 km/h
2957 19-08-2006 13:10:02 25.9 C 7.51 g/m*3 25.9 C 0 km/h
2958 19-08-2006 13:20:02 26.3 C 7.18 g/m*3 26.3 C 0 km/h
2959 19-08-2006 13:30:02 27.3 C 7.06 g/m*3 27.3 C 0 km/h
2960 19-08-2006 13:40:01 26.8 C 7.13 g/m*3 26.8 C 0 km/h
2961 19-08-2006 13:50:02 26.4 C 7.97 g/m*3 26.4 C 0 km/h
2962 19-08-2006 14:00:02 26.3 C 7.92 g/m*3 26.3 C 0 km/h
2963 19-08-2006 14:10:02 27.4 C 7.63 g/m*3 27.4 C 0 km/h
2964 19-08-2006 14:20:02 27.7 C 9.09 g/m*3 27.7 C 0 km/h
2965 19-08-2006 14:30:02 27.7 C 7.22 g/m*3 27.7 C 0 km/h
2966 19-08-2006 14:40:02 26.5 C 7.01 g/m*3 26.5 C 0 km/h
2967 19-08-2006 14:50:02 27.2 C 8.85 g/m*3 27.2 C 0 km/h
2968 19-08-2006 15:00:03 27.8 C 8.07 g/m*3 27.8 C 0 km/h
2969 19-08-2006 15:10:02 28.5 C 7.27 g/m*3 28.5 C 0 km/h
2970 19-08-2006 15:20:02 28.4 C 6.95 g/m*3 28.4 C 0 km/h
2971 19-08-2006 15:30:02 28.4 C 6.95 g/m*3 28.4 C 0 km/h
2972 19-08-2006 15:40:02 28.9 C 7.14 g/m*3 28.9 C 0 km/h
2973 19-08-2006 15:50:01 28.8 C 7.1 g/m*3 28.8 C 0 km/h
2974 19-08-2006 16:00:01 28.8 C 7.1 g/m*3 28.8 C 0 km/h
2975 19-08-2006 16:10:02 28.5 C 6.99 g/m*3 28.5 C 0 km/h
Sensor: Nr:Datum:Temp:Abs-Feuchte:Windchill:Wind:
Aussen-T/F 2976 19-08-2006 16:20:03 29.3 C 7.01 g/m*3 29.3 C 0 km/h
2977 19-08-2006 16:30:03 29.5 C 7.67 g/m*3 29.5 C 0 km/h
2978 19-08-2006 16:40:01 27.7 C 6.95 g/m*3 27.7 C 0 km/h
2979 19-08-2006 16:50:01 21.6 C 5.12 g/m*3 21.6 C 0 km/h
2980 19-08-2006 17:00:01 17.8 C 11.84 g/m*3 17.8 C 0 km/h
2981 19-08-2006 17:10:02 16.9 C 11.94 g/m*3 16.9 C 0 km/h
2982 19-08-2006 17:20:40 16.9 C 12.66 g/m*3 16.9 C 0 km/h
2983 19-08-2006 17:30:02 16.9 C 12.8 g/m*3 16.9 C 0 km/h
2984 19-08-2006 17:40:02 17.1 C 13.1 g/m*3 17.1 C 0 km/h
2985 19-08-2006 17:50:07 17.4 C 13.19 g/m*3 17.4 C 0 km/h
2986 19-08-2006 18:00:03 17.1 C 12.96 g/m*3 17.1 C 0 km/h
2987 19-08-2006 18:10:03 16.9 C 12.94 g/m*3 16.9 C 0 km/h
2988 19-08-2006 18:20:02 16.9 C 13.09 g/m*3 16.9 C 0 km/h
2989 19-08-2006 18:30:02 17 C 13.17 g/m*3 17 C 0 km/h
2990 19-08-2006 18:40:02 17.4 C 13.49 g/m*3 17.4 C 0 km/h
2991 19-08-2006 18:50:02 18 C 13.98 g/m*3 18 C 0 km/h
2992 19-08-2006 19:00:02 18.6 C 14.48 g/m*3 18.6 C 0 km/h
2993 19-08-2006 19:10:02 18.7 C 14.57 g/m*3 18.7 C 0 km/h
2994 19-08-2006 19:20:02 18.1 C 13.75 g/m*3 18.1 C 0 km/h
2995 19-08-2006 19:30:02 18.1 C 13.75 g/m*3 18.1 C 0 km/h
2996 19-08-2006 19:40:02 18 C 13.52 g/m*3 18 C 0 km/h
2997 19-08-2006 19:50:02 17.9 C 13.59 g/m*3 17.9 C 0 km/h
2998 19-08-2006 20:00:03 18.4 C 14 g/m*3 18.4 C 0 km/h
2999 19-08-2006 20:10:02 18.8 C 14.17 g/m*3 18.8 C 0 km/h
3000 19-08-2006 20:20:02 18.6 C 13.85 g/m*3 18.6 C 0 km/h
Sensor: Nr:Datum:Temp:Abs-Feuchte:Windchill:Wind:
Aussen-T/F 3001 19-08-2006 20:30:02 18.3 C 13.6 g/m*3 18.3 C 0 km/h
3002 19-08-2006 20:40:03 17.8 C 13.05 g/m*3 17.8 C 0 km/h
3003 19-08-2006 20:50:02 17.5 C 12.67 g/m*3 17.5 C 0 km/h
3004 19-08-2006 21:00:02 17.1 C 12.52 g/m*3 17.1 C 0 km/h
3005 19-08-2006 21:10:02 16.9 C 12.51 g/m*3 16.9 C 0 km/h
3006 19-08-2006 21:20:02 16.7 C 12.51 g/m*3 16.7 C 0 km/h
3007 19-08-2006 21:30:02 16.6 C 12.57 g/m*3 16.6 C 0 km/h
3008 19-08-2006 21:40:03 16.4 C 12.42 g/m*3 16.4 C 0 km/h
3009 19-08-2006 21:50:02 16.2 C 12.27 g/m*3 16.2 C 0 km/h
3010 19-08-2006 22:00:02 16.1 C 12.2 g/m*3 16.1 C 0 km/h
3011 19-08-2006 22:10:02 15.9 C 12.19 g/m*3 15.9 C 0 km/h
3012 19-08-2006 22:20:02 16 C 12.26 g/m*3 16 C 0 km/h
3013 19-08-2006 22:30:02 16 C 12.4 g/m*3 16 C 0 km/h
3014 19-08-2006 22:40:02 16 C 12.4 g/m*3 16 C 0 km/h
3015 19-08-2006 22:50:02 16.1 C 12.47 g/m*3 16.1 C 0 km/h
3016 19-08-2006 23:00:02 16 C 12.4 g/m*3 16 C 0 km/h
3017 19-08-2006 23:10:02 16 C 12.4 g/m*3 16 C 0 km/h
3018 19-08-2006 23:20:02 16 C 12.4 g/m*3 16 C 0 km/h
3019 19-08-2006 23:30:02 16.1 C 12.47 g/m*3 16.1 C 0 km/h
3020 19-08-2006 23:40:02 15.9 C 12.46 g/m*3 15.9 C 0 km/h
3021 19-08-2006 23:51:02 15.9 C 12.46 g/m*3 15.9 C 0 km/h
3022 20-08-2006 00:01:02 15.8 C 12.38 g/m*3 15.8 C 0 km/h
3023 20-08-2006 00:11:02 15.7 C 12.31 g/m*3 15.7 C 0 km/h
3024 20-08-2006 00:21:02 15.5 C 12.16 g/m*3 15.5 C 0 km/h
3025 20-08-2006 00:31:02 15.5 C 12.16 g/m*3 15.5 C 0 km/h
Sensor: Nr:Datum:Temp:Abs-Feuchte:Windchill:Wind:
Aussen-T/F 3026 20-08-2006 00:41:03 15.4 C 12.09 g/m*3 15.4 C 0 km/h
3027 20-08-2006 00:51:03 15.5 C 12.16 g/m*3 15.5 C 0 km/h
3028 20-08-2006 01:01:03 15.3 C 12.01 g/m*3 15.3 C 0 km/h
3029 20-08-2006 01:11:03 15.5 C 12.16 g/m*3 15.5 C 0 km/h
3030 20-08-2006 01:21:03 15.4 C 12.09 g/m*3 15.4 C 0 km/h
3031 20-08-2006 01:31:03 15.5 C 12.16 g/m*3 15.5 C 0 km/h
3032 20-08-2006 01:41:03 15.1 C 11.87 g/m*3 15.1 C 0 km/h
3033 20-08-2006 01:51:03 15.2 C 11.94 g/m*3 15.2 C 0 km/h
3034 20-08-2006 02:01:03 15.1 C 11.87 g/m*3 15.1 C 0 km/h
3035 20-08-2006 02:11:03 15.2 C 12.07 g/m*3 15.2 C 0 km/h
3036 20-08-2006 02:21:03 15.2 C 12.07 g/m*3 15.2 C 0 km/h
3037 20-08-2006 02:31:03 14.8 C 11.91 g/m*3 14.8 C 0 km/h
3038 20-08-2006 02:41:03 15.7 C 12.44 g/m*3 15.7 C 0 km/h
3039 20-08-2006 02:51:03 15.2 C 12.07 g/m*3 15.2 C 0 km/h
3040 20-08-2006 03:01:03 15.1 C 12 g/m*3 15.1 C 0 km/h
3041 20-08-2006 03:11:03 15 C 11.93 g/m*3 15 C 0 km/h
3042 20-08-2006 03:21:03 15 C 11.93 g/m*3 15 C 0 km/h
3043 20-08-2006 03:31:04 15 C 11.93 g/m*3 15 C 0 km/h
3044 20-08-2006 03:41:04 15 C 11.93 g/m*3 15 C 0 km/h
3045 20-08-2006 03:51:04 15 C 11.93 g/m*3 15 C 0 km/h
3046 20-08-2006 04:01:04 15 C 11.93 g/m*3 15 C 0 km/h
3047 20-08-2006 04:11:04 15 C 11.93 g/m*3 15 C 0 km/h
3048 20-08-2006 04:21:04 15 C 11.93 g/m*3 15 C 0 km/h
3049 20-08-2006 04:31:04 15 C 11.93 g/m*3 15 C 0 km/h
3050 20-08-2006 04:41:04 14.7 C 11.83 g/m*3 14.7 C 0 km/h
Sensor: Nr:Datum:Temp:Abs-Feuchte:Windchill:Wind:
Aussen-T/F 3051 20-08-2006 04:51:04 14.8 C 11.91 g/m*3 14.8 C 0 km/h
3052 20-08-2006 05:01:04 14.6 C 11.76 g/m*3 14.6 C 0 km/h
3053 20-08-2006 05:11:04 14.6 C 11.76 g/m*3 14.6 C 0 km/h
3054 20-08-2006 05:21:04 14.8 C 11.91 g/m*3 14.8 C 0 km/h
3055 20-08-2006 05:31:04 15 C 11.93 g/m*3 15 C 0 km/h
3056 20-08-2006 05:41:04 15 C 11.93 g/m*3 15 C 0 km/h
3057 20-08-2006 05:51:04 15.1 C 12 g/m*3 15.1 C 0 km/h
3058 20-08-2006 06:01:04 15.4 C 12.09 g/m*3 15.4 C 0 km/h
3059 20-08-2006 06:11:04 15.3 C 11.88 g/m*3 15.3 C 0 km/h
3060 20-08-2006 06:21:04 15.3 C 11.75 g/m*3 15.3 C 0 km/h
3061 20-08-2006 06:31:05 15.6 C 11.84 g/m*3 15.6 C 0 km/h
3062 20-08-2006 06:41:05 15.8 C 11.58 g/m*3 15.8 C 0 km/h
3063 20-08-2006 06:51:05 15.8 C 11.31 g/m*3 15.8 C 0 km/h
3064 20-08-2006 07:01:05 15.7 C 11.11 g/m*3 15.7 C 0 km/h
3065 20-08-2006 07:11:05 15.9 C 11.1 g/m*3 15.9 C 0 km/h
3066 20-08-2006 07:21:05 16.2 C 11.03 g/m*3 16.2 C 0 km/h
3067 20-08-2006 07:31:05 16.4 C 11.03 g/m*3 16.4 C 0 km/h
3068 20-08-2006 07:41:05 16.3 C 11.1 g/m*3 16.3 C 0 km/h
3069 20-08-2006 07:51:05 16.2 C 11.03 g/m*3 16.2 C 0 km/h
3070 20-08-2006 08:01:05 16.5 C 10.95 g/m*3 16.5 C 0 km/h
3071 20-08-2006 08:11:05 16.5 C 10.81 g/m*3 16.5 C 0 km/h
3072 20-08-2006 08:21:02 16.6 C 10.74 g/m*3 16.6 C 0 km/h
3073 20-08-2006 08:31:02 16.7 C 10.8 g/m*3 16.7 C 0 km/h
3074 20-08-2006 08:41:03 16.8 C 10.87 g/m*3 16.8 C 0 km/h
3075 20-08-2006 08:51:02 16.9 C 10.93 g/m*3 16.9 C 0 km/h
Sensor: Nr:Datum:Temp:Abs-Feuchte:Windchill:Wind:
Aussen-T/F 3076 20-08-2006 09:01:02 17 C 10.71 g/m*3 17 C 0 km/h
3077 20-08-2006 09:11:02 17.2 C 10.69 g/m*3 17.2 C 0 km/h
3078 20-08-2006 09:21:02 17.9 C 10.99 g/m*3 17.9 C 0 km/h
3079 20-08-2006 09:31:01 18.1 C 10.82 g/m*3 18.1 C 0 km/h
3080 20-08-2006 09:41:01 18.4 C 10.7 g/m*3 18.4 C 0 km/h
3081 20-08-2006 09:51:02 18.8 C 10.95 g/m*3 18.8 C 0 km/h
3082 20-08-2006 10:01:02 18.8 C 10.63 g/m*3 18.8 C 0 km/h
3083 20-08-2006 10:11:02 18.9 C 10.69 g/m*3 18.9 C 0 km/h
3084 20-08-2006 10:21:02 19.5 C 10.74 g/m*3 19.5 C 0 km/h
3085 20-08-2006 10:31:02 19.3 C 10.28 g/m*3 19.3 C 0 km/h
3086 20-08-2006 10:41:02 19.5 C 10.24 g/m*3 19.5 C 0 km/h
3087 20-08-2006 10:51:02 19.7 C 10.36 g/m*3 19.7 C 0 km/h
3088 20-08-2006 11:01:02 19.6 C 10.13 g/m*3 19.6 C 0 km/h
3089 20-08-2006 11:11:02 19.5 C 10.07 g/m*3 19.5 C 0 km/h
3090 20-08-2006 11:21:02 19.5 C 10.07 g/m*3 19.5 C 0 km/h
3091 20-08-2006 11:31:01 19.1 C 10 g/m*3 19.1 C 0 km/h
3092 20-08-2006 11:41:01 19.1 C 10 g/m*3 19.1 C 0 km/h
3093 20-08-2006 11:51:02 19.3 C 9.79 g/m*3 19.3 C 0 km/h
3094 20-08-2006 12:01:02 19.3 C 9.79 g/m*3 19.3 C 0 km/h
3095 20-08-2006 12:11:02 19.3 C 9.79 g/m*3 19.3 C 0 km/h
3096 20-08-2006 12:21:02 19.3 C 9.79 g/m*3 19.3 C 0 km/h
3097 20-08-2006 12:31:02 19.3 C 9.79 g/m*3 19.3 C 0 km/h
3098 20-08-2006 12:41:02 19.3 C 9.79 g/m*3 19.3 C 0 km/h
3099 20-08-2006 12:51:03 20 C 9.33 g/m*3 20 C 0 km/h
3100 20-08-2006 13:01:02 20.4 C 9.38 g/m*3 20.4 C 0 km/h
Sensor: Nr:Datum:Temp:Abs-Feuchte:Windchill:Wind:
Aussen-T/F 3101 20-08-2006 13:11:02 20.3 C 9.32 g/m*3 20.3 C 0 km/h
3102 20-08-2006 13:21:02 20.1 C 9.21 g/m*3 20.1 C 0 km/h
3103 20-08-2006 13:31:03 20.5 C 9.61 g/m*3 20.5 C 0 km/h
3104 20-08-2006 13:41:03 20.8 C 9.6 g/m*3 20.8 C 0 km/h
3105 20-08-2006 13:51:02 20.6 C 9.31 g/m*3 20.6 C 0 km/h
3106 20-08-2006 14:01:03 20.4 C 9.38 g/m*3 20.4 C 0 km/h
3107 20-08-2006 14:11:03 19.8 C 9.39 g/m*3 19.8 C 0 km/h
3108 20-08-2006 14:21:03 19.8 C 9.74 g/m*3 19.8 C 0 km/h
3109 20-08-2006 14:31:02 20.5 C 9.96 g/m*3 20.5 C 0 km/h
3110 20-08-2006 14:41:02 20.4 C 9.73 g/m*3 20.4 C 0 km/h
3111 20-08-2006 14:51:03 20.8 C 9.78 g/m*3 20.8 C 0 km/h
3112 20-08-2006 15:01:03 21.1 C 9.03 g/m*3 21.1 C 0 km/h
3113 20-08-2006 15:11:03 21.2 C 9.08 g/m*3 21.2 C 0 km/h
3114 20-08-2006 15:21:03 21.9 C 9.26 g/m*3 21.9 C 0 km/h
3115 20-08-2006 15:31:02 22.2 C 9.03 g/m*3 22.2 C 0 km/h
3116 20-08-2006 15:41:03 22.6 C 9.24 g/m*3 22.6 C 0 km/h
3117 20-08-2006 15:51:02 22.3 C 8.89 g/m*3 22.3 C 0 km/h
3118 20-08-2006 16:01:02 22.3 C 8.89 g/m*3 22.3 C 0 km/h
3119 20-08-2006 16:11:02 22.9 C 8.58 g/m*3 22.9 C 0 km/h
3120 20-08-2006 16:21:01 22.7 C 8.28 g/m*3 22.7 C 0 km/h
3121 20-08-2006 16:31:02 22.1 C 8.2 g/m*3 22.1 C 0 km/h
3122 20-08-2006 16:41:02 23.4 C 8.41 g/m*3 23.4 C 0 km/h
3123 20-08-2006 16:51:03 22.6 C 8.24 g/m*3 22.6 C 0 km/h
3124 20-08-2006 17:01:02 22.6 C 8.44 g/m*3 22.6 C 0 km/h
3125 20-08-2006 17:11:02 22.4 C 8.14 g/m*3 22.4 C 0 km/h
Sensor: Nr:Datum:Temp:Abs-Feuchte:Windchill:Wind:
Aussen-T/F 3126 20-08-2006 17:21:03 22 C 8.35 g/m*3 22 C 0 km/h
3127 20-08-2006 17:31:03 21.9 C 8.49 g/m*3 21.9 C 0 km/h
3128 20-08-2006 17:41:03 21.5 C 8.67 g/m*3 21.5 C 0 km/h
3129 20-08-2006 17:51:02 21.3 C 8.57 g/m*3 21.3 C 0 km/h
3130 20-08-2006 18:01:02 21.2 C 8.71 g/m*3 21.2 C 0 km/h
3131 20-08-2006 18:11:02 20.8 C 9.05 g/m*3 20.8 C 0 km/h
3132 20-08-2006 18:21:01 20.9 C 8.92 g/m*3 20.9 C 0 km/h
3133 20-08-2006 18:31:02 19.5 C 10.24 g/m*3 19.5 C 0 km/h
3134 20-08-2006 18:41:02 19.4 C 10.68 g/m*3 19.4 C 0 km/h
3135 20-08-2006 18:51:02 20.3 C 10.55 g/m*3 20.3 C 0 km/h
3136 20-08-2006 19:01:02 19.7 C 10.36 g/m*3 19.7 C 0 km/h
3137 20-08-2006 19:11:02 20 C 10.37 g/m*3 20 C 0 km/h
3138 20-08-2006 19:21:02 20.4 C 10.26 g/m*3 20.4 C 0 km/h
3139 20-08-2006 19:31:02 20.6 C 10.2 g/m*3 20.6 C 0 km/h
3140 20-08-2006 19:41:02 20.3 C 10.02 g/m*3 20.3 C 0 km/h
3141 20-08-2006 19:51:02 20 C 9.85 g/m*3 20 C 0 km/h
3142 20-08-2006 20:01:01 19.6 C 10.13 g/m*3 19.6 C 0 km/h
3143 20-08-2006 20:11:01 19.5 C 10.24 g/m*3 19.5 C 0 km/h
3144 20-08-2006 20:21:01 18.8 C 10.31 g/m*3 18.8 C 0 km/h
3145 20-08-2006 20:31:01 18.6 C 10.35 g/m*3 18.6 C 0 km/h
3146 20-08-2006 20:41:01 18.3 C 10.32 g/m*3 18.3 C 0 km/h
3147 20-08-2006 20:51:02 18.2 C 10.26 g/m*3 18.2 C 0 km/h
3148 20-08-2006 21:01:01 18.1 C 10.2 g/m*3 18.1 C 0 km/h
3149 20-08-2006 21:11:01 18.1 C 10.2 g/m*3 18.1 C 0 km/h
3150 20-08-2006 21:21:01 18 C 10.14 g/m*3 18 C 0 km/h
Sensor: Nr:Datum:Temp:Abs-Feuchte:Windchill:Wind:
Aussen-T/F 3151 20-08-2006 21:31:02 18.1 C 10.2 g/m*3 18.1 C 0 km/h
3152 20-08-2006 21:41:02 18 C 10.14 g/m*3 18 C 0 km/h
3153 20-08-2006 21:51:02 18 C 10.14 g/m*3 18 C 0 km/h
3154 20-08-2006 22:01:01 18 C 10.14 g/m*3 18 C 0 km/h
3155 20-08-2006 22:11:01 17.9 C 10.38 g/m*3 17.9 C 0 km/h
3156 20-08-2006 22:21:01 17.9 C 10.54 g/m*3 17.9 C 0 km/h
3157 20-08-2006 22:31:02 17.7 C 10.56 g/m*3 17.7 C 0 km/h
3158 20-08-2006 22:41:02 17.6 C 10.5 g/m*3 17.6 C 0 km/h
3159 20-08-2006 22:51:02 17.5 C 10.59 g/m*3 17.5 C 0 km/h
3160 20-08-2006 23:01:03 17.3 C 10.61 g/m*3 17.3 C 0 km/h
3161 20-08-2006 23:11:03 17.2 C 10.69 g/m*3 17.2 C 0 km/h
3162 20-08-2006 23:21:02 17.1 C 10.63 g/m*3 17.1 C 0 km/h
3163 20-08-2006 23:31:03 17 C 10.71 g/m*3 17 C 0 km/h
3164 20-08-2006 23:41:03 16.9 C 10.64 g/m*3 16.9 C 0 km/h
3165 20-08-2006 23:51:03 17 C 10.56 g/m*3 17 C 0 km/h
3166 21-08-2006 00:01:02 17 C 10.56 g/m*3 17 C 0 km/h
3167 21-08-2006 00:11:02 17.1 C 10.48 g/m*3 17.1 C 0 km/h
3168 21-08-2006 00:21:02 17 C 10.42 g/m*3 17 C 0 km/h
3169 21-08-2006 00:31:03 16.9 C 10.5 g/m*3 16.9 C 0 km/h
3170 21-08-2006 00:41:03 16.9 C 10.36 g/m*3 16.9 C 0 km/h
3171 21-08-2006 00:51:02 16.9 C 9.92 g/m*3 16.9 C 0 km/h
3172 21-08-2006 01:01:02 16.8 C 9.87 g/m*3 16.8 C 0 km/h
3173 21-08-2006 01:11:02 16.6 C 10.03 g/m*3 16.6 C 0 km/h
3174 21-08-2006 01:21:02 16.5 C 9.97 g/m*3 16.5 C 0 km/h
3175 21-08-2006 01:31:01 16.4 C 9.91 g/m*3 16.4 C 0 km/h
Sensor: Nr:Datum:Temp:Abs-Feuchte:Windchill:Wind:
Aussen-T/F 3176 21-08-2006 01:41:01 16.4 C 9.77 g/m*3 16.4 C 0 km/h
3177 21-08-2006 01:51:02 16.3 C 9.57 g/m*3 16.3 C 0 km/h
3178 21-08-2006 02:01:03 16.4 C 9.49 g/m*3 16.4 C 0 km/h
3179 21-08-2006 02:11:03 16.3 C 9.57 g/m*3 16.3 C 0 km/h
3180 21-08-2006 02:21:02 16.2 C 9.38 g/m*3 16.2 C 0 km/h
3181 21-08-2006 02:31:02 16 C 9.26 g/m*3 16 C 0 km/h
3182 21-08-2006 02:41:02 15.9 C 9.48 g/m*3 15.9 C 0 km/h
3183 21-08-2006 02:52:04 15.7 C 9.63 g/m*3 15.7 C 0 km/h
3184 21-08-2006 03:02:04 15.5 C 9.65 g/m*3 15.5 C 0 km/h
3185 21-08-2006 03:12:03 15.2 C 9.61 g/m*3 15.2 C 0 km/h
3186 21-08-2006 03:22:03 15.2 C 9.48 g/m*3 15.2 C 0 km/h
3187 21-08-2006 03:32:01 15.2 C 9.73 g/m*3 15.2 C 0 km/h
3188 21-08-2006 03:42:01 14.9 C 9.69 g/m*3 14.9 C 0 km/h
3189 21-08-2006 03:52:02 14.8 C 9.88 g/m*3 14.8 C 0 km/h
3190 21-08-2006 04:02:02 14.8 C 9.88 g/m*3 14.8 C 0 km/h
3191 21-08-2006 04:12:02 14.7 C 9.95 g/m*3 14.7 C 0 km/h
3192 21-08-2006 04:22:02 14.5 C 10.07 g/m*3 14.5 C 0 km/h
3193 21-08-2006 04:32:02 14.4 C 10.01 g/m*3 14.4 C 0 km/h
3194 21-08-2006 04:42:02 14.2 C 10.01 g/m*3 14.2 C 0 km/h
3195 21-08-2006 04:52:02 14 C 10.01 g/m*3 14 C 0 km/h
3196 21-08-2006 05:02:02 13.8 C 10.01 g/m*3 13.8 C 0 km/h
3197 21-08-2006 05:12:02 13.8 C 10.13 g/m*3 13.8 C 0 km/h
3198 21-08-2006 05:22:02 13.7 C 10.07 g/m*3 13.7 C 0 km/h
3199 21-08-2006 05:32:02 13.6 C 10 g/m*3 13.6 C 0 km/h
3200 21-08-2006 05:42:02 13.5 C 10.06 g/m*3 13.5 C 0 km/h
Sensor: Nr:Datum:Temp:Abs-Feuchte:Windchill:Wind:
Aussen-T/F 3201 21-08-2006 05:52:02 13.7 C 10.3 g/m*3 13.7 C 0 km/h
3202 21-08-2006 06:02:02 13.7 C 10.3 g/m*3 13.7 C 0 km/h
3203 21-08-2006 06:12:02 13.8 C 10.25 g/m*3 13.8 C 0 km/h
3204 21-08-2006 06:22:02 13.8 C 10.25 g/m*3 13.8 C 0 km/h
3205 21-08-2006 06:32:02 13.7 C 10.18 g/m*3 13.7 C 0 km/h
3206 21-08-2006 06:42:02 13.6 C 10.24 g/m*3 13.6 C 0 km/h
3207 21-08-2006 06:52:01 13.6 C 10.24 g/m*3 13.6 C 0 km/h
3208 21-08-2006 07:02:02 13.6 C 10.24 g/m*3 13.6 C 0 km/h
3209 21-08-2006 07:12:02 13.6 C 10.24 g/m*3 13.6 C 0 km/h
3210 21-08-2006 07:22:02 13.7 C 10.42 g/m*3 13.7 C 0 km/h
3211 21-08-2006 07:32:02 13.8 C 10.48 g/m*3 13.8 C 0 km/h
3212 21-08-2006 07:42:02 14 C 10.37 g/m*3 14 C 0 km/h
3213 21-08-2006 07:52:02 14.4 C 10.51 g/m*3 14.4 C 0 km/h
3214 21-08-2006 08:02:02 14.8 C 10.51 g/m*3 14.8 C 0 km/h
3215 21-08-2006 08:12:02 15 C 10.39 g/m*3 15 C 0 km/h
3216 21-08-2006 08:22:02 15.4 C 10.38 g/m*3 15.4 C 0 km/h
3217 21-08-2006 08:32:02 16 C 10.22 g/m*3 16 C 0 km/h
3218 21-08-2006 08:42:02 16.4 C 10.19 g/m*3 16.4 C 0 km/h
3219 21-08-2006 08:52:02 16.4 C 10.05 g/m*3 16.4 C 0 km/h
3220 21-08-2006 09:02:02 16.6 C 10.03 g/m*3 16.6 C 0 km/h
3221 21-08-2006 09:12:02 16.6 C 10.17 g/m*3 16.6 C 0 km/h
3222 21-08-2006 09:22:02 16.5 C 9.83 g/m*3 16.5 C 0 km/h
3223 21-08-2006 09:32:02 17 C 9.69 g/m*3 17 C 0 km/h
3224 21-08-2006 09:42:02 17.1 C 9.9 g/m*3 17.1 C 0 km/h
3225 21-08-2006 09:52:02 17.3 C 9.87 g/m*3 17.3 C 0 km/h
Sensor: Nr:Datum:Temp:Abs-Feuchte:Windchill:Wind:
Aussen-T/F 3226 21-08-2006 10:02:02 17.5 C 9.99 g/m*3 17.5 C 0 km/h
3227 2